<?xml version="1.0" encoding="UTF-8" standalone="no" ?>
<gpx xmlns="http://www.topografix.com/GPX/1/1" xmlns:xsi="http://www.w3.org/2001/XMLSchema-instance" xsi:schemaLocation="http://www.topografix.com/GPX/1/1 http://www.topografix.com/GPX/1/1/gpx.xsd" version="1.1" creator="VisuGPX - https://www.visugpx.com">
  <metadata>
    <name>83-CD-2013-15-12-Sillans la Cascade - Chapelle St Laurent - Cascades</name>
    <desc><![CDATA[Sillans la Cascade - Chapelle St Laurent - Cascades]]></desc>
  </metadata>
  <trk>
    <name><![CDATA[2013-12-15-sillans la C]]></name>
    <trkseg>
      <trkpt lat="43.56661" lon="6.17994">
        <ele>360.1</ele>
        <time>2013-12-15T07:59:42Z</time>
      </trkpt>
      <trkpt lat="43.56669" lon="6.17989">
        <ele>360.1</ele>
        <time>2013-12-15T08:00:19Z</time>
      </trkpt>
      <trkpt lat="43.5667" lon="6.1799">
        <ele>359.9</ele>
        <time>2013-12-15T08:00:20Z</time>
      </trkpt>
      <trkpt lat="43.5666" lon="6.17991">
        <ele>359.3</ele>
        <time>2013-12-15T08:01:37Z</time>
      </trkpt>
      <trkpt lat="43.56652" lon="6.17996">
        <ele>359.7</ele>
        <time>2013-12-15T08:04:33Z</time>
      </trkpt>
      <trkpt lat="43.56664" lon="6.17979">
        <ele>360.4</ele>
        <time>2013-12-15T08:05:10Z</time>
      </trkpt>
      <trkpt lat="43.56671" lon="6.1797">
        <ele>360.7</ele>
        <time>2013-12-15T08:05:18Z</time>
      </trkpt>
      <trkpt lat="43.56675" lon="6.17961">
        <ele>361.1</ele>
        <time>2013-12-15T08:05:26Z</time>
      </trkpt>
      <trkpt lat="43.5668" lon="6.17952">
        <ele>361.9</ele>
        <time>2013-12-15T08:05:33Z</time>
      </trkpt>
      <trkpt lat="43.56681" lon="6.17951">
        <ele>362.2</ele>
        <time>2013-12-15T08:05:34Z</time>
      </trkpt>
      <trkpt lat="43.56683" lon="6.17929">
        <ele>361.9</ele>
        <time>2013-12-15T08:05:50Z</time>
      </trkpt>
      <trkpt lat="43.56684" lon="6.17917">
        <ele>362.4</ele>
        <time>2013-12-15T08:05:57Z</time>
      </trkpt>
      <trkpt lat="43.56684" lon="6.17905">
        <ele>362.4</ele>
        <time>2013-12-15T08:06:05Z</time>
      </trkpt>
      <trkpt lat="43.56683" lon="6.17894">
        <ele>362.6</ele>
        <time>2013-12-15T08:06:13Z</time>
      </trkpt>
      <trkpt lat="43.56683" lon="6.17882">
        <ele>363.3</ele>
        <time>2013-12-15T08:06:21Z</time>
      </trkpt>
      <trkpt lat="43.56688" lon="6.17873">
        <ele>363</ele>
        <time>2013-12-15T08:06:29Z</time>
      </trkpt>
      <trkpt lat="43.56684" lon="6.17862">
        <ele>363.3</ele>
        <time>2013-12-15T08:06:35Z</time>
      </trkpt>
      <trkpt lat="43.56683" lon="6.17861">
        <ele>363.2</ele>
        <time>2013-12-15T08:06:36Z</time>
      </trkpt>
      <trkpt lat="43.56682" lon="6.17839">
        <ele>365.3</ele>
        <time>2013-12-15T08:06:52Z</time>
      </trkpt>
      <trkpt lat="43.56675" lon="6.17834">
        <ele>365.9</ele>
        <time>2013-12-15T08:06:59Z</time>
      </trkpt>
      <trkpt lat="43.56675" lon="6.17822">
        <ele>366.2</ele>
        <time>2013-12-15T08:07:06Z</time>
      </trkpt>
      <trkpt lat="43.56678" lon="6.17812">
        <ele>367.5</ele>
        <time>2013-12-15T08:07:18Z</time>
      </trkpt>
      <trkpt lat="43.56679" lon="6.17801">
        <ele>368.5</ele>
        <time>2013-12-15T08:07:25Z</time>
      </trkpt>
      <trkpt lat="43.56686" lon="6.17797">
        <ele>367.9</ele>
        <time>2013-12-15T08:07:40Z</time>
      </trkpt>
      <trkpt lat="43.56688" lon="6.17797">
        <ele>368</ele>
        <time>2013-12-15T08:07:41Z</time>
      </trkpt>
      <trkpt lat="43.56698" lon="6.1778">
        <ele>367.4</ele>
        <time>2013-12-15T08:08:06Z</time>
      </trkpt>
      <trkpt lat="43.56705" lon="6.17775">
        <ele>368.1</ele>
        <time>2013-12-15T08:08:12Z</time>
      </trkpt>
      <trkpt lat="43.56705" lon="6.17763">
        <ele>369</ele>
        <time>2013-12-15T08:08:21Z</time>
      </trkpt>
      <trkpt lat="43.56697" lon="6.1776">
        <ele>369.8</ele>
        <time>2013-12-15T08:08:31Z</time>
      </trkpt>
      <trkpt lat="43.56688" lon="6.17759">
        <ele>371.3</ele>
        <time>2013-12-15T08:08:40Z</time>
      </trkpt>
      <trkpt lat="43.5668" lon="6.1776">
        <ele>371.2</ele>
        <time>2013-12-15T08:08:47Z</time>
      </trkpt>
      <trkpt lat="43.56678" lon="6.1776">
        <ele>371.1</ele>
        <time>2013-12-15T08:08:48Z</time>
      </trkpt>
      <trkpt lat="43.56664" lon="6.17769">
        <ele>372</ele>
        <time>2013-12-15T08:09:02Z</time>
      </trkpt>
      <trkpt lat="43.56655" lon="6.17771">
        <ele>372.9</ele>
        <time>2013-12-15T08:09:10Z</time>
      </trkpt>
      <trkpt lat="43.56647" lon="6.17774">
        <ele>373.1</ele>
        <time>2013-12-15T08:09:17Z</time>
      </trkpt>
      <trkpt lat="43.56648" lon="6.17762">
        <ele>376.6</ele>
        <time>2013-12-15T08:09:41Z</time>
      </trkpt>
      <trkpt lat="43.56654" lon="6.17755">
        <ele>377.7</ele>
        <time>2013-12-15T08:09:51Z</time>
      </trkpt>
      <trkpt lat="43.56656" lon="6.17755">
        <ele>377.9</ele>
        <time>2013-12-15T08:09:52Z</time>
      </trkpt>
      <trkpt lat="43.56645" lon="6.17739">
        <ele>381.8</ele>
        <time>2013-12-15T08:10:15Z</time>
      </trkpt>
      <trkpt lat="43.56637" lon="6.17735">
        <ele>384.3</ele>
        <time>2013-12-15T08:10:33Z</time>
      </trkpt>
      <trkpt lat="43.56628" lon="6.17733">
        <ele>386.2</ele>
        <time>2013-12-15T08:10:42Z</time>
      </trkpt>
      <trkpt lat="43.5662" lon="6.17735">
        <ele>388.9</ele>
        <time>2013-12-15T08:10:58Z</time>
      </trkpt>
      <trkpt lat="43.56618" lon="6.17734">
        <ele>388.9</ele>
        <time>2013-12-15T08:10:59Z</time>
      </trkpt>
      <trkpt lat="43.56603" lon="6.1773">
        <ele>391.8</ele>
        <time>2013-12-15T08:11:19Z</time>
      </trkpt>
      <trkpt lat="43.56594" lon="6.1773">
        <ele>393.5</ele>
        <time>2013-12-15T08:11:29Z</time>
      </trkpt>
      <trkpt lat="43.56587" lon="6.17734">
        <ele>393.8</ele>
        <time>2013-12-15T08:11:38Z</time>
      </trkpt>
      <trkpt lat="43.56578" lon="6.17732">
        <ele>395.9</ele>
        <time>2013-12-15T08:11:54Z</time>
      </trkpt>
      <trkpt lat="43.56569" lon="6.17733">
        <ele>397.8</ele>
        <time>2013-12-15T08:12:07Z</time>
      </trkpt>
      <trkpt lat="43.56568" lon="6.17734">
        <ele>397.9</ele>
        <time>2013-12-15T08:12:08Z</time>
      </trkpt>
      <trkpt lat="43.56553" lon="6.17734">
        <ele>400.3</ele>
        <time>2013-12-15T08:12:27Z</time>
      </trkpt>
      <trkpt lat="43.56544" lon="6.17734">
        <ele>401.9</ele>
        <time>2013-12-15T08:12:41Z</time>
      </trkpt>
      <trkpt lat="43.56536" lon="6.17732">
        <ele>403.7</ele>
        <time>2013-12-15T08:12:52Z</time>
      </trkpt>
      <trkpt lat="43.56544" lon="6.17736">
        <ele>408.3</ele>
        <time>2013-12-15T08:13:30Z</time>
      </trkpt>
      <trkpt lat="43.56546" lon="6.17735">
        <ele>408.7</ele>
        <time>2013-12-15T08:13:31Z</time>
      </trkpt>
      <trkpt lat="43.56547" lon="6.17718">
        <ele>411.3</ele>
        <time>2013-12-15T08:13:48Z</time>
      </trkpt>
      <trkpt lat="43.5654" lon="6.17711">
        <ele>413.8</ele>
        <time>2013-12-15T08:14:01Z</time>
      </trkpt>
      <trkpt lat="43.56549" lon="6.17709">
        <ele>416.4</ele>
        <time>2013-12-15T08:14:20Z</time>
      </trkpt>
      <trkpt lat="43.56557" lon="6.17707">
        <ele>418.7</ele>
        <time>2013-12-15T08:14:37Z</time>
      </trkpt>
      <trkpt lat="43.56558" lon="6.17706">
        <ele>419</ele>
        <time>2013-12-15T08:14:38Z</time>
      </trkpt>
      <trkpt lat="43.56569" lon="6.1769">
        <ele>423.7</ele>
        <time>2013-12-15T08:15:03Z</time>
      </trkpt>
      <trkpt lat="43.56577" lon="6.17685">
        <ele>425.1</ele>
        <time>2013-12-15T08:15:12Z</time>
      </trkpt>
      <trkpt lat="43.56582" lon="6.17676">
        <ele>427</ele>
        <time>2013-12-15T08:15:25Z</time>
      </trkpt>
      <trkpt lat="43.56583" lon="6.17664">
        <ele>429.7</ele>
        <time>2013-12-15T08:15:40Z</time>
      </trkpt>
      <trkpt lat="43.56583" lon="6.17663">
        <ele>429.9</ele>
        <time>2013-12-15T08:15:41Z</time>
      </trkpt>
      <trkpt lat="43.56595" lon="6.17648">
        <ele>434.2</ele>
        <time>2013-12-15T08:16:06Z</time>
      </trkpt>
      <trkpt lat="43.56602" lon="6.1764">
        <ele>435.6</ele>
        <time>2013-12-15T08:16:15Z</time>
      </trkpt>
      <trkpt lat="43.56609" lon="6.17634">
        <ele>436.5</ele>
        <time>2013-12-15T08:16:25Z</time>
      </trkpt>
      <trkpt lat="43.56614" lon="6.17624">
        <ele>436.8</ele>
        <time>2013-12-15T08:16:50Z</time>
      </trkpt>
      <trkpt lat="43.56615" lon="6.17624">
        <ele>436.7</ele>
        <time>2013-12-15T08:16:51Z</time>
      </trkpt>
      <trkpt lat="43.56615" lon="6.17646">
        <ele>435.7</ele>
        <time>2013-12-15T08:17:16Z</time>
      </trkpt>
      <trkpt lat="43.56611" lon="6.17635">
        <ele>436.4</ele>
        <time>2013-12-15T08:20:53Z</time>
      </trkpt>
      <trkpt lat="43.5661" lon="6.17634">
        <ele>436.5</ele>
        <time>2013-12-15T08:20:54Z</time>
      </trkpt>
      <trkpt lat="43.56602" lon="6.17618">
        <ele>439</ele>
        <time>2013-12-15T08:21:29Z</time>
      </trkpt>
      <trkpt lat="43.56593" lon="6.17615">
        <ele>439.9</ele>
        <time>2013-12-15T08:21:40Z</time>
      </trkpt>
      <trkpt lat="43.56585" lon="6.17617">
        <ele>440.8</ele>
        <time>2013-12-15T08:21:49Z</time>
      </trkpt>
      <trkpt lat="43.56576" lon="6.17615">
        <ele>441.7</ele>
        <time>2013-12-15T08:21:58Z</time>
      </trkpt>
      <trkpt lat="43.56576" lon="6.17613">
        <ele>441.7</ele>
        <time>2013-12-15T08:21:59Z</time>
      </trkpt>
      <trkpt lat="43.5657" lon="6.17593">
        <ele>440.7</ele>
        <time>2013-12-15T08:22:14Z</time>
      </trkpt>
      <trkpt lat="43.56562" lon="6.17587">
        <ele>440.6</ele>
        <time>2013-12-15T08:22:23Z</time>
      </trkpt>
      <trkpt lat="43.56554" lon="6.17585">
        <ele>440.2</ele>
        <time>2013-12-15T08:22:31Z</time>
      </trkpt>
      <trkpt lat="43.56549" lon="6.17576">
        <ele>439.9</ele>
        <time>2013-12-15T08:22:37Z</time>
      </trkpt>
      <trkpt lat="43.56542" lon="6.17568">
        <ele>439.3</ele>
        <time>2013-12-15T08:22:46Z</time>
      </trkpt>
      <trkpt lat="43.56534" lon="6.17566">
        <ele>437.6</ele>
        <time>2013-12-15T08:22:57Z</time>
      </trkpt>
      <trkpt lat="43.56528" lon="6.17572">
        <ele>436.5</ele>
        <time>2013-12-15T08:23:03Z</time>
      </trkpt>
      <trkpt lat="43.56527" lon="6.17574">
        <ele>436.5</ele>
        <time>2013-12-15T08:23:04Z</time>
      </trkpt>
      <trkpt lat="43.56517" lon="6.17578">
        <ele>434.7</ele>
        <time>2013-12-15T08:24:15Z</time>
      </trkpt>
      <trkpt lat="43.56516" lon="6.17578">
        <ele>434.8</ele>
        <time>2013-12-15T08:24:16Z</time>
      </trkpt>
      <trkpt lat="43.565" lon="6.17581">
        <ele>431.8</ele>
        <time>2013-12-15T08:24:33Z</time>
      </trkpt>
      <trkpt lat="43.56492" lon="6.17586">
        <ele>430.4</ele>
        <time>2013-12-15T08:24:50Z</time>
      </trkpt>
      <trkpt lat="43.56486" lon="6.17594">
        <ele>430.2</ele>
        <time>2013-12-15T08:25:08Z</time>
      </trkpt>
      <trkpt lat="43.56483" lon="6.17583">
        <ele>430.8</ele>
        <time>2013-12-15T08:25:54Z</time>
      </trkpt>
      <trkpt lat="43.56483" lon="6.17581">
        <ele>430.9</ele>
        <time>2013-12-15T08:25:55Z</time>
      </trkpt>
      <trkpt lat="43.56492" lon="6.17563">
        <ele>429.8</ele>
        <time>2013-12-15T08:26:42Z</time>
      </trkpt>
      <trkpt lat="43.56495" lon="6.17552">
        <ele>429.2</ele>
        <time>2013-12-15T08:26:53Z</time>
      </trkpt>
      <trkpt lat="43.56495" lon="6.1754">
        <ele>428.6</ele>
        <time>2013-12-15T08:27:00Z</time>
      </trkpt>
      <trkpt lat="43.56494" lon="6.17539">
        <ele>428.4</ele>
        <time>2013-12-15T08:27:01Z</time>
      </trkpt>
      <trkpt lat="43.56501" lon="6.17518">
        <ele>426.8</ele>
        <time>2013-12-15T08:27:19Z</time>
      </trkpt>
      <trkpt lat="43.56498" lon="6.17507">
        <ele>426.5</ele>
        <time>2013-12-15T08:27:27Z</time>
      </trkpt>
      <trkpt lat="43.56496" lon="6.17497">
        <ele>426</ele>
        <time>2013-12-15T08:27:35Z</time>
      </trkpt>
      <trkpt lat="43.56493" lon="6.17485">
        <ele>424.9</ele>
        <time>2013-12-15T08:27:43Z</time>
      </trkpt>
      <trkpt lat="43.56491" lon="6.17475">
        <ele>424.3</ele>
        <time>2013-12-15T08:27:50Z</time>
      </trkpt>
      <trkpt lat="43.56488" lon="6.17463">
        <ele>422.6</ele>
        <time>2013-12-15T08:27:58Z</time>
      </trkpt>
      <trkpt lat="43.56488" lon="6.17451">
        <ele>421.7</ele>
        <time>2013-12-15T08:28:07Z</time>
      </trkpt>
      <trkpt lat="43.56488" lon="6.17449">
        <ele>421.6</ele>
        <time>2013-12-15T08:28:08Z</time>
      </trkpt>
      <trkpt lat="43.56484" lon="6.1743">
        <ele>420.3</ele>
        <time>2013-12-15T08:28:22Z</time>
      </trkpt>
      <trkpt lat="43.56481" lon="6.17418">
        <ele>419.6</ele>
        <time>2013-12-15T08:28:29Z</time>
      </trkpt>
      <trkpt lat="43.5648" lon="6.17406">
        <ele>419.1</ele>
        <time>2013-12-15T08:28:37Z</time>
      </trkpt>
      <trkpt lat="43.56478" lon="6.17396">
        <ele>418.2</ele>
        <time>2013-12-15T08:28:44Z</time>
      </trkpt>
      <trkpt lat="43.56475" lon="6.17385">
        <ele>417.4</ele>
        <time>2013-12-15T08:28:51Z</time>
      </trkpt>
      <trkpt lat="43.56473" lon="6.17374">
        <ele>417.7</ele>
        <time>2013-12-15T08:29:00Z</time>
      </trkpt>
      <trkpt lat="43.56471" lon="6.17362">
        <ele>417.4</ele>
        <time>2013-12-15T08:29:08Z</time>
      </trkpt>
      <trkpt lat="43.56471" lon="6.1736">
        <ele>417.5</ele>
        <time>2013-12-15T08:29:09Z</time>
      </trkpt>
      <trkpt lat="43.56474" lon="6.17339">
        <ele>416.9</ele>
        <time>2013-12-15T08:29:23Z</time>
      </trkpt>
      <trkpt lat="43.56479" lon="6.17331">
        <ele>416.9</ele>
        <time>2013-12-15T08:29:30Z</time>
      </trkpt>
      <trkpt lat="43.5648" lon="6.17319">
        <ele>416.8</ele>
        <time>2013-12-15T08:29:38Z</time>
      </trkpt>
      <trkpt lat="43.56482" lon="6.17308">
        <ele>416.6</ele>
        <time>2013-12-15T08:29:45Z</time>
      </trkpt>
      <trkpt lat="43.56481" lon="6.17296">
        <ele>416.6</ele>
        <time>2013-12-15T08:29:53Z</time>
      </trkpt>
      <trkpt lat="43.5648" lon="6.17285">
        <ele>416.6</ele>
        <time>2013-12-15T08:30:01Z</time>
      </trkpt>
      <trkpt lat="43.56478" lon="6.17274">
        <ele>416.7</ele>
        <time>2013-12-15T08:30:07Z</time>
      </trkpt>
      <trkpt lat="43.56479" lon="6.17261">
        <ele>417.4</ele>
        <time>2013-12-15T08:30:14Z</time>
      </trkpt>
      <trkpt lat="43.56479" lon="6.1726">
        <ele>417.5</ele>
        <time>2013-12-15T08:30:15Z</time>
      </trkpt>
      <trkpt lat="43.56496" lon="6.17257">
        <ele>417.9</ele>
        <time>2013-12-15T08:30:38Z</time>
      </trkpt>
      <trkpt lat="43.56503" lon="6.17252">
        <ele>419.4</ele>
        <time>2013-12-15T08:30:46Z</time>
      </trkpt>
      <trkpt lat="43.56511" lon="6.17245">
        <ele>419</ele>
        <time>2013-12-15T08:30:58Z</time>
      </trkpt>
      <trkpt lat="43.56516" lon="6.17237">
        <ele>420</ele>
        <time>2013-12-15T08:31:05Z</time>
      </trkpt>
      <trkpt lat="43.56523" lon="6.1723">
        <ele>421</ele>
        <time>2013-12-15T08:31:13Z</time>
      </trkpt>
      <trkpt lat="43.56532" lon="6.17228">
        <ele>421.4</ele>
        <time>2013-12-15T08:31:21Z</time>
      </trkpt>
      <trkpt lat="43.56533" lon="6.17228">
        <ele>421.3</ele>
        <time>2013-12-15T08:31:22Z</time>
      </trkpt>
      <trkpt lat="43.56548" lon="6.17224">
        <ele>423.1</ele>
        <time>2013-12-15T08:31:43Z</time>
      </trkpt>
      <trkpt lat="43.56555" lon="6.17219">
        <ele>423.4</ele>
        <time>2013-12-15T08:31:52Z</time>
      </trkpt>
      <trkpt lat="43.56563" lon="6.17214">
        <ele>424.2</ele>
        <time>2013-12-15T08:31:59Z</time>
      </trkpt>
      <trkpt lat="43.5657" lon="6.17209">
        <ele>425.1</ele>
        <time>2013-12-15T08:32:05Z</time>
      </trkpt>
      <trkpt lat="43.56578" lon="6.17205">
        <ele>425.4</ele>
        <time>2013-12-15T08:32:13Z</time>
      </trkpt>
      <trkpt lat="43.56586" lon="6.17201">
        <ele>426.4</ele>
        <time>2013-12-15T08:32:24Z</time>
      </trkpt>
      <trkpt lat="43.56587" lon="6.172">
        <ele>426.6</ele>
        <time>2013-12-15T08:32:25Z</time>
      </trkpt>
      <trkpt lat="43.56601" lon="6.17189">
        <ele>428.4</ele>
        <time>2013-12-15T08:32:45Z</time>
      </trkpt>
      <trkpt lat="43.56607" lon="6.17181">
        <ele>428.7</ele>
        <time>2013-12-15T08:32:53Z</time>
      </trkpt>
      <trkpt lat="43.56616" lon="6.17177">
        <ele>429.5</ele>
        <time>2013-12-15T08:33:02Z</time>
      </trkpt>
      <trkpt lat="43.56624" lon="6.17171">
        <ele>430.4</ele>
        <time>2013-12-15T08:33:13Z</time>
      </trkpt>
      <trkpt lat="43.56632" lon="6.17167">
        <ele>430.1</ele>
        <time>2013-12-15T08:33:23Z</time>
      </trkpt>
      <trkpt lat="43.56639" lon="6.17162">
        <ele>431</ele>
        <time>2013-12-15T08:33:30Z</time>
      </trkpt>
      <trkpt lat="43.5664" lon="6.17161">
        <ele>430.9</ele>
        <time>2013-12-15T08:33:31Z</time>
      </trkpt>
      <trkpt lat="43.56654" lon="6.17152">
        <ele>429.4</ele>
        <time>2013-12-15T08:33:44Z</time>
      </trkpt>
      <trkpt lat="43.56663" lon="6.17153">
        <ele>427.7</ele>
        <time>2013-12-15T08:33:54Z</time>
      </trkpt>
      <trkpt lat="43.5667" lon="6.17157">
        <ele>426.5</ele>
        <time>2013-12-15T08:34:03Z</time>
      </trkpt>
      <trkpt lat="43.56674" lon="6.17167">
        <ele>425.4</ele>
        <time>2013-12-15T08:34:12Z</time>
      </trkpt>
      <trkpt lat="43.56682" lon="6.17172">
        <ele>424.3</ele>
        <time>2013-12-15T08:34:20Z</time>
      </trkpt>
      <trkpt lat="43.56677" lon="6.17162">
        <ele>423.8</ele>
        <time>2013-12-15T08:34:34Z</time>
      </trkpt>
      <trkpt lat="43.56676" lon="6.17162">
        <ele>423.8</ele>
        <time>2013-12-15T08:34:35Z</time>
      </trkpt>
      <trkpt lat="43.56676" lon="6.17149">
        <ele>423.5</ele>
        <time>2013-12-15T08:37:24Z</time>
      </trkpt>
      <trkpt lat="43.56668" lon="6.1713">
        <ele>424.3</ele>
        <time>2013-12-15T08:37:39Z</time>
      </trkpt>
      <trkpt lat="43.56664" lon="6.17119">
        <ele>425.3</ele>
        <time>2013-12-15T08:37:48Z</time>
      </trkpt>
      <trkpt lat="43.56659" lon="6.17111">
        <ele>425.3</ele>
        <time>2013-12-15T08:37:55Z</time>
      </trkpt>
      <trkpt lat="43.56654" lon="6.17102">
        <ele>426.3</ele>
        <time>2013-12-15T08:38:02Z</time>
      </trkpt>
      <trkpt lat="43.56649" lon="6.17092">
        <ele>426.8</ele>
        <time>2013-12-15T08:38:09Z</time>
      </trkpt>
      <trkpt lat="43.56645" lon="6.17083">
        <ele>427.2</ele>
        <time>2013-12-15T08:38:16Z</time>
      </trkpt>
      <trkpt lat="43.56641" lon="6.17073">
        <ele>428</ele>
        <time>2013-12-15T08:38:26Z</time>
      </trkpt>
      <trkpt lat="43.5664" lon="6.17072">
        <ele>428</ele>
        <time>2013-12-15T08:38:27Z</time>
      </trkpt>
      <trkpt lat="43.56631" lon="6.17054">
        <ele>429.4</ele>
        <time>2013-12-15T08:38:45Z</time>
      </trkpt>
      <trkpt lat="43.56624" lon="6.17049">
        <ele>429.7</ele>
        <time>2013-12-15T08:38:48Z</time>
      </trkpt>
      <trkpt lat="43.56617" lon="6.17043">
        <ele>431.1</ele>
        <time>2013-12-15T08:38:56Z</time>
      </trkpt>
      <trkpt lat="43.56611" lon="6.17034">
        <ele>432.1</ele>
        <time>2013-12-15T08:39:07Z</time>
      </trkpt>
      <trkpt lat="43.56605" lon="6.17027">
        <ele>432.4</ele>
        <time>2013-12-15T08:39:14Z</time>
      </trkpt>
      <trkpt lat="43.56598" lon="6.1702">
        <ele>432.7</ele>
        <time>2013-12-15T08:39:20Z</time>
      </trkpt>
      <trkpt lat="43.56592" lon="6.17011">
        <ele>433</ele>
        <time>2013-12-15T08:39:28Z</time>
      </trkpt>
      <trkpt lat="43.56591" lon="6.17011">
        <ele>433</ele>
        <time>2013-12-15T08:39:29Z</time>
      </trkpt>
      <trkpt lat="43.56577" lon="6.16997">
        <ele>433.2</ele>
        <time>2013-12-15T08:39:41Z</time>
      </trkpt>
      <trkpt lat="43.56571" lon="6.16988">
        <ele>434.1</ele>
        <time>2013-12-15T08:39:50Z</time>
      </trkpt>
      <trkpt lat="43.56565" lon="6.16984">
        <ele>434.3</ele>
        <time>2013-12-15T08:39:56Z</time>
      </trkpt>
      <trkpt lat="43.56559" lon="6.16976">
        <ele>435</ele>
        <time>2013-12-15T08:40:02Z</time>
      </trkpt>
      <trkpt lat="43.56553" lon="6.16968">
        <ele>436</ele>
        <time>2013-12-15T08:40:10Z</time>
      </trkpt>
      <trkpt lat="43.56547" lon="6.1696">
        <ele>435.3</ele>
        <time>2013-12-15T08:40:18Z</time>
      </trkpt>
      <trkpt lat="43.56541" lon="6.1695">
        <ele>435.2</ele>
        <time>2013-12-15T08:40:25Z</time>
      </trkpt>
      <trkpt lat="43.56536" lon="6.16943">
        <ele>435.5</ele>
        <time>2013-12-15T08:40:30Z</time>
      </trkpt>
      <trkpt lat="43.56534" lon="6.16942">
        <ele>435.6</ele>
        <time>2013-12-15T08:40:31Z</time>
      </trkpt>
      <trkpt lat="43.56526" lon="6.16926">
        <ele>436.1</ele>
        <time>2013-12-15T08:40:42Z</time>
      </trkpt>
      <trkpt lat="43.56522" lon="6.16918">
        <ele>435.7</ele>
        <time>2013-12-15T08:40:47Z</time>
      </trkpt>
      <trkpt lat="43.56516" lon="6.16908">
        <ele>435.2</ele>
        <time>2013-12-15T08:40:54Z</time>
      </trkpt>
      <trkpt lat="43.56512" lon="6.16899">
        <ele>435.7</ele>
        <time>2013-12-15T08:41:01Z</time>
      </trkpt>
      <trkpt lat="43.56508" lon="6.16889">
        <ele>435.2</ele>
        <time>2013-12-15T08:41:08Z</time>
      </trkpt>
      <trkpt lat="43.56503" lon="6.16881">
        <ele>434.9</ele>
        <time>2013-12-15T08:41:14Z</time>
      </trkpt>
      <trkpt lat="43.56498" lon="6.16871">
        <ele>435.2</ele>
        <time>2013-12-15T08:41:22Z</time>
      </trkpt>
      <trkpt lat="43.56493" lon="6.16863">
        <ele>434.5</ele>
        <time>2013-12-15T08:41:28Z</time>
      </trkpt>
      <trkpt lat="43.56489" lon="6.16852">
        <ele>434.7</ele>
        <time>2013-12-15T08:41:35Z</time>
      </trkpt>
      <trkpt lat="43.56489" lon="6.16851">
        <ele>434.7</ele>
        <time>2013-12-15T08:41:36Z</time>
      </trkpt>
      <trkpt lat="43.56482" lon="6.16831">
        <ele>433.9</ele>
        <time>2013-12-15T08:41:48Z</time>
      </trkpt>
      <trkpt lat="43.56479" lon="6.1682">
        <ele>433.7</ele>
        <time>2013-12-15T08:41:55Z</time>
      </trkpt>
      <trkpt lat="43.56473" lon="6.16811">
        <ele>433.7</ele>
        <time>2013-12-15T08:42:09Z</time>
      </trkpt>
      <trkpt lat="43.56468" lon="6.16801">
        <ele>433.6</ele>
        <time>2013-12-15T08:42:16Z</time>
      </trkpt>
      <trkpt lat="43.56463" lon="6.16793">
        <ele>433.3</ele>
        <time>2013-12-15T08:42:22Z</time>
      </trkpt>
      <trkpt lat="43.56457" lon="6.16783">
        <ele>433.4</ele>
        <time>2013-12-15T08:42:30Z</time>
      </trkpt>
      <trkpt lat="43.56453" lon="6.16774">
        <ele>433.5</ele>
        <time>2013-12-15T08:42:37Z</time>
      </trkpt>
      <trkpt lat="43.56452" lon="6.16773">
        <ele>433.3</ele>
        <time>2013-12-15T08:42:38Z</time>
      </trkpt>
      <trkpt lat="43.56441" lon="6.16757">
        <ele>432.6</ele>
        <time>2013-12-15T08:42:51Z</time>
      </trkpt>
      <trkpt lat="43.56438" lon="6.16746">
        <ele>432.2</ele>
        <time>2013-12-15T08:42:59Z</time>
      </trkpt>
      <trkpt lat="43.56432" lon="6.16737">
        <ele>430.6</ele>
        <time>2013-12-15T08:43:07Z</time>
      </trkpt>
      <trkpt lat="43.56425" lon="6.16732">
        <ele>429.2</ele>
        <time>2013-12-15T08:43:12Z</time>
      </trkpt>
      <trkpt lat="43.56423" lon="6.16721">
        <ele>429.4</ele>
        <time>2013-12-15T08:44:11Z</time>
      </trkpt>
      <trkpt lat="43.56423" lon="6.1672">
        <ele>429.5</ele>
        <time>2013-12-15T08:44:12Z</time>
      </trkpt>
      <trkpt lat="43.56414" lon="6.16704">
        <ele>428.6</ele>
        <time>2013-12-15T08:44:24Z</time>
      </trkpt>
      <trkpt lat="43.56409" lon="6.16694">
        <ele>427.6</ele>
        <time>2013-12-15T08:44:31Z</time>
      </trkpt>
      <trkpt lat="43.56404" lon="6.16684">
        <ele>427.4</ele>
        <time>2013-12-15T08:44:39Z</time>
      </trkpt>
      <trkpt lat="43.56399" lon="6.16675">
        <ele>427</ele>
        <time>2013-12-15T08:44:45Z</time>
      </trkpt>
      <trkpt lat="43.56393" lon="6.16667">
        <ele>427.2</ele>
        <time>2013-12-15T08:44:52Z</time>
      </trkpt>
      <trkpt lat="43.56387" lon="6.1666">
        <ele>426.6</ele>
        <time>2013-12-15T08:44:59Z</time>
      </trkpt>
      <trkpt lat="43.56382" lon="6.1665">
        <ele>425.9</ele>
        <time>2013-12-15T08:45:06Z</time>
      </trkpt>
      <trkpt lat="43.56376" lon="6.16642">
        <ele>425.5</ele>
        <time>2013-12-15T08:45:13Z</time>
      </trkpt>
      <trkpt lat="43.56375" lon="6.16641">
        <ele>425.5</ele>
        <time>2013-12-15T08:45:14Z</time>
      </trkpt>
      <trkpt lat="43.56364" lon="6.16626">
        <ele>424.4</ele>
        <time>2013-12-15T08:45:27Z</time>
      </trkpt>
      <trkpt lat="43.56359" lon="6.16616">
        <ele>424.6</ele>
        <time>2013-12-15T08:45:36Z</time>
      </trkpt>
      <trkpt lat="43.56353" lon="6.16608">
        <ele>424.7</ele>
        <time>2013-12-15T08:45:43Z</time>
      </trkpt>
      <trkpt lat="43.56348" lon="6.16599">
        <ele>425</ele>
        <time>2013-12-15T08:45:50Z</time>
      </trkpt>
      <trkpt lat="43.56343" lon="6.1659">
        <ele>425.8</ele>
        <time>2013-12-15T08:45:57Z</time>
      </trkpt>
      <trkpt lat="43.56338" lon="6.1658">
        <ele>426</ele>
        <time>2013-12-15T08:46:04Z</time>
      </trkpt>
      <trkpt lat="43.56334" lon="6.1657">
        <ele>426.3</ele>
        <time>2013-12-15T08:46:11Z</time>
      </trkpt>
      <trkpt lat="43.56329" lon="6.1656">
        <ele>426.8</ele>
        <time>2013-12-15T08:46:18Z</time>
      </trkpt>
      <trkpt lat="43.56328" lon="6.16559">
        <ele>427</ele>
        <time>2013-12-15T08:46:19Z</time>
      </trkpt>
      <trkpt lat="43.5632" lon="6.16539">
        <ele>428.7</ele>
        <time>2013-12-15T08:46:34Z</time>
      </trkpt>
      <trkpt lat="43.56316" lon="6.16529">
        <ele>429.1</ele>
        <time>2013-12-15T08:46:44Z</time>
      </trkpt>
      <trkpt lat="43.56314" lon="6.16517">
        <ele>429.4</ele>
        <time>2013-12-15T08:46:52Z</time>
      </trkpt>
      <trkpt lat="43.56307" lon="6.16511">
        <ele>428.8</ele>
        <time>2013-12-15T08:47:00Z</time>
      </trkpt>
      <trkpt lat="43.56298" lon="6.16509">
        <ele>428.8</ele>
        <time>2013-12-15T08:47:09Z</time>
      </trkpt>
      <trkpt lat="43.56289" lon="6.16508">
        <ele>428.8</ele>
        <time>2013-12-15T08:47:17Z</time>
      </trkpt>
      <trkpt lat="43.56281" lon="6.16506">
        <ele>427.7</ele>
        <time>2013-12-15T08:47:23Z</time>
      </trkpt>
      <trkpt lat="43.5628" lon="6.16506">
        <ele>427.5</ele>
        <time>2013-12-15T08:47:24Z</time>
      </trkpt>
      <trkpt lat="43.56264" lon="6.16503">
        <ele>425.5</ele>
        <time>2013-12-15T08:47:41Z</time>
      </trkpt>
      <trkpt lat="43.56256" lon="6.16502">
        <ele>425</ele>
        <time>2013-12-15T08:47:47Z</time>
      </trkpt>
      <trkpt lat="43.56248" lon="6.16501">
        <ele>424.5</ele>
        <time>2013-12-15T08:47:52Z</time>
      </trkpt>
      <trkpt lat="43.56241" lon="6.16502">
        <ele>422.9</ele>
        <time>2013-12-15T08:48:00Z</time>
      </trkpt>
      <trkpt lat="43.56232" lon="6.165">
        <ele>422.9</ele>
        <time>2013-12-15T08:48:07Z</time>
      </trkpt>
      <trkpt lat="43.56224" lon="6.16498">
        <ele>422.8</ele>
        <time>2013-12-15T08:48:14Z</time>
      </trkpt>
      <trkpt lat="43.56215" lon="6.16496">
        <ele>421.9</ele>
        <time>2013-12-15T08:48:23Z</time>
      </trkpt>
      <trkpt lat="43.56208" lon="6.16492">
        <ele>420.7</ele>
        <time>2013-12-15T08:48:30Z</time>
      </trkpt>
      <trkpt lat="43.56207" lon="6.16491">
        <ele>420.8</ele>
        <time>2013-12-15T08:48:31Z</time>
      </trkpt>
      <trkpt lat="43.56192" lon="6.16499">
        <ele>420.5</ele>
        <time>2013-12-15T08:48:44Z</time>
      </trkpt>
      <trkpt lat="43.56189" lon="6.1651">
        <ele>421.4</ele>
        <time>2013-12-15T08:48:52Z</time>
      </trkpt>
      <trkpt lat="43.56187" lon="6.16522">
        <ele>421.3</ele>
        <time>2013-12-15T08:48:59Z</time>
      </trkpt>
      <trkpt lat="43.56186" lon="6.16534">
        <ele>422.3</ele>
        <time>2013-12-15T08:49:07Z</time>
      </trkpt>
      <trkpt lat="43.56186" lon="6.16544">
        <ele>422.9</ele>
        <time>2013-12-15T08:49:15Z</time>
      </trkpt>
      <trkpt lat="43.56185" lon="6.16555">
        <ele>423.3</ele>
        <time>2013-12-15T08:49:22Z</time>
      </trkpt>
      <trkpt lat="43.56184" lon="6.16566">
        <ele>424.9</ele>
        <time>2013-12-15T08:49:29Z</time>
      </trkpt>
      <trkpt lat="43.56182" lon="6.16578">
        <ele>425.9</ele>
        <time>2013-12-15T08:49:37Z</time>
      </trkpt>
      <trkpt lat="43.56182" lon="6.1658">
        <ele>426</ele>
        <time>2013-12-15T08:49:38Z</time>
      </trkpt>
      <trkpt lat="43.56179" lon="6.166">
        <ele>426.9</ele>
        <time>2013-12-15T08:49:53Z</time>
      </trkpt>
      <trkpt lat="43.5618" lon="6.16612">
        <ele>427.4</ele>
        <time>2013-12-15T08:50:01Z</time>
      </trkpt>
      <trkpt lat="43.56181" lon="6.16622">
        <ele>427.4</ele>
        <time>2013-12-15T08:50:07Z</time>
      </trkpt>
      <trkpt lat="43.56181" lon="6.16634">
        <ele>427.7</ele>
        <time>2013-12-15T08:50:15Z</time>
      </trkpt>
      <trkpt lat="43.56179" lon="6.16646">
        <ele>428.2</ele>
        <time>2013-12-15T08:50:23Z</time>
      </trkpt>
      <trkpt lat="43.56176" lon="6.16656">
        <ele>428.1</ele>
        <time>2013-12-15T08:50:30Z</time>
      </trkpt>
      <trkpt lat="43.56174" lon="6.16667">
        <ele>428.5</ele>
        <time>2013-12-15T08:50:37Z</time>
      </trkpt>
      <trkpt lat="43.56173" lon="6.16678">
        <ele>428</ele>
        <time>2013-12-15T08:50:44Z</time>
      </trkpt>
      <trkpt lat="43.56173" lon="6.1668">
        <ele>428</ele>
        <time>2013-12-15T08:50:45Z</time>
      </trkpt>
      <trkpt lat="43.56175" lon="6.16701">
        <ele>427.4</ele>
        <time>2013-12-15T08:50:57Z</time>
      </trkpt>
      <trkpt lat="43.56177" lon="6.16712">
        <ele>427.7</ele>
        <time>2013-12-15T08:51:05Z</time>
      </trkpt>
      <trkpt lat="43.56178" lon="6.16723">
        <ele>427.6</ele>
        <time>2013-12-15T08:51:11Z</time>
      </trkpt>
      <trkpt lat="43.56179" lon="6.16735">
        <ele>427.4</ele>
        <time>2013-12-15T08:51:17Z</time>
      </trkpt>
      <trkpt lat="43.56179" lon="6.16747">
        <ele>426.7</ele>
        <time>2013-12-15T08:51:25Z</time>
      </trkpt>
      <trkpt lat="43.56179" lon="6.16758">
        <ele>426</ele>
        <time>2013-12-15T08:51:32Z</time>
      </trkpt>
      <trkpt lat="43.56178" lon="6.16769">
        <ele>426</ele>
        <time>2013-12-15T08:51:38Z</time>
      </trkpt>
      <trkpt lat="43.56178" lon="6.16781">
        <ele>425.7</ele>
        <time>2013-12-15T08:51:44Z</time>
      </trkpt>
      <trkpt lat="43.56177" lon="6.16791">
        <ele>424.6</ele>
        <time>2013-12-15T08:51:50Z</time>
      </trkpt>
      <trkpt lat="43.56176" lon="6.16793">
        <ele>424.7</ele>
        <time>2013-12-15T08:51:51Z</time>
      </trkpt>
      <trkpt lat="43.56172" lon="6.16813">
        <ele>423.7</ele>
        <time>2013-12-15T08:52:06Z</time>
      </trkpt>
      <trkpt lat="43.5617" lon="6.16824">
        <ele>423.5</ele>
        <time>2013-12-15T08:52:13Z</time>
      </trkpt>
      <trkpt lat="43.56167" lon="6.16835">
        <ele>423</ele>
        <time>2013-12-15T08:52:20Z</time>
      </trkpt>
      <trkpt lat="43.56165" lon="6.16847">
        <ele>422.4</ele>
        <time>2013-12-15T08:52:28Z</time>
      </trkpt>
      <trkpt lat="43.56164" lon="6.16859">
        <ele>422</ele>
        <time>2013-12-15T08:52:34Z</time>
      </trkpt>
      <trkpt lat="43.56162" lon="6.1687">
        <ele>421.7</ele>
        <time>2013-12-15T08:52:41Z</time>
      </trkpt>
      <trkpt lat="43.56159" lon="6.1688">
        <ele>421.1</ele>
        <time>2013-12-15T08:52:48Z</time>
      </trkpt>
      <trkpt lat="43.56155" lon="6.16891">
        <ele>420.8</ele>
        <time>2013-12-15T08:52:54Z</time>
      </trkpt>
      <trkpt lat="43.56155" lon="6.16892">
        <ele>420.7</ele>
        <time>2013-12-15T08:52:55Z</time>
      </trkpt>
      <trkpt lat="43.56146" lon="6.16909">
        <ele>419.2</ele>
        <time>2013-12-15T08:53:10Z</time>
      </trkpt>
      <trkpt lat="43.56142" lon="6.1692">
        <ele>418</ele>
        <time>2013-12-15T08:53:18Z</time>
      </trkpt>
      <trkpt lat="43.56137" lon="6.16929">
        <ele>416.9</ele>
        <time>2013-12-15T08:53:26Z</time>
      </trkpt>
      <trkpt lat="43.56135" lon="6.16941">
        <ele>416.4</ele>
        <time>2013-12-15T08:53:35Z</time>
      </trkpt>
      <trkpt lat="43.56131" lon="6.16952">
        <ele>416</ele>
        <time>2013-12-15T08:53:45Z</time>
      </trkpt>
      <trkpt lat="43.56123" lon="6.16948">
        <ele>416.6</ele>
        <time>2013-12-15T08:53:51Z</time>
      </trkpt>
      <trkpt lat="43.56116" lon="6.16943">
        <ele>416.6</ele>
        <time>2013-12-15T08:53:59Z</time>
      </trkpt>
      <trkpt lat="43.56114" lon="6.16943">
        <ele>416.7</ele>
        <time>2013-12-15T08:54:00Z</time>
      </trkpt>
      <trkpt lat="43.56102" lon="6.16936">
        <ele>417</ele>
        <time>2013-12-15T08:54:11Z</time>
      </trkpt>
      <trkpt lat="43.56094" lon="6.16932">
        <ele>416.9</ele>
        <time>2013-12-15T08:54:17Z</time>
      </trkpt>
      <trkpt lat="43.56086" lon="6.16931">
        <ele>416.6</ele>
        <time>2013-12-15T08:54:24Z</time>
      </trkpt>
      <trkpt lat="43.56077" lon="6.16928">
        <ele>416.3</ele>
        <time>2013-12-15T08:54:32Z</time>
      </trkpt>
      <trkpt lat="43.56069" lon="6.16925">
        <ele>416.7</ele>
        <time>2013-12-15T08:54:41Z</time>
      </trkpt>
      <trkpt lat="43.56062" lon="6.1692">
        <ele>417.1</ele>
        <time>2013-12-15T08:54:48Z</time>
      </trkpt>
      <trkpt lat="43.56055" lon="6.16915">
        <ele>417.4</ele>
        <time>2013-12-15T08:54:56Z</time>
      </trkpt>
      <trkpt lat="43.56046" lon="6.16911">
        <ele>417.8</ele>
        <time>2013-12-15T08:55:03Z</time>
      </trkpt>
      <trkpt lat="43.56045" lon="6.16911">
        <ele>417.7</ele>
        <time>2013-12-15T08:55:04Z</time>
      </trkpt>
      <trkpt lat="43.56034" lon="6.16896">
        <ele>419</ele>
        <time>2013-12-15T08:55:22Z</time>
      </trkpt>
      <trkpt lat="43.56027" lon="6.16888">
        <ele>419.7</ele>
        <time>2013-12-15T08:55:34Z</time>
      </trkpt>
      <trkpt lat="43.56019" lon="6.16885">
        <ele>419.4</ele>
        <time>2013-12-15T08:55:41Z</time>
      </trkpt>
      <trkpt lat="43.56012" lon="6.16879">
        <ele>419.4</ele>
        <time>2013-12-15T08:55:48Z</time>
      </trkpt>
      <trkpt lat="43.56005" lon="6.16873">
        <ele>419.9</ele>
        <time>2013-12-15T08:55:54Z</time>
      </trkpt>
      <trkpt lat="43.55998" lon="6.16867">
        <ele>420.5</ele>
        <time>2013-12-15T08:56:00Z</time>
      </trkpt>
      <trkpt lat="43.55991" lon="6.16858">
        <ele>420.6</ele>
        <time>2013-12-15T08:56:08Z</time>
      </trkpt>
      <trkpt lat="43.5599" lon="6.16857">
        <ele>420.6</ele>
        <time>2013-12-15T08:56:09Z</time>
      </trkpt>
      <trkpt lat="43.55976" lon="6.16848">
        <ele>420.6</ele>
        <time>2013-12-15T08:56:23Z</time>
      </trkpt>
      <trkpt lat="43.55967" lon="6.16849">
        <ele>420.3</ele>
        <time>2013-12-15T08:56:30Z</time>
      </trkpt>
      <trkpt lat="43.55959" lon="6.16853">
        <ele>419.7</ele>
        <time>2013-12-15T08:56:38Z</time>
      </trkpt>
      <trkpt lat="43.55951" lon="6.16858">
        <ele>418.7</ele>
        <time>2013-12-15T08:56:46Z</time>
      </trkpt>
      <trkpt lat="43.55943" lon="6.16859">
        <ele>419.1</ele>
        <time>2013-12-15T08:56:53Z</time>
      </trkpt>
      <trkpt lat="43.55935" lon="6.16859">
        <ele>419.1</ele>
        <time>2013-12-15T08:57:00Z</time>
      </trkpt>
      <trkpt lat="43.55926" lon="6.16861">
        <ele>418.5</ele>
        <time>2013-12-15T08:57:07Z</time>
      </trkpt>
      <trkpt lat="43.5592" lon="6.16867">
        <ele>418</ele>
        <time>2013-12-15T08:57:14Z</time>
      </trkpt>
      <trkpt lat="43.55919" lon="6.16868">
        <ele>417.9</ele>
        <time>2013-12-15T08:57:15Z</time>
      </trkpt>
      <trkpt lat="43.55907" lon="6.16883">
        <ele>417.1</ele>
        <time>2013-12-15T08:57:28Z</time>
      </trkpt>
      <trkpt lat="43.559" lon="6.16889">
        <ele>415.8</ele>
        <time>2013-12-15T08:57:35Z</time>
      </trkpt>
      <trkpt lat="43.55893" lon="6.16894">
        <ele>415.2</ele>
        <time>2013-12-15T08:57:42Z</time>
      </trkpt>
      <trkpt lat="43.55884" lon="6.16896">
        <ele>414.4</ele>
        <time>2013-12-15T08:57:50Z</time>
      </trkpt>
      <trkpt lat="43.55876" lon="6.16895">
        <ele>413.6</ele>
        <time>2013-12-15T08:57:57Z</time>
      </trkpt>
      <trkpt lat="43.55868" lon="6.16893">
        <ele>413</ele>
        <time>2013-12-15T08:58:04Z</time>
      </trkpt>
      <trkpt lat="43.5586" lon="6.1689">
        <ele>412.4</ele>
        <time>2013-12-15T08:58:11Z</time>
      </trkpt>
      <trkpt lat="43.55852" lon="6.16889">
        <ele>410.9</ele>
        <time>2013-12-15T08:58:18Z</time>
      </trkpt>
      <trkpt lat="43.55851" lon="6.16889">
        <ele>410.7</ele>
        <time>2013-12-15T08:58:19Z</time>
      </trkpt>
      <trkpt lat="43.55835" lon="6.16888">
        <ele>407.6</ele>
        <time>2013-12-15T08:58:33Z</time>
      </trkpt>
      <trkpt lat="43.55827" lon="6.16885">
        <ele>407.2</ele>
        <time>2013-12-15T08:58:40Z</time>
      </trkpt>
      <trkpt lat="43.55819" lon="6.16881">
        <ele>406.3</ele>
        <time>2013-12-15T08:58:48Z</time>
      </trkpt>
      <trkpt lat="43.55811" lon="6.16879">
        <ele>405.5</ele>
        <time>2013-12-15T08:58:55Z</time>
      </trkpt>
      <trkpt lat="43.55803" lon="6.1688">
        <ele>405.3</ele>
        <time>2013-12-15T08:59:03Z</time>
      </trkpt>
      <trkpt lat="43.55794" lon="6.16882">
        <ele>404.3</ele>
        <time>2013-12-15T08:59:11Z</time>
      </trkpt>
      <trkpt lat="43.55786" lon="6.16884">
        <ele>403.6</ele>
        <time>2013-12-15T08:59:17Z</time>
      </trkpt>
      <trkpt lat="43.55778" lon="6.16885">
        <ele>403.4</ele>
        <time>2013-12-15T08:59:24Z</time>
      </trkpt>
      <trkpt lat="43.55776" lon="6.16885">
        <ele>403.2</ele>
        <time>2013-12-15T08:59:25Z</time>
      </trkpt>
      <trkpt lat="43.55762" lon="6.16885">
        <ele>403.5</ele>
        <time>2013-12-15T08:59:36Z</time>
      </trkpt>
      <trkpt lat="43.55754" lon="6.16885">
        <ele>403.1</ele>
        <time>2013-12-15T08:59:42Z</time>
      </trkpt>
      <trkpt lat="43.55745" lon="6.16884">
        <ele>402.7</ele>
        <time>2013-12-15T08:59:49Z</time>
      </trkpt>
      <trkpt lat="43.55737" lon="6.16881">
        <ele>402.7</ele>
        <time>2013-12-15T08:59:56Z</time>
      </trkpt>
      <trkpt lat="43.55728" lon="6.1688">
        <ele>402.5</ele>
        <time>2013-12-15T09:00:04Z</time>
      </trkpt>
      <trkpt lat="43.5572" lon="6.16877">
        <ele>402.1</ele>
        <time>2013-12-15T09:00:11Z</time>
      </trkpt>
      <trkpt lat="43.55712" lon="6.16875">
        <ele>401.7</ele>
        <time>2013-12-15T09:00:17Z</time>
      </trkpt>
      <trkpt lat="43.55704" lon="6.16873">
        <ele>401.7</ele>
        <time>2013-12-15T09:00:24Z</time>
      </trkpt>
      <trkpt lat="43.55696" lon="6.16871">
        <ele>401.8</ele>
        <time>2013-12-15T09:00:30Z</time>
      </trkpt>
      <trkpt lat="43.55695" lon="6.16871">
        <ele>401.7</ele>
        <time>2013-12-15T09:00:31Z</time>
      </trkpt>
      <trkpt lat="43.55679" lon="6.16864">
        <ele>401</ele>
        <time>2013-12-15T09:00:45Z</time>
      </trkpt>
      <trkpt lat="43.55673" lon="6.16857">
        <ele>400.3</ele>
        <time>2013-12-15T09:00:53Z</time>
      </trkpt>
      <trkpt lat="43.55668" lon="6.16868">
        <ele>399.8</ele>
        <time>2013-12-15T09:01:23Z</time>
      </trkpt>
      <trkpt lat="43.55668" lon="6.16855">
        <ele>398.4</ele>
        <time>2013-12-15T09:02:19Z</time>
      </trkpt>
      <trkpt lat="43.55668" lon="6.16855">
        <ele>398.3</ele>
        <time>2013-12-15T09:02:20Z</time>
      </trkpt>
      <trkpt lat="43.55666" lon="6.16868">
        <ele>398.9</ele>
        <time>2013-12-15T09:04:39Z</time>
      </trkpt>
      <trkpt lat="43.55657" lon="6.16865">
        <ele>398.2</ele>
        <time>2013-12-15T09:06:13Z</time>
      </trkpt>
      <trkpt lat="43.55644" lon="6.16878">
        <ele>399.2</ele>
        <time>2013-12-15T09:06:34Z</time>
      </trkpt>
      <trkpt lat="43.55643" lon="6.1689">
        <ele>398.9</ele>
        <time>2013-12-15T09:06:42Z</time>
      </trkpt>
      <trkpt lat="43.5564" lon="6.16901">
        <ele>398.8</ele>
        <time>2013-12-15T09:06:49Z</time>
      </trkpt>
      <trkpt lat="43.55632" lon="6.16908">
        <ele>398.5</ele>
        <time>2013-12-15T09:06:58Z</time>
      </trkpt>
      <trkpt lat="43.55624" lon="6.16912">
        <ele>398.7</ele>
        <time>2013-12-15T09:07:06Z</time>
      </trkpt>
      <trkpt lat="43.55617" lon="6.16917">
        <ele>398.4</ele>
        <time>2013-12-15T09:07:13Z</time>
      </trkpt>
      <trkpt lat="43.55616" lon="6.16918">
        <ele>398.4</ele>
        <time>2013-12-15T09:07:14Z</time>
      </trkpt>
      <trkpt lat="43.55603" lon="6.16929">
        <ele>398.3</ele>
        <time>2013-12-15T09:07:29Z</time>
      </trkpt>
      <trkpt lat="43.55596" lon="6.16935">
        <ele>398.8</ele>
        <time>2013-12-15T09:07:41Z</time>
      </trkpt>
      <trkpt lat="43.55588" lon="6.16942">
        <ele>398.1</ele>
        <time>2013-12-15T09:07:52Z</time>
      </trkpt>
      <trkpt lat="43.5558" lon="6.16947">
        <ele>398.2</ele>
        <time>2013-12-15T09:08:06Z</time>
      </trkpt>
      <trkpt lat="43.55582" lon="6.16959">
        <ele>396.7</ele>
        <time>2013-12-15T09:08:34Z</time>
      </trkpt>
      <trkpt lat="43.55582" lon="6.1696">
        <ele>396.5</ele>
        <time>2013-12-15T09:08:35Z</time>
      </trkpt>
      <trkpt lat="43.55569" lon="6.16975">
        <ele>396.7</ele>
        <time>2013-12-15T09:09:33Z</time>
      </trkpt>
      <trkpt lat="43.55562" lon="6.1698">
        <ele>397.1</ele>
        <time>2013-12-15T09:09:44Z</time>
      </trkpt>
      <trkpt lat="43.55561" lon="6.16981">
        <ele>397.2</ele>
        <time>2013-12-15T09:09:45Z</time>
      </trkpt>
      <trkpt lat="43.55545" lon="6.16988">
        <ele>396.6</ele>
        <time>2013-12-15T09:10:20Z</time>
      </trkpt>
      <trkpt lat="43.55538" lon="6.16993">
        <ele>396.6</ele>
        <time>2013-12-15T09:10:36Z</time>
      </trkpt>
      <trkpt lat="43.55529" lon="6.16998">
        <ele>396.4</ele>
        <time>2013-12-15T09:10:52Z</time>
      </trkpt>
      <trkpt lat="43.55529" lon="6.16998">
        <ele>396.6</ele>
        <time>2013-12-15T09:10:53Z</time>
      </trkpt>
      <trkpt lat="43.55517" lon="6.17014">
        <ele>396.1</ele>
        <time>2013-12-15T09:11:30Z</time>
      </trkpt>
      <trkpt lat="43.55513" lon="6.17025">
        <ele>393.2</ele>
        <time>2013-12-15T09:12:04Z</time>
      </trkpt>
      <trkpt lat="43.55513" lon="6.17026">
        <ele>393</ele>
        <time>2013-12-15T09:12:05Z</time>
      </trkpt>
      <trkpt lat="43.55504" lon="6.17045">
        <ele>392.5</ele>
        <time>2013-12-15T09:13:02Z</time>
      </trkpt>
      <trkpt lat="43.55499" lon="6.17054">
        <ele>392.8</ele>
        <time>2013-12-15T09:13:25Z</time>
      </trkpt>
      <trkpt lat="43.55498" lon="6.17055">
        <ele>392.7</ele>
        <time>2013-12-15T09:13:26Z</time>
      </trkpt>
      <trkpt lat="43.55487" lon="6.1707">
        <ele>390.2</ele>
        <time>2013-12-15T09:14:17Z</time>
      </trkpt>
      <trkpt lat="43.55486" lon="6.17082">
        <ele>389.5</ele>
        <time>2013-12-15T09:14:30Z</time>
      </trkpt>
      <trkpt lat="43.55486" lon="6.17083">
        <ele>389.2</ele>
        <time>2013-12-15T09:14:31Z</time>
      </trkpt>
      <trkpt lat="43.55483" lon="6.17105">
        <ele>388</ele>
        <time>2013-12-15T09:15:04Z</time>
      </trkpt>
      <trkpt lat="43.55487" lon="6.17115">
        <ele>386.2</ele>
        <time>2013-12-15T09:15:26Z</time>
      </trkpt>
      <trkpt lat="43.55494" lon="6.17123">
        <ele>384.5</ele>
        <time>2013-12-15T09:15:56Z</time>
      </trkpt>
      <trkpt lat="43.55495" lon="6.17123">
        <ele>384.8</ele>
        <time>2013-12-15T09:15:57Z</time>
      </trkpt>
      <trkpt lat="43.55508" lon="6.17136">
        <ele>383.5</ele>
        <time>2013-12-15T09:16:21Z</time>
      </trkpt>
      <trkpt lat="43.55516" lon="6.17142">
        <ele>383.4</ele>
        <time>2013-12-15T09:16:43Z</time>
      </trkpt>
      <trkpt lat="43.55517" lon="6.17154">
        <ele>381.8</ele>
        <time>2013-12-15T09:17:06Z</time>
      </trkpt>
      <trkpt lat="43.55518" lon="6.17154">
        <ele>381.9</ele>
        <time>2013-12-15T09:17:07Z</time>
      </trkpt>
      <trkpt lat="43.55523" lon="6.17176">
        <ele>379.5</ele>
        <time>2013-12-15T09:17:29Z</time>
      </trkpt>
      <trkpt lat="43.55527" lon="6.17187">
        <ele>379.6</ele>
        <time>2013-12-15T09:18:37Z</time>
      </trkpt>
      <trkpt lat="43.55527" lon="6.17188">
        <ele>379.5</ele>
        <time>2013-12-15T09:18:38Z</time>
      </trkpt>
      <trkpt lat="43.55516" lon="6.17205">
        <ele>379.3</ele>
        <time>2013-12-15T09:19:13Z</time>
      </trkpt>
      <trkpt lat="43.55511" lon="6.17214">
        <ele>379.3</ele>
        <time>2013-12-15T09:19:20Z</time>
      </trkpt>
      <trkpt lat="43.55509" lon="6.17225">
        <ele>379.6</ele>
        <time>2013-12-15T09:19:35Z</time>
      </trkpt>
      <trkpt lat="43.55508" lon="6.17237">
        <ele>379.2</ele>
        <time>2013-12-15T09:19:43Z</time>
      </trkpt>
      <trkpt lat="43.55507" lon="6.17238">
        <ele>379.3</ele>
        <time>2013-12-15T09:19:44Z</time>
      </trkpt>
      <trkpt lat="43.55498" lon="6.17254">
        <ele>379.6</ele>
        <time>2013-12-15T09:19:59Z</time>
      </trkpt>
      <trkpt lat="43.55492" lon="6.17262">
        <ele>379</ele>
        <time>2013-12-15T09:20:05Z</time>
      </trkpt>
      <trkpt lat="43.55486" lon="6.17269">
        <ele>378.9</ele>
        <time>2013-12-15T09:20:13Z</time>
      </trkpt>
      <trkpt lat="43.55483" lon="6.1728">
        <ele>378.4</ele>
        <time>2013-12-15T09:20:22Z</time>
      </trkpt>
      <trkpt lat="43.55483" lon="6.17291">
        <ele>377.8</ele>
        <time>2013-12-15T09:20:40Z</time>
      </trkpt>
      <trkpt lat="43.55483" lon="6.17304">
        <ele>378.2</ele>
        <time>2013-12-15T09:20:48Z</time>
      </trkpt>
      <trkpt lat="43.55483" lon="6.17305">
        <ele>378.4</ele>
        <time>2013-12-15T09:20:49Z</time>
      </trkpt>
      <trkpt lat="43.55485" lon="6.17328">
        <ele>378.5</ele>
        <time>2013-12-15T09:21:03Z</time>
      </trkpt>
      <trkpt lat="43.55485" lon="6.17339">
        <ele>378.4</ele>
        <time>2013-12-15T09:21:09Z</time>
      </trkpt>
      <trkpt lat="43.55489" lon="6.17349">
        <ele>379.2</ele>
        <time>2013-12-15T09:21:24Z</time>
      </trkpt>
      <trkpt lat="43.55488" lon="6.1736">
        <ele>380.2</ele>
        <time>2013-12-15T09:22:08Z</time>
      </trkpt>
      <trkpt lat="43.55488" lon="6.17361">
        <ele>380.3</ele>
        <time>2013-12-15T09:22:09Z</time>
      </trkpt>
      <trkpt lat="43.55484" lon="6.17382">
        <ele>380.8</ele>
        <time>2013-12-15T09:22:22Z</time>
      </trkpt>
      <trkpt lat="43.55484" lon="6.17394">
        <ele>378.9</ele>
        <time>2013-12-15T09:22:30Z</time>
      </trkpt>
      <trkpt lat="43.55482" lon="6.17406">
        <ele>378.5</ele>
        <time>2013-12-15T09:22:38Z</time>
      </trkpt>
      <trkpt lat="43.55481" lon="6.17417">
        <ele>377.8</ele>
        <time>2013-12-15T09:22:45Z</time>
      </trkpt>
      <trkpt lat="43.5548" lon="6.17427">
        <ele>377.4</ele>
        <time>2013-12-15T09:22:52Z</time>
      </trkpt>
      <trkpt lat="43.55477" lon="6.17439">
        <ele>377.7</ele>
        <time>2013-12-15T09:23:00Z</time>
      </trkpt>
      <trkpt lat="43.55476" lon="6.17449">
        <ele>376.6</ele>
        <time>2013-12-15T09:23:05Z</time>
      </trkpt>
      <trkpt lat="43.55473" lon="6.1746">
        <ele>375.8</ele>
        <time>2013-12-15T09:23:12Z</time>
      </trkpt>
      <trkpt lat="43.55473" lon="6.17462">
        <ele>375.7</ele>
        <time>2013-12-15T09:23:13Z</time>
      </trkpt>
      <trkpt lat="43.55465" lon="6.1748">
        <ele>373.9</ele>
        <time>2013-12-15T09:23:28Z</time>
      </trkpt>
      <trkpt lat="43.55464" lon="6.17491">
        <ele>373.4</ele>
        <time>2013-12-15T09:23:34Z</time>
      </trkpt>
      <trkpt lat="43.55462" lon="6.17501">
        <ele>373.4</ele>
        <time>2013-12-15T09:23:40Z</time>
      </trkpt>
      <trkpt lat="43.55461" lon="6.17513">
        <ele>373.7</ele>
        <time>2013-12-15T09:23:47Z</time>
      </trkpt>
      <trkpt lat="43.5546" lon="6.17525">
        <ele>372.6</ele>
        <time>2013-12-15T09:23:57Z</time>
      </trkpt>
      <trkpt lat="43.55459" lon="6.17536">
        <ele>371.8</ele>
        <time>2013-12-15T09:24:04Z</time>
      </trkpt>
      <trkpt lat="43.55455" lon="6.17547">
        <ele>370.3</ele>
        <time>2013-12-15T09:24:11Z</time>
      </trkpt>
      <trkpt lat="43.55451" lon="6.17557">
        <ele>369.9</ele>
        <time>2013-12-15T09:24:18Z</time>
      </trkpt>
      <trkpt lat="43.5545" lon="6.17559">
        <ele>369.6</ele>
        <time>2013-12-15T09:24:19Z</time>
      </trkpt>
      <trkpt lat="43.55441" lon="6.17577">
        <ele>367.9</ele>
        <time>2013-12-15T09:24:34Z</time>
      </trkpt>
      <trkpt lat="43.55436" lon="6.17586">
        <ele>367.3</ele>
        <time>2013-12-15T09:24:42Z</time>
      </trkpt>
      <trkpt lat="43.55432" lon="6.17595">
        <ele>367.1</ele>
        <time>2013-12-15T09:24:48Z</time>
      </trkpt>
      <trkpt lat="43.55426" lon="6.17604">
        <ele>366.3</ele>
        <time>2013-12-15T09:24:54Z</time>
      </trkpt>
      <trkpt lat="43.55421" lon="6.17614">
        <ele>365.8</ele>
        <time>2013-12-15T09:25:02Z</time>
      </trkpt>
      <trkpt lat="43.55417" lon="6.17621">
        <ele>365.5</ele>
        <time>2013-12-15T09:25:06Z</time>
      </trkpt>
      <trkpt lat="43.55411" lon="6.17629">
        <ele>365</ele>
        <time>2013-12-15T09:25:13Z</time>
      </trkpt>
      <trkpt lat="43.55407" lon="6.1764">
        <ele>364.9</ele>
        <time>2013-12-15T09:25:21Z</time>
      </trkpt>
      <trkpt lat="43.55406" lon="6.17642">
        <ele>364.9</ele>
        <time>2013-12-15T09:25:22Z</time>
      </trkpt>
      <trkpt lat="43.55392" lon="6.17652">
        <ele>363.8</ele>
        <time>2013-12-15T09:26:06Z</time>
      </trkpt>
      <trkpt lat="43.55384" lon="6.17648">
        <ele>365.5</ele>
        <time>2013-12-15T09:26:23Z</time>
      </trkpt>
      <trkpt lat="43.55383" lon="6.17647">
        <ele>365.4</ele>
        <time>2013-12-15T09:26:24Z</time>
      </trkpt>
      <trkpt lat="43.55368" lon="6.1764">
        <ele>369.2</ele>
        <time>2013-12-15T09:26:46Z</time>
      </trkpt>
      <trkpt lat="43.5536" lon="6.17635">
        <ele>372.2</ele>
        <time>2013-12-15T09:27:27Z</time>
      </trkpt>
      <trkpt lat="43.55359" lon="6.17635">
        <ele>372.1</ele>
        <time>2013-12-15T09:27:28Z</time>
      </trkpt>
      <trkpt lat="43.55343" lon="6.1763">
        <ele>373</ele>
        <time>2013-12-15T09:28:07Z</time>
      </trkpt>
      <trkpt lat="43.55337" lon="6.17623">
        <ele>373.4</ele>
        <time>2013-12-15T09:28:15Z</time>
      </trkpt>
      <trkpt lat="43.5533" lon="6.17616">
        <ele>373.5</ele>
        <time>2013-12-15T09:28:24Z</time>
      </trkpt>
      <trkpt lat="43.55322" lon="6.17623">
        <ele>372.2</ele>
        <time>2013-12-15T09:28:38Z</time>
      </trkpt>
      <trkpt lat="43.55322" lon="6.17624">
        <ele>371.8</ele>
        <time>2013-12-15T09:28:39Z</time>
      </trkpt>
      <trkpt lat="43.55318" lon="6.17645">
        <ele>370.3</ele>
        <time>2013-12-15T09:28:52Z</time>
      </trkpt>
      <trkpt lat="43.55319" lon="6.17657">
        <ele>369.4</ele>
        <time>2013-12-15T09:28:59Z</time>
      </trkpt>
      <trkpt lat="43.55323" lon="6.17668">
        <ele>368.9</ele>
        <time>2013-12-15T09:29:09Z</time>
      </trkpt>
      <trkpt lat="43.55326" lon="6.1768">
        <ele>366.7</ele>
        <time>2013-12-15T09:29:17Z</time>
      </trkpt>
      <trkpt lat="43.55327" lon="6.17691">
        <ele>365.3</ele>
        <time>2013-12-15T09:29:27Z</time>
      </trkpt>
      <trkpt lat="43.55325" lon="6.17702">
        <ele>364</ele>
        <time>2013-12-15T09:29:34Z</time>
      </trkpt>
      <trkpt lat="43.55325" lon="6.17714">
        <ele>362.5</ele>
        <time>2013-12-15T09:29:44Z</time>
      </trkpt>
      <trkpt lat="43.55325" lon="6.17715">
        <ele>362.6</ele>
        <time>2013-12-15T09:29:45Z</time>
      </trkpt>
      <trkpt lat="43.55316" lon="6.17732">
        <ele>361.9</ele>
        <time>2013-12-15T09:30:01Z</time>
      </trkpt>
      <trkpt lat="43.55312" lon="6.17742">
        <ele>361.4</ele>
        <time>2013-12-15T09:30:08Z</time>
      </trkpt>
      <trkpt lat="43.55307" lon="6.17751">
        <ele>361.1</ele>
        <time>2013-12-15T09:30:16Z</time>
      </trkpt>
      <trkpt lat="43.55303" lon="6.17762">
        <ele>361.1</ele>
        <time>2013-12-15T09:30:24Z</time>
      </trkpt>
      <trkpt lat="43.553" lon="6.17772">
        <ele>361.2</ele>
        <time>2013-12-15T09:30:32Z</time>
      </trkpt>
      <trkpt lat="43.55295" lon="6.17781">
        <ele>361.4</ele>
        <time>2013-12-15T09:30:40Z</time>
      </trkpt>
      <trkpt lat="43.55291" lon="6.17792">
        <ele>361.7</ele>
        <time>2013-12-15T09:30:48Z</time>
      </trkpt>
      <trkpt lat="43.55291" lon="6.17794">
        <ele>361.8</ele>
        <time>2013-12-15T09:30:49Z</time>
      </trkpt>
      <trkpt lat="43.55281" lon="6.17812">
        <ele>361.3</ele>
        <time>2013-12-15T09:31:06Z</time>
      </trkpt>
      <trkpt lat="43.55276" lon="6.17821">
        <ele>361.2</ele>
        <time>2013-12-15T09:31:14Z</time>
      </trkpt>
      <trkpt lat="43.55269" lon="6.17829">
        <ele>361.3</ele>
        <time>2013-12-15T09:31:22Z</time>
      </trkpt>
      <trkpt lat="43.55263" lon="6.17836">
        <ele>361.4</ele>
        <time>2013-12-15T09:31:31Z</time>
      </trkpt>
      <trkpt lat="43.55256" lon="6.17841">
        <ele>361.5</ele>
        <time>2013-12-15T09:31:39Z</time>
      </trkpt>
      <trkpt lat="43.55251" lon="6.1785">
        <ele>361.6</ele>
        <time>2013-12-15T09:31:47Z</time>
      </trkpt>
      <trkpt lat="43.55246" lon="6.17861">
        <ele>360.5</ele>
        <time>2013-12-15T09:31:55Z</time>
      </trkpt>
      <trkpt lat="43.55245" lon="6.17862">
        <ele>360.3</ele>
        <time>2013-12-15T09:31:56Z</time>
      </trkpt>
      <trkpt lat="43.55239" lon="6.17881">
        <ele>360.1</ele>
        <time>2013-12-15T09:32:11Z</time>
      </trkpt>
      <trkpt lat="43.55235" lon="6.17891">
        <ele>359.3</ele>
        <time>2013-12-15T09:32:33Z</time>
      </trkpt>
      <trkpt lat="43.55228" lon="6.17897">
        <ele>359.5</ele>
        <time>2013-12-15T09:32:47Z</time>
      </trkpt>
      <trkpt lat="43.55223" lon="6.17906">
        <ele>359</ele>
        <time>2013-12-15T09:32:54Z</time>
      </trkpt>
      <trkpt lat="43.55219" lon="6.17917">
        <ele>358.3</ele>
        <time>2013-12-15T09:33:02Z</time>
      </trkpt>
      <trkpt lat="43.55219" lon="6.17918">
        <ele>358.3</ele>
        <time>2013-12-15T09:33:03Z</time>
      </trkpt>
      <trkpt lat="43.55212" lon="6.17938">
        <ele>357.7</ele>
        <time>2013-12-15T09:33:19Z</time>
      </trkpt>
      <trkpt lat="43.55207" lon="6.17947">
        <ele>357.5</ele>
        <time>2013-12-15T09:33:25Z</time>
      </trkpt>
      <trkpt lat="43.55203" lon="6.17958">
        <ele>357.1</ele>
        <time>2013-12-15T09:33:32Z</time>
      </trkpt>
      <trkpt lat="43.55198" lon="6.17967">
        <ele>357.4</ele>
        <time>2013-12-15T09:33:39Z</time>
      </trkpt>
      <trkpt lat="43.55196" lon="6.17978">
        <ele>357.3</ele>
        <time>2013-12-15T09:33:47Z</time>
      </trkpt>
      <trkpt lat="43.55193" lon="6.17989">
        <ele>357.5</ele>
        <time>2013-12-15T09:33:54Z</time>
      </trkpt>
      <trkpt lat="43.55191" lon="6.18001">
        <ele>357.2</ele>
        <time>2013-12-15T09:34:01Z</time>
      </trkpt>
      <trkpt lat="43.55184" lon="6.18009">
        <ele>356.8</ele>
        <time>2013-12-15T09:34:10Z</time>
      </trkpt>
      <trkpt lat="43.55183" lon="6.1801">
        <ele>356.8</ele>
        <time>2013-12-15T09:34:11Z</time>
      </trkpt>
      <trkpt lat="43.55167" lon="6.1801">
        <ele>356.6</ele>
        <time>2013-12-15T09:34:27Z</time>
      </trkpt>
      <trkpt lat="43.55159" lon="6.18011">
        <ele>356.5</ele>
        <time>2013-12-15T09:34:35Z</time>
      </trkpt>
      <trkpt lat="43.55151" lon="6.18009">
        <ele>356.4</ele>
        <time>2013-12-15T09:34:44Z</time>
      </trkpt>
      <trkpt lat="43.55142" lon="6.18012">
        <ele>357</ele>
        <time>2013-12-15T09:34:52Z</time>
      </trkpt>
      <trkpt lat="43.55134" lon="6.18015">
        <ele>356.8</ele>
        <time>2013-12-15T09:35:00Z</time>
      </trkpt>
      <trkpt lat="43.55125" lon="6.18018">
        <ele>357.1</ele>
        <time>2013-12-15T09:35:07Z</time>
      </trkpt>
      <trkpt lat="43.55118" lon="6.18018">
        <ele>356.6</ele>
        <time>2013-12-15T09:35:15Z</time>
      </trkpt>
      <trkpt lat="43.55116" lon="6.18018">
        <ele>356.8</ele>
        <time>2013-12-15T09:35:16Z</time>
      </trkpt>
      <trkpt lat="43.551" lon="6.18022">
        <ele>356.7</ele>
        <time>2013-12-15T09:35:30Z</time>
      </trkpt>
      <trkpt lat="43.55092" lon="6.18025">
        <ele>356.7</ele>
        <time>2013-12-15T09:35:37Z</time>
      </trkpt>
      <trkpt lat="43.55084" lon="6.18028">
        <ele>357</ele>
        <time>2013-12-15T09:35:44Z</time>
      </trkpt>
      <trkpt lat="43.55076" lon="6.18029">
        <ele>356.9</ele>
        <time>2013-12-15T09:35:50Z</time>
      </trkpt>
      <trkpt lat="43.55067" lon="6.1803">
        <ele>356.8</ele>
        <time>2013-12-15T09:35:59Z</time>
      </trkpt>
      <trkpt lat="43.55059" lon="6.1803">
        <ele>356.4</ele>
        <time>2013-12-15T09:36:08Z</time>
      </trkpt>
      <trkpt lat="43.5505" lon="6.18033">
        <ele>355.2</ele>
        <time>2013-12-15T09:36:18Z</time>
      </trkpt>
      <trkpt lat="43.55049" lon="6.18033">
        <ele>355.3</ele>
        <time>2013-12-15T09:36:19Z</time>
      </trkpt>
      <trkpt lat="43.55034" lon="6.18039">
        <ele>355.4</ele>
        <time>2013-12-15T09:36:35Z</time>
      </trkpt>
      <trkpt lat="43.55026" lon="6.18041">
        <ele>355.6</ele>
        <time>2013-12-15T09:36:43Z</time>
      </trkpt>
      <trkpt lat="43.55019" lon="6.18043">
        <ele>355.6</ele>
        <time>2013-12-15T09:36:51Z</time>
      </trkpt>
      <trkpt lat="43.55011" lon="6.18044">
        <ele>356.3</ele>
        <time>2013-12-15T09:36:57Z</time>
      </trkpt>
      <trkpt lat="43.55003" lon="6.18049">
        <ele>356.4</ele>
        <time>2013-12-15T09:37:03Z</time>
      </trkpt>
      <trkpt lat="43.54997" lon="6.18058">
        <ele>356.8</ele>
        <time>2013-12-15T09:37:11Z</time>
      </trkpt>
      <trkpt lat="43.54991" lon="6.18067">
        <ele>356.4</ele>
        <time>2013-12-15T09:37:19Z</time>
      </trkpt>
      <trkpt lat="43.5499" lon="6.18068">
        <ele>356.2</ele>
        <time>2013-12-15T09:37:20Z</time>
      </trkpt>
      <trkpt lat="43.54979" lon="6.18084">
        <ele>357.2</ele>
        <time>2013-12-15T09:37:34Z</time>
      </trkpt>
      <trkpt lat="43.54974" lon="6.18093">
        <ele>357.3</ele>
        <time>2013-12-15T09:37:43Z</time>
      </trkpt>
      <trkpt lat="43.54968" lon="6.18102">
        <ele>356.9</ele>
        <time>2013-12-15T09:37:52Z</time>
      </trkpt>
      <trkpt lat="43.54961" lon="6.18109">
        <ele>356.3</ele>
        <time>2013-12-15T09:38:01Z</time>
      </trkpt>
      <trkpt lat="43.54953" lon="6.18113">
        <ele>355.6</ele>
        <time>2013-12-15T09:38:09Z</time>
      </trkpt>
      <trkpt lat="43.54945" lon="6.18117">
        <ele>354.7</ele>
        <time>2013-12-15T09:38:16Z</time>
      </trkpt>
      <trkpt lat="43.54938" lon="6.18123">
        <ele>354.2</ele>
        <time>2013-12-15T09:38:23Z</time>
      </trkpt>
      <trkpt lat="43.54937" lon="6.18124">
        <ele>354</ele>
        <time>2013-12-15T09:38:24Z</time>
      </trkpt>
      <trkpt lat="43.54926" lon="6.18137">
        <ele>353.5</ele>
        <time>2013-12-15T09:38:37Z</time>
      </trkpt>
      <trkpt lat="43.54919" lon="6.18144">
        <ele>352.9</ele>
        <time>2013-12-15T09:38:44Z</time>
      </trkpt>
      <trkpt lat="43.54912" lon="6.1815">
        <ele>353</ele>
        <time>2013-12-15T09:38:51Z</time>
      </trkpt>
      <trkpt lat="43.54904" lon="6.18153">
        <ele>352.6</ele>
        <time>2013-12-15T09:39:01Z</time>
      </trkpt>
      <trkpt lat="43.54896" lon="6.1816">
        <ele>352.9</ele>
        <time>2013-12-15T09:39:09Z</time>
      </trkpt>
      <trkpt lat="43.54888" lon="6.18163">
        <ele>353.2</ele>
        <time>2013-12-15T09:39:18Z</time>
      </trkpt>
      <trkpt lat="43.54879" lon="6.18164">
        <ele>353.9</ele>
        <time>2013-12-15T09:39:25Z</time>
      </trkpt>
      <trkpt lat="43.54878" lon="6.18165">
        <ele>354.2</ele>
        <time>2013-12-15T09:39:26Z</time>
      </trkpt>
      <trkpt lat="43.54864" lon="6.18174">
        <ele>355.1</ele>
        <time>2013-12-15T09:39:42Z</time>
      </trkpt>
      <trkpt lat="43.54855" lon="6.18176">
        <ele>355.7</ele>
        <time>2013-12-15T09:39:50Z</time>
      </trkpt>
      <trkpt lat="43.54847" lon="6.18177">
        <ele>356</ele>
        <time>2013-12-15T09:39:58Z</time>
      </trkpt>
      <trkpt lat="43.54838" lon="6.18177">
        <ele>356</ele>
        <time>2013-12-15T09:40:06Z</time>
      </trkpt>
      <trkpt lat="43.5483" lon="6.1818">
        <ele>356.2</ele>
        <time>2013-12-15T09:40:13Z</time>
      </trkpt>
      <trkpt lat="43.54822" lon="6.1818">
        <ele>356.8</ele>
        <time>2013-12-15T09:40:21Z</time>
      </trkpt>
      <trkpt lat="43.54813" lon="6.18182">
        <ele>357</ele>
        <time>2013-12-15T09:40:28Z</time>
      </trkpt>
      <trkpt lat="43.54812" lon="6.18182">
        <ele>357.2</ele>
        <time>2013-12-15T09:40:29Z</time>
      </trkpt>
      <trkpt lat="43.54797" lon="6.18189">
        <ele>358</ele>
        <time>2013-12-15T09:40:46Z</time>
      </trkpt>
      <trkpt lat="43.5479" lon="6.1819">
        <ele>358</ele>
        <time>2013-12-15T09:40:53Z</time>
      </trkpt>
      <trkpt lat="43.54782" lon="6.1819">
        <ele>358</ele>
        <time>2013-12-15T09:40:57Z</time>
      </trkpt>
      <trkpt lat="43.54774" lon="6.1819">
        <ele>358.2</ele>
        <time>2013-12-15T09:41:03Z</time>
      </trkpt>
      <trkpt lat="43.54765" lon="6.18191">
        <ele>358.4</ele>
        <time>2013-12-15T09:41:14Z</time>
      </trkpt>
      <trkpt lat="43.54757" lon="6.18189">
        <ele>357.7</ele>
        <time>2013-12-15T09:41:23Z</time>
      </trkpt>
      <trkpt lat="43.54748" lon="6.18189">
        <ele>358.2</ele>
        <time>2013-12-15T09:41:29Z</time>
      </trkpt>
      <trkpt lat="43.54747" lon="6.18189">
        <ele>358.2</ele>
        <time>2013-12-15T09:41:30Z</time>
      </trkpt>
      <trkpt lat="43.54731" lon="6.18193">
        <ele>357.2</ele>
        <time>2013-12-15T09:41:45Z</time>
      </trkpt>
      <trkpt lat="43.54723" lon="6.1819">
        <ele>357.2</ele>
        <time>2013-12-15T09:41:54Z</time>
      </trkpt>
      <trkpt lat="43.54714" lon="6.18189">
        <ele>357.1</ele>
        <time>2013-12-15T09:42:02Z</time>
      </trkpt>
      <trkpt lat="43.54705" lon="6.18187">
        <ele>356.5</ele>
        <time>2013-12-15T09:42:09Z</time>
      </trkpt>
      <trkpt lat="43.54696" lon="6.18188">
        <ele>355.9</ele>
        <time>2013-12-15T09:42:16Z</time>
      </trkpt>
      <trkpt lat="43.54688" lon="6.1819">
        <ele>355.9</ele>
        <time>2013-12-15T09:42:24Z</time>
      </trkpt>
      <trkpt lat="43.54679" lon="6.18189">
        <ele>355.2</ele>
        <time>2013-12-15T09:42:38Z</time>
      </trkpt>
      <trkpt lat="43.54678" lon="6.18189">
        <ele>355.2</ele>
        <time>2013-12-15T09:42:39Z</time>
      </trkpt>
      <trkpt lat="43.54663" lon="6.18186">
        <ele>355.1</ele>
        <time>2013-12-15T09:42:55Z</time>
      </trkpt>
      <trkpt lat="43.54655" lon="6.18185">
        <ele>355.1</ele>
        <time>2013-12-15T09:43:00Z</time>
      </trkpt>
      <trkpt lat="43.54648" lon="6.18182">
        <ele>355.1</ele>
        <time>2013-12-15T09:43:06Z</time>
      </trkpt>
      <trkpt lat="43.5464" lon="6.18181">
        <ele>355.6</ele>
        <time>2013-12-15T09:43:11Z</time>
      </trkpt>
      <trkpt lat="43.54632" lon="6.18178">
        <ele>354.6</ele>
        <time>2013-12-15T09:43:19Z</time>
      </trkpt>
      <trkpt lat="43.54624" lon="6.18178">
        <ele>354.6</ele>
        <time>2013-12-15T09:43:26Z</time>
      </trkpt>
      <trkpt lat="43.54617" lon="6.18173">
        <ele>354.3</ele>
        <time>2013-12-15T09:43:35Z</time>
      </trkpt>
      <trkpt lat="43.5461" lon="6.18165">
        <ele>354</ele>
        <time>2013-12-15T09:43:42Z</time>
      </trkpt>
      <trkpt lat="43.54609" lon="6.18164">
        <ele>353.7</ele>
        <time>2013-12-15T09:43:43Z</time>
      </trkpt>
      <trkpt lat="43.54595" lon="6.18154">
        <ele>352.9</ele>
        <time>2013-12-15T09:43:58Z</time>
      </trkpt>
      <trkpt lat="43.54589" lon="6.18145">
        <ele>352.7</ele>
        <time>2013-12-15T09:44:05Z</time>
      </trkpt>
      <trkpt lat="43.54585" lon="6.18137">
        <ele>352.9</ele>
        <time>2013-12-15T09:44:13Z</time>
      </trkpt>
      <trkpt lat="43.54579" lon="6.18127">
        <ele>352.9</ele>
        <time>2013-12-15T09:44:20Z</time>
      </trkpt>
      <trkpt lat="43.54573" lon="6.18119">
        <ele>353.2</ele>
        <time>2013-12-15T09:44:28Z</time>
      </trkpt>
      <trkpt lat="43.54569" lon="6.1811">
        <ele>353.6</ele>
        <time>2013-12-15T09:44:36Z</time>
      </trkpt>
      <trkpt lat="43.54563" lon="6.18101">
        <ele>352.9</ele>
        <time>2013-12-15T09:44:44Z</time>
      </trkpt>
      <trkpt lat="43.54562" lon="6.181">
        <ele>352.9</ele>
        <time>2013-12-15T09:44:45Z</time>
      </trkpt>
      <trkpt lat="43.54548" lon="6.18091">
        <ele>352.3</ele>
        <time>2013-12-15T09:44:57Z</time>
      </trkpt>
      <trkpt lat="43.5454" lon="6.18087">
        <ele>352</ele>
        <time>2013-12-15T09:45:04Z</time>
      </trkpt>
      <trkpt lat="43.54532" lon="6.18087">
        <ele>351.5</ele>
        <time>2013-12-15T09:45:10Z</time>
      </trkpt>
      <trkpt lat="43.54524" lon="6.18086">
        <ele>350.1</ele>
        <time>2013-12-15T09:45:21Z</time>
      </trkpt>
      <trkpt lat="43.54515" lon="6.18086">
        <ele>349.5</ele>
        <time>2013-12-15T09:45:27Z</time>
      </trkpt>
      <trkpt lat="43.54507" lon="6.18086">
        <ele>348.8</ele>
        <time>2013-12-15T09:45:35Z</time>
      </trkpt>
      <trkpt lat="43.54498" lon="6.18086">
        <ele>348.1</ele>
        <time>2013-12-15T09:45:42Z</time>
      </trkpt>
      <trkpt lat="43.5449" lon="6.18086">
        <ele>347</ele>
        <time>2013-12-15T09:45:51Z</time>
      </trkpt>
      <trkpt lat="43.54489" lon="6.18087">
        <ele>346.9</ele>
        <time>2013-12-15T09:45:52Z</time>
      </trkpt>
      <trkpt lat="43.54473" lon="6.18084">
        <ele>345.8</ele>
        <time>2013-12-15T09:46:09Z</time>
      </trkpt>
      <trkpt lat="43.54465" lon="6.18087">
        <ele>344.9</ele>
        <time>2013-12-15T09:46:15Z</time>
      </trkpt>
      <trkpt lat="43.54457" lon="6.18089">
        <ele>344.3</ele>
        <time>2013-12-15T09:46:26Z</time>
      </trkpt>
      <trkpt lat="43.54448" lon="6.18091">
        <ele>343.9</ele>
        <time>2013-12-15T09:46:32Z</time>
      </trkpt>
      <trkpt lat="43.5444" lon="6.18095">
        <ele>343.4</ele>
        <time>2013-12-15T09:46:39Z</time>
      </trkpt>
      <trkpt lat="43.54431" lon="6.18093">
        <ele>341.7</ele>
        <time>2013-12-15T09:46:48Z</time>
      </trkpt>
      <trkpt lat="43.54423" lon="6.18089">
        <ele>342.5</ele>
        <time>2013-12-15T09:47:09Z</time>
      </trkpt>
      <trkpt lat="43.54423" lon="6.18089">
        <ele>342.7</ele>
        <time>2013-12-15T09:47:10Z</time>
      </trkpt>
      <trkpt lat="43.54429" lon="6.18092">
        <ele>342.2</ele>
        <time>2013-12-15T09:48:13Z</time>
      </trkpt>
      <trkpt lat="43.54429" lon="6.18092">
        <ele>342</ele>
        <time>2013-12-15T09:48:14Z</time>
      </trkpt>
      <trkpt lat="43.5442" lon="6.1809">
        <ele>341.6</ele>
        <time>2013-12-15T09:50:16Z</time>
      </trkpt>
      <trkpt lat="43.54423" lon="6.18102">
        <ele>341.3</ele>
        <time>2013-12-15T09:51:45Z</time>
      </trkpt>
      <trkpt lat="43.54422" lon="6.18089">
        <ele>341.6</ele>
        <time>2013-12-15T09:55:37Z</time>
      </trkpt>
      <trkpt lat="43.54419" lon="6.18069">
        <ele>340.8</ele>
        <time>2013-12-15T09:55:51Z</time>
      </trkpt>
      <trkpt lat="43.54416" lon="6.18058">
        <ele>340.6</ele>
        <time>2013-12-15T09:55:58Z</time>
      </trkpt>
      <trkpt lat="43.54414" lon="6.18048">
        <ele>341</ele>
        <time>2013-12-15T09:56:04Z</time>
      </trkpt>
      <trkpt lat="43.54413" lon="6.18036">
        <ele>341.1</ele>
        <time>2013-12-15T09:56:10Z</time>
      </trkpt>
      <trkpt lat="43.5441" lon="6.18025">
        <ele>341.1</ele>
        <time>2013-12-15T09:56:16Z</time>
      </trkpt>
      <trkpt lat="43.54407" lon="6.18014">
        <ele>341.4</ele>
        <time>2013-12-15T09:56:23Z</time>
      </trkpt>
      <trkpt lat="43.54403" lon="6.18003">
        <ele>341.3</ele>
        <time>2013-12-15T09:56:30Z</time>
      </trkpt>
      <trkpt lat="43.54397" lon="6.17996">
        <ele>340.7</ele>
        <time>2013-12-15T09:56:36Z</time>
      </trkpt>
      <trkpt lat="43.5439" lon="6.17988">
        <ele>340.4</ele>
        <time>2013-12-15T09:56:44Z</time>
      </trkpt>
      <trkpt lat="43.54389" lon="6.17988">
        <ele>340.4</ele>
        <time>2013-12-15T09:56:45Z</time>
      </trkpt>
      <trkpt lat="43.54374" lon="6.17991">
        <ele>340.8</ele>
        <time>2013-12-15T09:57:06Z</time>
      </trkpt>
      <trkpt lat="43.54371" lon="6.1798">
        <ele>341.1</ele>
        <time>2013-12-15T09:57:19Z</time>
      </trkpt>
      <trkpt lat="43.54369" lon="6.17969">
        <ele>341.9</ele>
        <time>2013-12-15T09:57:28Z</time>
      </trkpt>
      <trkpt lat="43.54361" lon="6.17964">
        <ele>342.9</ele>
        <time>2013-12-15T09:57:36Z</time>
      </trkpt>
      <trkpt lat="43.54354" lon="6.17963">
        <ele>343.6</ele>
        <time>2013-12-15T09:57:42Z</time>
      </trkpt>
      <trkpt lat="43.54345" lon="6.17967">
        <ele>344</ele>
        <time>2013-12-15T09:57:52Z</time>
      </trkpt>
      <trkpt lat="43.54344" lon="6.17968">
        <ele>344.1</ele>
        <time>2013-12-15T09:57:53Z</time>
      </trkpt>
      <trkpt lat="43.54338" lon="6.17989">
        <ele>344.1</ele>
        <time>2013-12-15T09:58:08Z</time>
      </trkpt>
      <trkpt lat="43.54334" lon="6.17998">
        <ele>343.6</ele>
        <time>2013-12-15T09:58:14Z</time>
      </trkpt>
      <trkpt lat="43.5433" lon="6.18008">
        <ele>343.6</ele>
        <time>2013-12-15T09:58:20Z</time>
      </trkpt>
      <trkpt lat="43.54327" lon="6.18019">
        <ele>343.4</ele>
        <time>2013-12-15T09:58:27Z</time>
      </trkpt>
      <trkpt lat="43.54323" lon="6.18028">
        <ele>343.4</ele>
        <time>2013-12-15T09:58:33Z</time>
      </trkpt>
      <trkpt lat="43.54319" lon="6.18038">
        <ele>343.3</ele>
        <time>2013-12-15T09:58:39Z</time>
      </trkpt>
      <trkpt lat="43.54315" lon="6.18049">
        <ele>342.8</ele>
        <time>2013-12-15T09:58:46Z</time>
      </trkpt>
      <trkpt lat="43.54313" lon="6.18059">
        <ele>342.7</ele>
        <time>2013-12-15T09:58:53Z</time>
      </trkpt>
      <trkpt lat="43.54312" lon="6.18061">
        <ele>342.6</ele>
        <time>2013-12-15T09:58:54Z</time>
      </trkpt>
      <trkpt lat="43.54306" lon="6.18081">
        <ele>341.9</ele>
        <time>2013-12-15T09:59:08Z</time>
      </trkpt>
      <trkpt lat="43.54303" lon="6.18091">
        <ele>342</ele>
        <time>2013-12-15T09:59:15Z</time>
      </trkpt>
      <trkpt lat="43.543" lon="6.18102">
        <ele>342</ele>
        <time>2013-12-15T09:59:21Z</time>
      </trkpt>
      <trkpt lat="43.54295" lon="6.18112">
        <ele>341.1</ele>
        <time>2013-12-15T09:59:28Z</time>
      </trkpt>
      <trkpt lat="43.54292" lon="6.18121">
        <ele>341.5</ele>
        <time>2013-12-15T09:59:34Z</time>
      </trkpt>
      <trkpt lat="43.54289" lon="6.18132">
        <ele>341.1</ele>
        <time>2013-12-15T09:59:40Z</time>
      </trkpt>
      <trkpt lat="43.54286" lon="6.18142">
        <ele>341.3</ele>
        <time>2013-12-15T09:59:46Z</time>
      </trkpt>
      <trkpt lat="43.54283" lon="6.18153">
        <ele>341.4</ele>
        <time>2013-12-15T09:59:52Z</time>
      </trkpt>
      <trkpt lat="43.54283" lon="6.18164">
        <ele>341.5</ele>
        <time>2013-12-15T10:00:00Z</time>
      </trkpt>
      <trkpt lat="43.54282" lon="6.18166">
        <ele>341.4</ele>
        <time>2013-12-15T10:00:01Z</time>
      </trkpt>
      <trkpt lat="43.54274" lon="6.18184">
        <ele>340.9</ele>
        <time>2013-12-15T10:00:14Z</time>
      </trkpt>
      <trkpt lat="43.54271" lon="6.18195">
        <ele>341</ele>
        <time>2013-12-15T10:00:21Z</time>
      </trkpt>
      <trkpt lat="43.54267" lon="6.18204">
        <ele>341.4</ele>
        <time>2013-12-15T10:00:29Z</time>
      </trkpt>
      <trkpt lat="43.54262" lon="6.18213">
        <ele>341.3</ele>
        <time>2013-12-15T10:00:35Z</time>
      </trkpt>
      <trkpt lat="43.54256" lon="6.18221">
        <ele>341.5</ele>
        <time>2013-12-15T10:00:41Z</time>
      </trkpt>
      <trkpt lat="43.54248" lon="6.18227">
        <ele>341.3</ele>
        <time>2013-12-15T10:00:46Z</time>
      </trkpt>
      <trkpt lat="43.54243" lon="6.18236">
        <ele>341.2</ele>
        <time>2013-12-15T10:00:53Z</time>
      </trkpt>
      <trkpt lat="43.54235" lon="6.18243">
        <ele>341</ele>
        <time>2013-12-15T10:01:01Z</time>
      </trkpt>
      <trkpt lat="43.54234" lon="6.18243">
        <ele>341</ele>
        <time>2013-12-15T10:01:02Z</time>
      </trkpt>
      <trkpt lat="43.54221" lon="6.18253">
        <ele>341.5</ele>
        <time>2013-12-15T10:01:13Z</time>
      </trkpt>
      <trkpt lat="43.54212" lon="6.18257">
        <ele>341.7</ele>
        <time>2013-12-15T10:01:21Z</time>
      </trkpt>
      <trkpt lat="43.54205" lon="6.18263">
        <ele>341.7</ele>
        <time>2013-12-15T10:01:29Z</time>
      </trkpt>
      <trkpt lat="43.54197" lon="6.18267">
        <ele>341.6</ele>
        <time>2013-12-15T10:01:36Z</time>
      </trkpt>
      <trkpt lat="43.54189" lon="6.1827">
        <ele>341.2</ele>
        <time>2013-12-15T10:01:41Z</time>
      </trkpt>
      <trkpt lat="43.54182" lon="6.18274">
        <ele>341.3</ele>
        <time>2013-12-15T10:01:48Z</time>
      </trkpt>
      <trkpt lat="43.54174" lon="6.18279">
        <ele>341.5</ele>
        <time>2013-12-15T10:01:56Z</time>
      </trkpt>
      <trkpt lat="43.54167" lon="6.18283">
        <ele>341.7</ele>
        <time>2013-12-15T10:02:01Z</time>
      </trkpt>
      <trkpt lat="43.54159" lon="6.18285">
        <ele>341.6</ele>
        <time>2013-12-15T10:02:08Z</time>
      </trkpt>
      <trkpt lat="43.54158" lon="6.18285">
        <ele>341.7</ele>
        <time>2013-12-15T10:02:09Z</time>
      </trkpt>
      <trkpt lat="43.54145" lon="6.18295">
        <ele>341.8</ele>
        <time>2013-12-15T10:02:22Z</time>
      </trkpt>
      <trkpt lat="43.54136" lon="6.18296">
        <ele>341.6</ele>
        <time>2013-12-15T10:02:27Z</time>
      </trkpt>
      <trkpt lat="43.54128" lon="6.18298">
        <ele>341.5</ele>
        <time>2013-12-15T10:02:36Z</time>
      </trkpt>
      <trkpt lat="43.5412" lon="6.183">
        <ele>341.7</ele>
        <time>2013-12-15T10:02:41Z</time>
      </trkpt>
      <trkpt lat="43.54113" lon="6.18305">
        <ele>340.8</ele>
        <time>2013-12-15T10:02:48Z</time>
      </trkpt>
      <trkpt lat="43.54104" lon="6.18306">
        <ele>340.9</ele>
        <time>2013-12-15T10:02:53Z</time>
      </trkpt>
      <trkpt lat="43.54097" lon="6.18308">
        <ele>340.6</ele>
        <time>2013-12-15T10:02:59Z</time>
      </trkpt>
      <trkpt lat="43.54089" lon="6.18308">
        <ele>340.3</ele>
        <time>2013-12-15T10:03:06Z</time>
      </trkpt>
      <trkpt lat="43.54082" lon="6.18317">
        <ele>339.1</ele>
        <time>2013-12-15T10:03:14Z</time>
      </trkpt>
      <trkpt lat="43.54082" lon="6.18319">
        <ele>339.1</ele>
        <time>2013-12-15T10:03:15Z</time>
      </trkpt>
      <trkpt lat="43.54076" lon="6.18338">
        <ele>337.7</ele>
        <time>2013-12-15T10:03:28Z</time>
      </trkpt>
      <trkpt lat="43.5407" lon="6.18344">
        <ele>336.8</ele>
        <time>2013-12-15T10:03:38Z</time>
      </trkpt>
      <trkpt lat="43.54064" lon="6.18351">
        <ele>335.9</ele>
        <time>2013-12-15T10:03:44Z</time>
      </trkpt>
      <trkpt lat="43.54056" lon="6.18356">
        <ele>335.4</ele>
        <time>2013-12-15T10:03:51Z</time>
      </trkpt>
      <trkpt lat="43.54049" lon="6.18363">
        <ele>334.6</ele>
        <time>2013-12-15T10:03:58Z</time>
      </trkpt>
      <trkpt lat="43.54043" lon="6.18372">
        <ele>334</ele>
        <time>2013-12-15T10:04:04Z</time>
      </trkpt>
      <trkpt lat="43.54043" lon="6.18383">
        <ele>333.8</ele>
        <time>2013-12-15T10:04:21Z</time>
      </trkpt>
      <trkpt lat="43.54042" lon="6.18384">
        <ele>333.8</ele>
        <time>2013-12-15T10:04:22Z</time>
      </trkpt>
      <trkpt lat="43.5404" lon="6.18406">
        <ele>333.8</ele>
        <time>2013-12-15T10:04:36Z</time>
      </trkpt>
      <trkpt lat="43.54038" lon="6.18417">
        <ele>332.6</ele>
        <time>2013-12-15T10:04:45Z</time>
      </trkpt>
      <trkpt lat="43.54036" lon="6.18429">
        <ele>331.6</ele>
        <time>2013-12-15T10:04:54Z</time>
      </trkpt>
      <trkpt lat="43.54029" lon="6.18423">
        <ele>331.6</ele>
        <time>2013-12-15T10:05:18Z</time>
      </trkpt>
      <trkpt lat="43.54021" lon="6.18427">
        <ele>330.2</ele>
        <time>2013-12-15T10:05:26Z</time>
      </trkpt>
      <trkpt lat="43.5402" lon="6.18428">
        <ele>330.1</ele>
        <time>2013-12-15T10:05:27Z</time>
      </trkpt>
      <trkpt lat="43.54013" lon="6.18447">
        <ele>328.2</ele>
        <time>2013-12-15T10:05:56Z</time>
      </trkpt>
      <trkpt lat="43.54007" lon="6.18454">
        <ele>326.4</ele>
        <time>2013-12-15T10:06:07Z</time>
      </trkpt>
      <trkpt lat="43.54002" lon="6.18464">
        <ele>325.4</ele>
        <time>2013-12-15T10:06:28Z</time>
      </trkpt>
      <trkpt lat="43.54002" lon="6.18464">
        <ele>325.4</ele>
        <time>2013-12-15T10:06:29Z</time>
      </trkpt>
      <trkpt lat="43.53989" lon="6.18476">
        <ele>323.1</ele>
        <time>2013-12-15T10:07:42Z</time>
      </trkpt>
      <trkpt lat="43.53989" lon="6.18477">
        <ele>323</ele>
        <time>2013-12-15T10:07:43Z</time>
      </trkpt>
      <trkpt lat="43.53998" lon="6.18473">
        <ele>325</ele>
        <time>2013-12-15T10:09:32Z</time>
      </trkpt>
      <trkpt lat="43.53986" lon="6.18492">
        <ele>328.6</ele>
        <time>2013-12-15T10:10:45Z</time>
      </trkpt>
      <trkpt lat="43.53986" lon="6.18493">
        <ele>328.6</ele>
        <time>2013-12-15T10:10:46Z</time>
      </trkpt>
      <trkpt lat="43.53979" lon="6.18502">
        <ele>329.9</ele>
        <time>2013-12-15T10:11:41Z</time>
      </trkpt>
      <trkpt lat="43.5397" lon="6.18501">
        <ele>331.1</ele>
        <time>2013-12-15T10:11:51Z</time>
      </trkpt>
      <trkpt lat="43.5397" lon="6.18502">
        <ele>331.2</ele>
        <time>2013-12-15T10:11:52Z</time>
      </trkpt>
      <trkpt lat="43.53972" lon="6.18524">
        <ele>333.8</ele>
        <time>2013-12-15T10:12:12Z</time>
      </trkpt>
      <trkpt lat="43.53976" lon="6.18535">
        <ele>336</ele>
        <time>2013-12-15T10:12:25Z</time>
      </trkpt>
      <trkpt lat="43.53983" lon="6.18541">
        <ele>337.9</ele>
        <time>2013-12-15T10:12:37Z</time>
      </trkpt>
      <trkpt lat="43.53991" lon="6.18546">
        <ele>338.6</ele>
        <time>2013-12-15T10:12:49Z</time>
      </trkpt>
      <trkpt lat="43.53997" lon="6.18555">
        <ele>339.8</ele>
        <time>2013-12-15T10:13:06Z</time>
      </trkpt>
      <trkpt lat="43.53998" lon="6.18555">
        <ele>339.6</ele>
        <time>2013-12-15T10:13:07Z</time>
      </trkpt>
      <trkpt lat="43.5401" lon="6.18571">
        <ele>342.3</ele>
        <time>2013-12-15T10:13:33Z</time>
      </trkpt>
      <trkpt lat="43.54018" lon="6.18576">
        <ele>343.1</ele>
        <time>2013-12-15T10:13:43Z</time>
      </trkpt>
      <trkpt lat="43.54026" lon="6.18579">
        <ele>343.3</ele>
        <time>2013-12-15T10:13:55Z</time>
      </trkpt>
      <trkpt lat="43.54034" lon="6.18583">
        <ele>343.4</ele>
        <time>2013-12-15T10:14:05Z</time>
      </trkpt>
      <trkpt lat="43.54042" lon="6.18589">
        <ele>343.6</ele>
        <time>2013-12-15T10:14:15Z</time>
      </trkpt>
      <trkpt lat="43.54042" lon="6.18589">
        <ele>343.6</ele>
        <time>2013-12-15T10:14:16Z</time>
      </trkpt>
      <trkpt lat="43.54039" lon="6.186">
        <ele>346</ele>
        <time>2013-12-15T10:15:01Z</time>
      </trkpt>
      <trkpt lat="43.54031" lon="6.186">
        <ele>346.7</ele>
        <time>2013-12-15T10:15:08Z</time>
      </trkpt>
      <trkpt lat="43.54023" lon="6.18605">
        <ele>348.1</ele>
        <time>2013-12-15T10:15:20Z</time>
      </trkpt>
      <trkpt lat="43.54023" lon="6.18606">
        <ele>348.1</ele>
        <time>2013-12-15T10:15:21Z</time>
      </trkpt>
      <trkpt lat="43.54021" lon="6.18628">
        <ele>348.2</ele>
        <time>2013-12-15T10:15:45Z</time>
      </trkpt>
      <trkpt lat="43.54021" lon="6.18639">
        <ele>349.1</ele>
        <time>2013-12-15T10:15:56Z</time>
      </trkpt>
      <trkpt lat="43.54023" lon="6.1865">
        <ele>349.3</ele>
        <time>2013-12-15T10:16:04Z</time>
      </trkpt>
      <trkpt lat="43.54018" lon="6.18659">
        <ele>350.3</ele>
        <time>2013-12-15T10:16:15Z</time>
      </trkpt>
      <trkpt lat="43.54015" lon="6.18671">
        <ele>351.6</ele>
        <time>2013-12-15T10:17:05Z</time>
      </trkpt>
      <trkpt lat="43.54015" lon="6.18672">
        <ele>351.6</ele>
        <time>2013-12-15T10:17:06Z</time>
      </trkpt>
      <trkpt lat="43.54014" lon="6.18684">
        <ele>352.1</ele>
        <time>2013-12-15T10:18:41Z</time>
      </trkpt>
      <trkpt lat="43.54004" lon="6.18696">
        <ele>354.4</ele>
        <time>2013-12-15T10:19:03Z</time>
      </trkpt>
      <trkpt lat="43.53996" lon="6.18702">
        <ele>355.3</ele>
        <time>2013-12-15T10:19:12Z</time>
      </trkpt>
      <trkpt lat="43.53989" lon="6.18708">
        <ele>355.7</ele>
        <time>2013-12-15T10:19:20Z</time>
      </trkpt>
      <trkpt lat="43.53988" lon="6.1872">
        <ele>356.4</ele>
        <time>2013-12-15T10:19:30Z</time>
      </trkpt>
      <trkpt lat="43.53992" lon="6.18731">
        <ele>357.5</ele>
        <time>2013-12-15T10:19:37Z</time>
      </trkpt>
      <trkpt lat="43.53997" lon="6.1874">
        <ele>357.7</ele>
        <time>2013-12-15T10:19:44Z</time>
      </trkpt>
      <trkpt lat="43.53998" lon="6.18741">
        <ele>357.8</ele>
        <time>2013-12-15T10:19:45Z</time>
      </trkpt>
      <trkpt lat="43.54008" lon="6.18758">
        <ele>361.1</ele>
        <time>2013-12-15T10:20:08Z</time>
      </trkpt>
      <trkpt lat="43.54013" lon="6.18768">
        <ele>362.2</ele>
        <time>2013-12-15T10:20:16Z</time>
      </trkpt>
      <trkpt lat="43.54017" lon="6.18779">
        <ele>363.2</ele>
        <time>2013-12-15T10:20:25Z</time>
      </trkpt>
      <trkpt lat="43.5402" lon="6.1879">
        <ele>363.7</ele>
        <time>2013-12-15T10:20:34Z</time>
      </trkpt>
      <trkpt lat="43.54023" lon="6.18801">
        <ele>364.6</ele>
        <time>2013-12-15T10:20:45Z</time>
      </trkpt>
      <trkpt lat="43.54024" lon="6.18803">
        <ele>364.8</ele>
        <time>2013-12-15T10:20:46Z</time>
      </trkpt>
      <trkpt lat="43.54029" lon="6.18823">
        <ele>365.3</ele>
        <time>2013-12-15T10:21:02Z</time>
      </trkpt>
      <trkpt lat="43.54031" lon="6.18834">
        <ele>366.2</ele>
        <time>2013-12-15T10:21:10Z</time>
      </trkpt>
      <trkpt lat="43.54033" lon="6.18845">
        <ele>366.5</ele>
        <time>2013-12-15T10:21:17Z</time>
      </trkpt>
      <trkpt lat="43.54036" lon="6.18856">
        <ele>367</ele>
        <time>2013-12-15T10:21:24Z</time>
      </trkpt>
      <trkpt lat="43.54039" lon="6.18867">
        <ele>367.5</ele>
        <time>2013-12-15T10:21:33Z</time>
      </trkpt>
      <trkpt lat="43.54041" lon="6.18878">
        <ele>368.2</ele>
        <time>2013-12-15T10:21:42Z</time>
      </trkpt>
      <trkpt lat="43.54043" lon="6.18889">
        <ele>369.1</ele>
        <time>2013-12-15T10:21:50Z</time>
      </trkpt>
      <trkpt lat="43.54043" lon="6.1889">
        <ele>369</ele>
        <time>2013-12-15T10:21:51Z</time>
      </trkpt>
      <trkpt lat="43.54044" lon="6.1891">
        <ele>369.6</ele>
        <time>2013-12-15T10:22:08Z</time>
      </trkpt>
      <trkpt lat="43.54049" lon="6.18919">
        <ele>369.8</ele>
        <time>2013-12-15T10:22:17Z</time>
      </trkpt>
      <trkpt lat="43.54055" lon="6.18926">
        <ele>370.9</ele>
        <time>2013-12-15T10:22:25Z</time>
      </trkpt>
      <trkpt lat="43.54062" lon="6.18933">
        <ele>372.1</ele>
        <time>2013-12-15T10:22:35Z</time>
      </trkpt>
      <trkpt lat="43.5407" lon="6.18939">
        <ele>374.4</ele>
        <time>2013-12-15T10:22:49Z</time>
      </trkpt>
      <trkpt lat="43.54077" lon="6.18945">
        <ele>374.7</ele>
        <time>2013-12-15T10:23:15Z</time>
      </trkpt>
      <trkpt lat="43.54078" lon="6.18945">
        <ele>374.8</ele>
        <time>2013-12-15T10:23:16Z</time>
      </trkpt>
      <trkpt lat="43.54077" lon="6.18969">
        <ele>375.3</ele>
        <time>2013-12-15T10:23:52Z</time>
      </trkpt>
      <trkpt lat="43.54078" lon="6.18981">
        <ele>374.8</ele>
        <time>2013-12-15T10:24:01Z</time>
      </trkpt>
      <trkpt lat="43.54084" lon="6.18991">
        <ele>375.3</ele>
        <time>2013-12-15T10:24:10Z</time>
      </trkpt>
      <trkpt lat="43.5409" lon="6.18999">
        <ele>375</ele>
        <time>2013-12-15T10:24:19Z</time>
      </trkpt>
      <trkpt lat="43.54091" lon="6.19">
        <ele>375</ele>
        <time>2013-12-15T10:24:20Z</time>
      </trkpt>
      <trkpt lat="43.54095" lon="6.19021">
        <ele>373.7</ele>
        <time>2013-12-15T10:24:37Z</time>
      </trkpt>
      <trkpt lat="43.54095" lon="6.19032">
        <ele>373.3</ele>
        <time>2013-12-15T10:24:46Z</time>
      </trkpt>
      <trkpt lat="43.54099" lon="6.19041">
        <ele>372.8</ele>
        <time>2013-12-15T10:24:52Z</time>
      </trkpt>
      <trkpt lat="43.54103" lon="6.19052">
        <ele>372.5</ele>
        <time>2013-12-15T10:24:59Z</time>
      </trkpt>
      <trkpt lat="43.54106" lon="6.19062">
        <ele>371.7</ele>
        <time>2013-12-15T10:25:07Z</time>
      </trkpt>
      <trkpt lat="43.54109" lon="6.19072">
        <ele>370.4</ele>
        <time>2013-12-15T10:25:15Z</time>
      </trkpt>
      <trkpt lat="43.54102" lon="6.19076">
        <ele>370</ele>
        <time>2013-12-15T10:25:26Z</time>
      </trkpt>
      <trkpt lat="43.541" lon="6.19076">
        <ele>370</ele>
        <time>2013-12-15T10:25:27Z</time>
      </trkpt>
      <trkpt lat="43.54087" lon="6.19087">
        <ele>369.5</ele>
        <time>2013-12-15T10:25:42Z</time>
      </trkpt>
      <trkpt lat="43.54081" lon="6.19096">
        <ele>368.9</ele>
        <time>2013-12-15T10:25:51Z</time>
      </trkpt>
      <trkpt lat="43.54074" lon="6.19101">
        <ele>369</ele>
        <time>2013-12-15T10:25:57Z</time>
      </trkpt>
      <trkpt lat="43.54068" lon="6.19107">
        <ele>368.6</ele>
        <time>2013-12-15T10:26:04Z</time>
      </trkpt>
      <trkpt lat="43.54062" lon="6.19114">
        <ele>368.4</ele>
        <time>2013-12-15T10:26:12Z</time>
      </trkpt>
      <trkpt lat="43.54055" lon="6.1912">
        <ele>368</ele>
        <time>2013-12-15T10:26:19Z</time>
      </trkpt>
      <trkpt lat="43.54047" lon="6.19127">
        <ele>368.2</ele>
        <time>2013-12-15T10:26:26Z</time>
      </trkpt>
      <trkpt lat="43.54041" lon="6.19135">
        <ele>368.6</ele>
        <time>2013-12-15T10:26:33Z</time>
      </trkpt>
      <trkpt lat="43.5404" lon="6.19137">
        <ele>368.7</ele>
        <time>2013-12-15T10:26:34Z</time>
      </trkpt>
      <trkpt lat="43.54051" lon="6.19154">
        <ele>368.1</ele>
        <time>2013-12-15T10:28:07Z</time>
      </trkpt>
      <trkpt lat="43.54051" lon="6.19155">
        <ele>367.7</ele>
        <time>2013-12-15T10:28:08Z</time>
      </trkpt>
      <trkpt lat="43.54061" lon="6.19173">
        <ele>365.5</ele>
        <time>2013-12-15T10:28:27Z</time>
      </trkpt>
      <trkpt lat="43.54066" lon="6.19182">
        <ele>365.3</ele>
        <time>2013-12-15T10:28:35Z</time>
      </trkpt>
      <trkpt lat="43.54071" lon="6.19193">
        <ele>364.4</ele>
        <time>2013-12-15T10:28:44Z</time>
      </trkpt>
      <trkpt lat="43.54076" lon="6.19203">
        <ele>363.9</ele>
        <time>2013-12-15T10:28:51Z</time>
      </trkpt>
      <trkpt lat="43.54082" lon="6.19212">
        <ele>363.2</ele>
        <time>2013-12-15T10:28:59Z</time>
      </trkpt>
      <trkpt lat="43.54087" lon="6.19222">
        <ele>362.9</ele>
        <time>2013-12-15T10:29:05Z</time>
      </trkpt>
      <trkpt lat="43.54094" lon="6.19229">
        <ele>362.7</ele>
        <time>2013-12-15T10:29:16Z</time>
      </trkpt>
      <trkpt lat="43.54094" lon="6.19229">
        <ele>362.8</ele>
        <time>2013-12-15T10:29:17Z</time>
      </trkpt>
      <trkpt lat="43.54104" lon="6.19246">
        <ele>361.7</ele>
        <time>2013-12-15T10:29:38Z</time>
      </trkpt>
      <trkpt lat="43.54109" lon="6.19255">
        <ele>361.5</ele>
        <time>2013-12-15T10:29:47Z</time>
      </trkpt>
      <trkpt lat="43.54114" lon="6.19264">
        <ele>361.8</ele>
        <time>2013-12-15T10:29:54Z</time>
      </trkpt>
      <trkpt lat="43.54121" lon="6.19272">
        <ele>361.9</ele>
        <time>2013-12-15T10:30:03Z</time>
      </trkpt>
      <trkpt lat="43.54126" lon="6.19279">
        <ele>362.5</ele>
        <time>2013-12-15T10:30:09Z</time>
      </trkpt>
      <trkpt lat="43.54131" lon="6.19287">
        <ele>362.2</ele>
        <time>2013-12-15T10:30:16Z</time>
      </trkpt>
      <trkpt lat="43.54137" lon="6.19295">
        <ele>361.4</ele>
        <time>2013-12-15T10:30:23Z</time>
      </trkpt>
      <trkpt lat="43.54138" lon="6.19296">
        <ele>361.6</ele>
        <time>2013-12-15T10:30:24Z</time>
      </trkpt>
      <trkpt lat="43.5415" lon="6.19311">
        <ele>360.9</ele>
        <time>2013-12-15T10:30:37Z</time>
      </trkpt>
      <trkpt lat="43.54157" lon="6.19318">
        <ele>360.5</ele>
        <time>2013-12-15T10:30:45Z</time>
      </trkpt>
      <trkpt lat="43.54163" lon="6.19325">
        <ele>359.5</ele>
        <time>2013-12-15T10:30:52Z</time>
      </trkpt>
      <trkpt lat="43.54171" lon="6.1933">
        <ele>359.2</ele>
        <time>2013-12-15T10:31:01Z</time>
      </trkpt>
      <trkpt lat="43.54178" lon="6.19337">
        <ele>358.7</ele>
        <time>2013-12-15T10:31:09Z</time>
      </trkpt>
      <trkpt lat="43.54183" lon="6.19346">
        <ele>357.4</ele>
        <time>2013-12-15T10:31:17Z</time>
      </trkpt>
      <trkpt lat="43.54189" lon="6.19354">
        <ele>357</ele>
        <time>2013-12-15T10:31:23Z</time>
      </trkpt>
      <trkpt lat="43.54194" lon="6.19363">
        <ele>356</ele>
        <time>2013-12-15T10:31:29Z</time>
      </trkpt>
      <trkpt lat="43.54195" lon="6.19365">
        <ele>356</ele>
        <time>2013-12-15T10:31:30Z</time>
      </trkpt>
      <trkpt lat="43.54203" lon="6.19382">
        <ele>354.4</ele>
        <time>2013-12-15T10:31:43Z</time>
      </trkpt>
      <trkpt lat="43.54206" lon="6.19392">
        <ele>353.4</ele>
        <time>2013-12-15T10:31:51Z</time>
      </trkpt>
      <trkpt lat="43.5421" lon="6.19402">
        <ele>353.2</ele>
        <time>2013-12-15T10:31:57Z</time>
      </trkpt>
      <trkpt lat="43.54213" lon="6.19412">
        <ele>352.5</ele>
        <time>2013-12-15T10:32:02Z</time>
      </trkpt>
      <trkpt lat="43.54216" lon="6.19422">
        <ele>352.5</ele>
        <time>2013-12-15T10:32:07Z</time>
      </trkpt>
      <trkpt lat="43.5422" lon="6.19433">
        <ele>352.1</ele>
        <time>2013-12-15T10:32:14Z</time>
      </trkpt>
      <trkpt lat="43.54224" lon="6.19442">
        <ele>351.9</ele>
        <time>2013-12-15T10:32:22Z</time>
      </trkpt>
      <trkpt lat="43.54229" lon="6.19452">
        <ele>351.8</ele>
        <time>2013-12-15T10:32:28Z</time>
      </trkpt>
      <trkpt lat="43.54234" lon="6.19462">
        <ele>352.1</ele>
        <time>2013-12-15T10:32:35Z</time>
      </trkpt>
      <trkpt lat="43.54235" lon="6.19464">
        <ele>351.9</ele>
        <time>2013-12-15T10:32:36Z</time>
      </trkpt>
      <trkpt lat="43.54247" lon="6.19475">
        <ele>350.1</ele>
        <time>2013-12-15T10:32:47Z</time>
      </trkpt>
      <trkpt lat="43.54254" lon="6.19473">
        <ele>349.7</ele>
        <time>2013-12-15T10:32:54Z</time>
      </trkpt>
      <trkpt lat="43.54261" lon="6.1947">
        <ele>349.5</ele>
        <time>2013-12-15T10:32:58Z</time>
      </trkpt>
      <trkpt lat="43.54268" lon="6.19465">
        <ele>348.8</ele>
        <time>2013-12-15T10:33:05Z</time>
      </trkpt>
      <trkpt lat="43.54275" lon="6.19459">
        <ele>348.7</ele>
        <time>2013-12-15T10:33:11Z</time>
      </trkpt>
      <trkpt lat="43.54282" lon="6.19452">
        <ele>347.1</ele>
        <time>2013-12-15T10:33:17Z</time>
      </trkpt>
      <trkpt lat="43.54288" lon="6.19444">
        <ele>347.4</ele>
        <time>2013-12-15T10:33:23Z</time>
      </trkpt>
      <trkpt lat="43.54293" lon="6.19435">
        <ele>346.3</ele>
        <time>2013-12-15T10:33:30Z</time>
      </trkpt>
      <trkpt lat="43.54297" lon="6.19425">
        <ele>346.2</ele>
        <time>2013-12-15T10:33:36Z</time>
      </trkpt>
      <trkpt lat="43.54297" lon="6.19423">
        <ele>345.9</ele>
        <time>2013-12-15T10:33:37Z</time>
      </trkpt>
      <trkpt lat="43.54297" lon="6.19403">
        <ele>345.1</ele>
        <time>2013-12-15T10:33:48Z</time>
      </trkpt>
      <trkpt lat="43.54299" lon="6.19392">
        <ele>344</ele>
        <time>2013-12-15T10:33:57Z</time>
      </trkpt>
      <trkpt lat="43.54304" lon="6.19382">
        <ele>343.9</ele>
        <time>2013-12-15T10:34:05Z</time>
      </trkpt>
      <trkpt lat="43.54311" lon="6.19376">
        <ele>343.4</ele>
        <time>2013-12-15T10:34:11Z</time>
      </trkpt>
      <trkpt lat="43.54319" lon="6.19372">
        <ele>343.5</ele>
        <time>2013-12-15T10:34:19Z</time>
      </trkpt>
      <trkpt lat="43.54327" lon="6.19373">
        <ele>343.4</ele>
        <time>2013-12-15T10:34:28Z</time>
      </trkpt>
      <trkpt lat="43.54335" lon="6.19378">
        <ele>343.4</ele>
        <time>2013-12-15T10:34:35Z</time>
      </trkpt>
      <trkpt lat="43.54342" lon="6.19386">
        <ele>343.8</ele>
        <time>2013-12-15T10:34:44Z</time>
      </trkpt>
      <trkpt lat="43.54343" lon="6.19387">
        <ele>343.7</ele>
        <time>2013-12-15T10:34:45Z</time>
      </trkpt>
      <trkpt lat="43.54351" lon="6.19406">
        <ele>343.6</ele>
        <time>2013-12-15T10:34:59Z</time>
      </trkpt>
      <trkpt lat="43.54355" lon="6.19415">
        <ele>343.2</ele>
        <time>2013-12-15T10:35:16Z</time>
      </trkpt>
      <trkpt lat="43.5436" lon="6.19425">
        <ele>343.4</ele>
        <time>2013-12-15T10:35:23Z</time>
      </trkpt>
      <trkpt lat="43.54365" lon="6.19436">
        <ele>343.2</ele>
        <time>2013-12-15T10:35:29Z</time>
      </trkpt>
      <trkpt lat="43.54368" lon="6.19445">
        <ele>342.7</ele>
        <time>2013-12-15T10:35:35Z</time>
      </trkpt>
      <trkpt lat="43.54373" lon="6.19455">
        <ele>343</ele>
        <time>2013-12-15T10:35:42Z</time>
      </trkpt>
      <trkpt lat="43.54378" lon="6.19465">
        <ele>342.2</ele>
        <time>2013-12-15T10:35:53Z</time>
      </trkpt>
      <trkpt lat="43.54379" lon="6.19465">
        <ele>342.2</ele>
        <time>2013-12-15T10:35:54Z</time>
      </trkpt>
      <trkpt lat="43.54393" lon="6.19474">
        <ele>341.9</ele>
        <time>2013-12-15T10:36:05Z</time>
      </trkpt>
      <trkpt lat="43.54401" lon="6.19479">
        <ele>341.7</ele>
        <time>2013-12-15T10:36:12Z</time>
      </trkpt>
      <trkpt lat="43.5441" lon="6.19481">
        <ele>341.6</ele>
        <time>2013-12-15T10:36:19Z</time>
      </trkpt>
      <trkpt lat="43.54418" lon="6.19482">
        <ele>341.2</ele>
        <time>2013-12-15T10:36:25Z</time>
      </trkpt>
      <trkpt lat="43.54426" lon="6.19482">
        <ele>341.1</ele>
        <time>2013-12-15T10:36:32Z</time>
      </trkpt>
      <trkpt lat="43.54434" lon="6.19479">
        <ele>341.1</ele>
        <time>2013-12-15T10:36:37Z</time>
      </trkpt>
      <trkpt lat="43.54442" lon="6.19477">
        <ele>341.3</ele>
        <time>2013-12-15T10:36:44Z</time>
      </trkpt>
      <trkpt lat="43.5445" lon="6.19473">
        <ele>340.9</ele>
        <time>2013-12-15T10:36:51Z</time>
      </trkpt>
      <trkpt lat="43.54457" lon="6.19467">
        <ele>340.4</ele>
        <time>2013-12-15T10:36:58Z</time>
      </trkpt>
      <trkpt lat="43.54458" lon="6.19466">
        <ele>340.4</ele>
        <time>2013-12-15T10:36:59Z</time>
      </trkpt>
      <trkpt lat="43.54469" lon="6.19452">
        <ele>338.9</ele>
        <time>2013-12-15T10:37:11Z</time>
      </trkpt>
      <trkpt lat="43.54474" lon="6.19444">
        <ele>339</ele>
        <time>2013-12-15T10:37:17Z</time>
      </trkpt>
      <trkpt lat="43.54479" lon="6.19434">
        <ele>338.7</ele>
        <time>2013-12-15T10:37:24Z</time>
      </trkpt>
      <trkpt lat="43.54486" lon="6.19427">
        <ele>338.4</ele>
        <time>2013-12-15T10:37:31Z</time>
      </trkpt>
      <trkpt lat="43.54494" lon="6.19422">
        <ele>337.4</ele>
        <time>2013-12-15T10:37:39Z</time>
      </trkpt>
      <trkpt lat="43.54503" lon="6.19423">
        <ele>337.8</ele>
        <time>2013-12-15T10:37:45Z</time>
      </trkpt>
      <trkpt lat="43.54511" lon="6.19426">
        <ele>337.4</ele>
        <time>2013-12-15T10:37:52Z</time>
      </trkpt>
      <trkpt lat="43.54518" lon="6.19434">
        <ele>337.6</ele>
        <time>2013-12-15T10:38:00Z</time>
      </trkpt>
      <trkpt lat="43.54519" lon="6.19435">
        <ele>337.8</ele>
        <time>2013-12-15T10:38:01Z</time>
      </trkpt>
      <trkpt lat="43.54527" lon="6.19453">
        <ele>339.1</ele>
        <time>2013-12-15T10:38:15Z</time>
      </trkpt>
      <trkpt lat="43.54531" lon="6.19464">
        <ele>339.4</ele>
        <time>2013-12-15T10:38:22Z</time>
      </trkpt>
      <trkpt lat="43.54533" lon="6.19475">
        <ele>339.8</ele>
        <time>2013-12-15T10:38:28Z</time>
      </trkpt>
      <trkpt lat="43.5454" lon="6.19482">
        <ele>339.9</ele>
        <time>2013-12-15T10:38:37Z</time>
      </trkpt>
      <trkpt lat="43.54546" lon="6.19474">
        <ele>339.2</ele>
        <time>2013-12-15T10:39:07Z</time>
      </trkpt>
      <trkpt lat="43.54546" lon="6.19473">
        <ele>339.2</ele>
        <time>2013-12-15T10:39:08Z</time>
      </trkpt>
      <trkpt lat="43.54547" lon="6.1945">
        <ele>340.1</ele>
        <time>2013-12-15T10:39:25Z</time>
      </trkpt>
      <trkpt lat="43.54549" lon="6.1944">
        <ele>340.5</ele>
        <time>2013-12-15T10:39:34Z</time>
      </trkpt>
      <trkpt lat="43.54549" lon="6.19428">
        <ele>339.9</ele>
        <time>2013-12-15T10:39:41Z</time>
      </trkpt>
      <trkpt lat="43.54549" lon="6.19416">
        <ele>339.8</ele>
        <time>2013-12-15T10:39:56Z</time>
      </trkpt>
      <trkpt lat="43.54549" lon="6.19405">
        <ele>340.1</ele>
        <time>2013-12-15T10:40:03Z</time>
      </trkpt>
      <trkpt lat="43.54551" lon="6.19393">
        <ele>340.1</ele>
        <time>2013-12-15T10:40:10Z</time>
      </trkpt>
      <trkpt lat="43.54552" lon="6.19392">
        <ele>340</ele>
        <time>2013-12-15T10:40:11Z</time>
      </trkpt>
      <trkpt lat="43.54556" lon="6.19371">
        <ele>338.4</ele>
        <time>2013-12-15T10:40:30Z</time>
      </trkpt>
      <trkpt lat="43.54557" lon="6.1936">
        <ele>338.2</ele>
        <time>2013-12-15T10:40:35Z</time>
      </trkpt>
      <trkpt lat="43.54557" lon="6.19348">
        <ele>338</ele>
        <time>2013-12-15T10:40:41Z</time>
      </trkpt>
      <trkpt lat="43.54565" lon="6.19343">
        <ele>338.7</ele>
        <time>2013-12-15T10:40:57Z</time>
      </trkpt>
      <trkpt lat="43.54573" lon="6.1934">
        <ele>338.6</ele>
        <time>2013-12-15T10:41:05Z</time>
      </trkpt>
      <trkpt lat="43.5458" lon="6.19333">
        <ele>338.7</ele>
        <time>2013-12-15T10:41:12Z</time>
      </trkpt>
      <trkpt lat="43.54582" lon="6.19332">
        <ele>338.7</ele>
        <time>2013-12-15T10:41:13Z</time>
      </trkpt>
      <trkpt lat="43.54594" lon="6.19319">
        <ele>338.4</ele>
        <time>2013-12-15T10:41:27Z</time>
      </trkpt>
      <trkpt lat="43.54601" lon="6.19313">
        <ele>339.3</ele>
        <time>2013-12-15T10:41:34Z</time>
      </trkpt>
      <trkpt lat="43.54607" lon="6.19304">
        <ele>339.8</ele>
        <time>2013-12-15T10:41:42Z</time>
      </trkpt>
      <trkpt lat="43.54615" lon="6.19299">
        <ele>339.5</ele>
        <time>2013-12-15T10:42:02Z</time>
      </trkpt>
      <trkpt lat="43.54623" lon="6.193">
        <ele>342.3</ele>
        <time>2013-12-15T10:44:04Z</time>
      </trkpt>
      <trkpt lat="43.54624" lon="6.19299">
        <ele>342.3</ele>
        <time>2013-12-15T10:44:05Z</time>
      </trkpt>
      <trkpt lat="43.54631" lon="6.19291">
        <ele>342.8</ele>
        <time>2013-12-15T10:45:39Z</time>
      </trkpt>
      <trkpt lat="43.54641" lon="6.19276">
        <ele>342.4</ele>
        <time>2013-12-15T10:45:51Z</time>
      </trkpt>
      <trkpt lat="43.54647" lon="6.19269">
        <ele>341.9</ele>
        <time>2013-12-15T10:45:58Z</time>
      </trkpt>
      <trkpt lat="43.54655" lon="6.19262">
        <ele>342.7</ele>
        <time>2013-12-15T10:46:06Z</time>
      </trkpt>
      <trkpt lat="43.54662" lon="6.19256">
        <ele>342.4</ele>
        <time>2013-12-15T10:46:14Z</time>
      </trkpt>
      <trkpt lat="43.5467" lon="6.19251">
        <ele>342.4</ele>
        <time>2013-12-15T10:46:22Z</time>
      </trkpt>
      <trkpt lat="43.54677" lon="6.19245">
        <ele>342.3</ele>
        <time>2013-12-15T10:46:30Z</time>
      </trkpt>
      <trkpt lat="43.54685" lon="6.19242">
        <ele>342.3</ele>
        <time>2013-12-15T10:46:37Z</time>
      </trkpt>
      <trkpt lat="43.54694" lon="6.19239">
        <ele>342.4</ele>
        <time>2013-12-15T10:46:44Z</time>
      </trkpt>
      <trkpt lat="43.54695" lon="6.19238">
        <ele>342.5</ele>
        <time>2013-12-15T10:46:45Z</time>
      </trkpt>
      <trkpt lat="43.5471" lon="6.19232">
        <ele>343.3</ele>
        <time>2013-12-15T10:46:59Z</time>
      </trkpt>
      <trkpt lat="43.54718" lon="6.19231">
        <ele>342.4</ele>
        <time>2013-12-15T10:47:05Z</time>
      </trkpt>
      <trkpt lat="43.54726" lon="6.1923">
        <ele>342.4</ele>
        <time>2013-12-15T10:47:12Z</time>
      </trkpt>
      <trkpt lat="43.54735" lon="6.19229">
        <ele>342.2</ele>
        <time>2013-12-15T10:47:20Z</time>
      </trkpt>
      <trkpt lat="43.54744" lon="6.19228">
        <ele>342.8</ele>
        <time>2013-12-15T10:47:27Z</time>
      </trkpt>
      <trkpt lat="43.54752" lon="6.19228">
        <ele>343.4</ele>
        <time>2013-12-15T10:47:35Z</time>
      </trkpt>
      <trkpt lat="43.5476" lon="6.19227">
        <ele>343.5</ele>
        <time>2013-12-15T10:47:43Z</time>
      </trkpt>
      <trkpt lat="43.54769" lon="6.19229">
        <ele>343.7</ele>
        <time>2013-12-15T10:47:49Z</time>
      </trkpt>
      <trkpt lat="43.54769" lon="6.19228">
        <ele>343.7</ele>
        <time>2013-12-15T10:47:50Z</time>
      </trkpt>
      <trkpt lat="43.54786" lon="6.19227">
        <ele>343.5</ele>
        <time>2013-12-15T10:48:06Z</time>
      </trkpt>
      <trkpt lat="43.54794" lon="6.19227">
        <ele>344.1</ele>
        <time>2013-12-15T10:48:13Z</time>
      </trkpt>
      <trkpt lat="43.54803" lon="6.19226">
        <ele>344.2</ele>
        <time>2013-12-15T10:48:19Z</time>
      </trkpt>
      <trkpt lat="43.5481" lon="6.19226">
        <ele>344.4</ele>
        <time>2013-12-15T10:48:26Z</time>
      </trkpt>
      <trkpt lat="43.54818" lon="6.19225">
        <ele>344.6</ele>
        <time>2013-12-15T10:48:32Z</time>
      </trkpt>
      <trkpt lat="43.54826" lon="6.19225">
        <ele>345</ele>
        <time>2013-12-15T10:48:39Z</time>
      </trkpt>
      <trkpt lat="43.54834" lon="6.19223">
        <ele>345.3</ele>
        <time>2013-12-15T10:48:46Z</time>
      </trkpt>
      <trkpt lat="43.54842" lon="6.19222">
        <ele>345.9</ele>
        <time>2013-12-15T10:48:52Z</time>
      </trkpt>
      <trkpt lat="43.54843" lon="6.19222">
        <ele>345.7</ele>
        <time>2013-12-15T10:48:53Z</time>
      </trkpt>
      <trkpt lat="43.54859" lon="6.19219">
        <ele>346.7</ele>
        <time>2013-12-15T10:49:09Z</time>
      </trkpt>
      <trkpt lat="43.54867" lon="6.1922">
        <ele>346.8</ele>
        <time>2013-12-15T10:49:17Z</time>
      </trkpt>
      <trkpt lat="43.54876" lon="6.19223">
        <ele>347.3</ele>
        <time>2013-12-15T10:49:27Z</time>
      </trkpt>
      <trkpt lat="43.54884" lon="6.19224">
        <ele>348.6</ele>
        <time>2013-12-15T10:50:05Z</time>
      </trkpt>
      <trkpt lat="43.54885" lon="6.19224">
        <ele>348.6</ele>
        <time>2013-12-15T10:50:06Z</time>
      </trkpt>
      <trkpt lat="43.54901" lon="6.1923">
        <ele>348.7</ele>
        <time>2013-12-15T10:50:41Z</time>
      </trkpt>
      <trkpt lat="43.54909" lon="6.19231">
        <ele>349.5</ele>
        <time>2013-12-15T10:50:50Z</time>
      </trkpt>
      <trkpt lat="43.54918" lon="6.19229">
        <ele>349.7</ele>
        <time>2013-12-15T10:50:58Z</time>
      </trkpt>
      <trkpt lat="43.54926" lon="6.19229">
        <ele>349.9</ele>
        <time>2013-12-15T10:51:06Z</time>
      </trkpt>
      <trkpt lat="43.54927" lon="6.19229">
        <ele>350</ele>
        <time>2013-12-15T10:51:07Z</time>
      </trkpt>
      <trkpt lat="43.54942" lon="6.1923">
        <ele>350.6</ele>
        <time>2013-12-15T10:51:21Z</time>
      </trkpt>
      <trkpt lat="43.5495" lon="6.19227">
        <ele>351.2</ele>
        <time>2013-12-15T10:51:28Z</time>
      </trkpt>
      <trkpt lat="43.54959" lon="6.19227">
        <ele>352.1</ele>
        <time>2013-12-15T10:51:38Z</time>
      </trkpt>
      <trkpt lat="43.54967" lon="6.19225">
        <ele>352.5</ele>
        <time>2013-12-15T10:51:48Z</time>
      </trkpt>
      <trkpt lat="43.54976" lon="6.19224">
        <ele>353.2</ele>
        <time>2013-12-15T10:51:56Z</time>
      </trkpt>
      <trkpt lat="43.54984" lon="6.19224">
        <ele>353.7</ele>
        <time>2013-12-15T10:52:04Z</time>
      </trkpt>
      <trkpt lat="43.54993" lon="6.19222">
        <ele>353.7</ele>
        <time>2013-12-15T10:52:17Z</time>
      </trkpt>
      <trkpt lat="43.54994" lon="6.19222">
        <ele>353.6</ele>
        <time>2013-12-15T10:52:18Z</time>
      </trkpt>
      <trkpt lat="43.55009" lon="6.19221">
        <ele>355.5</ele>
        <time>2013-12-15T10:52:41Z</time>
      </trkpt>
      <trkpt lat="43.55017" lon="6.19219">
        <ele>355.5</ele>
        <time>2013-12-15T10:52:53Z</time>
      </trkpt>
      <trkpt lat="43.55026" lon="6.1922">
        <ele>355.2</ele>
        <time>2013-12-15T10:53:01Z</time>
      </trkpt>
      <trkpt lat="43.55034" lon="6.1922">
        <ele>356.3</ele>
        <time>2013-12-15T10:53:15Z</time>
      </trkpt>
      <trkpt lat="43.55043" lon="6.19221">
        <ele>356.1</ele>
        <time>2013-12-15T10:53:23Z</time>
      </trkpt>
      <trkpt lat="43.55044" lon="6.19221">
        <ele>356.3</ele>
        <time>2013-12-15T10:53:24Z</time>
      </trkpt>
      <trkpt lat="43.55059" lon="6.19224">
        <ele>356.3</ele>
        <time>2013-12-15T10:53:59Z</time>
      </trkpt>
      <trkpt lat="43.55068" lon="6.19226">
        <ele>356.6</ele>
        <time>2013-12-15T10:54:08Z</time>
      </trkpt>
      <trkpt lat="43.55076" lon="6.1923">
        <ele>357.8</ele>
        <time>2013-12-15T10:54:16Z</time>
      </trkpt>
      <trkpt lat="43.55084" lon="6.19233">
        <ele>357.8</ele>
        <time>2013-12-15T10:54:24Z</time>
      </trkpt>
      <trkpt lat="43.55085" lon="6.19233">
        <ele>357.8</ele>
        <time>2013-12-15T10:54:25Z</time>
      </trkpt>
      <trkpt lat="43.551" lon="6.19239">
        <ele>358.8</ele>
        <time>2013-12-15T10:54:42Z</time>
      </trkpt>
      <trkpt lat="43.55107" lon="6.19245">
        <ele>359.2</ele>
        <time>2013-12-15T10:54:57Z</time>
      </trkpt>
      <trkpt lat="43.55114" lon="6.19237">
        <ele>359.5</ele>
        <time>2013-12-15T10:55:05Z</time>
      </trkpt>
      <trkpt lat="43.55117" lon="6.19227">
        <ele>360.4</ele>
        <time>2013-12-15T10:55:13Z</time>
      </trkpt>
      <trkpt lat="43.55118" lon="6.19215">
        <ele>360.8</ele>
        <time>2013-12-15T10:55:19Z</time>
      </trkpt>
      <trkpt lat="43.55121" lon="6.19204">
        <ele>360.6</ele>
        <time>2013-12-15T10:55:25Z</time>
      </trkpt>
      <trkpt lat="43.55121" lon="6.19202">
        <ele>360.4</ele>
        <time>2013-12-15T10:55:26Z</time>
      </trkpt>
      <trkpt lat="43.55132" lon="6.19188">
        <ele>360.7</ele>
        <time>2013-12-15T10:55:44Z</time>
      </trkpt>
      <trkpt lat="43.55141" lon="6.19189">
        <ele>361.9</ele>
        <time>2013-12-15T10:56:12Z</time>
      </trkpt>
      <trkpt lat="43.5515" lon="6.19189">
        <ele>363.6</ele>
        <time>2013-12-15T10:57:11Z</time>
      </trkpt>
      <trkpt lat="43.55151" lon="6.1919">
        <ele>363.6</ele>
        <time>2013-12-15T10:57:12Z</time>
      </trkpt>
      <trkpt lat="43.55162" lon="6.19206">
        <ele>363.5</ele>
        <time>2013-12-15T10:57:28Z</time>
      </trkpt>
      <trkpt lat="43.55169" lon="6.19202">
        <ele>363.7</ele>
        <time>2013-12-15T10:57:40Z</time>
      </trkpt>
      <trkpt lat="43.55177" lon="6.19197">
        <ele>364.1</ele>
        <time>2013-12-15T10:59:42Z</time>
      </trkpt>
      <trkpt lat="43.55178" lon="6.19197">
        <ele>364.1</ele>
        <time>2013-12-15T10:59:43Z</time>
      </trkpt>
      <trkpt lat="43.55169" lon="6.19191">
        <ele>365.6</ele>
        <time>2013-12-15T11:11:42Z</time>
      </trkpt>
      <trkpt lat="43.55173" lon="6.19204">
        <ele>367.2</ele>
        <time>2013-12-15T11:13:31Z</time>
      </trkpt>
      <trkpt lat="43.55182" lon="6.19203">
        <ele>366.1</ele>
        <time>2013-12-15T11:26:40Z</time>
      </trkpt>
      <trkpt lat="43.55179" lon="6.19216">
        <ele>366.8</ele>
        <time>2013-12-15T11:30:00Z</time>
      </trkpt>
      <trkpt lat="43.5518" lon="6.19202">
        <ele>365.4</ele>
        <time>2013-12-15T11:31:10Z</time>
      </trkpt>
      <trkpt lat="43.55172" lon="6.19196">
        <ele>367.2</ele>
        <time>2013-12-15T11:43:36Z</time>
      </trkpt>
      <trkpt lat="43.55174" lon="6.1921">
        <ele>368.6</ele>
        <time>2013-12-15T12:04:10Z</time>
      </trkpt>
      <trkpt lat="43.55189" lon="6.19219">
        <ele>368.5</ele>
        <time>2013-12-15T12:05:14Z</time>
      </trkpt>
      <trkpt lat="43.5519" lon="6.1922">
        <ele>368.3</ele>
        <time>2013-12-15T12:05:15Z</time>
      </trkpt>
      <trkpt lat="43.55203" lon="6.19233">
        <ele>370.2</ele>
        <time>2013-12-15T12:05:34Z</time>
      </trkpt>
      <trkpt lat="43.55211" lon="6.19232">
        <ele>371.1</ele>
        <time>2013-12-15T12:05:42Z</time>
      </trkpt>
      <trkpt lat="43.5522" lon="6.19232">
        <ele>372.3</ele>
        <time>2013-12-15T12:05:53Z</time>
      </trkpt>
      <trkpt lat="43.55229" lon="6.19232">
        <ele>372.8</ele>
        <time>2013-12-15T12:06:06Z</time>
      </trkpt>
      <trkpt lat="43.55237" lon="6.19238">
        <ele>374.1</ele>
        <time>2013-12-15T12:06:18Z</time>
      </trkpt>
      <trkpt lat="43.55238" lon="6.19238">
        <ele>374.2</ele>
        <time>2013-12-15T12:06:19Z</time>
      </trkpt>
      <trkpt lat="43.55253" lon="6.19246">
        <ele>377</ele>
        <time>2013-12-15T12:06:39Z</time>
      </trkpt>
      <trkpt lat="43.5526" lon="6.19252">
        <ele>378</ele>
        <time>2013-12-15T12:06:50Z</time>
      </trkpt>
      <trkpt lat="43.55268" lon="6.19254">
        <ele>379.7</ele>
        <time>2013-12-15T12:07:03Z</time>
      </trkpt>
      <trkpt lat="43.55276" lon="6.19255">
        <ele>380.6</ele>
        <time>2013-12-15T12:07:11Z</time>
      </trkpt>
      <trkpt lat="43.55285" lon="6.19259">
        <ele>381.9</ele>
        <time>2013-12-15T12:07:22Z</time>
      </trkpt>
      <trkpt lat="43.55286" lon="6.19258">
        <ele>382.2</ele>
        <time>2013-12-15T12:07:23Z</time>
      </trkpt>
      <trkpt lat="43.55302" lon="6.19263">
        <ele>386.4</ele>
        <time>2013-12-15T12:07:49Z</time>
      </trkpt>
      <trkpt lat="43.55311" lon="6.19264">
        <ele>388.4</ele>
        <time>2013-12-15T12:08:01Z</time>
      </trkpt>
      <trkpt lat="43.55319" lon="6.19265">
        <ele>390.2</ele>
        <time>2013-12-15T12:08:14Z</time>
      </trkpt>
      <trkpt lat="43.55326" lon="6.19261">
        <ele>391.7</ele>
        <time>2013-12-15T12:08:25Z</time>
      </trkpt>
      <trkpt lat="43.55327" lon="6.19261">
        <ele>392.1</ele>
        <time>2013-12-15T12:08:26Z</time>
      </trkpt>
      <trkpt lat="43.55343" lon="6.19263">
        <ele>395.1</ele>
        <time>2013-12-15T12:08:50Z</time>
      </trkpt>
      <trkpt lat="43.5535" lon="6.1927">
        <ele>397.7</ele>
        <time>2013-12-15T12:09:03Z</time>
      </trkpt>
      <trkpt lat="43.55358" lon="6.19273">
        <ele>398.5</ele>
        <time>2013-12-15T12:09:13Z</time>
      </trkpt>
      <trkpt lat="43.55367" lon="6.19272">
        <ele>399.8</ele>
        <time>2013-12-15T12:09:22Z</time>
      </trkpt>
      <trkpt lat="43.55375" lon="6.19274">
        <ele>401.2</ele>
        <time>2013-12-15T12:09:32Z</time>
      </trkpt>
      <trkpt lat="43.55376" lon="6.19274">
        <ele>401.1</ele>
        <time>2013-12-15T12:09:33Z</time>
      </trkpt>
      <trkpt lat="43.55391" lon="6.19282">
        <ele>404</ele>
        <time>2013-12-15T12:09:56Z</time>
      </trkpt>
      <trkpt lat="43.55396" lon="6.19292">
        <ele>403.9</ele>
        <time>2013-12-15T12:10:03Z</time>
      </trkpt>
      <trkpt lat="43.55403" lon="6.19298">
        <ele>404.4</ele>
        <time>2013-12-15T12:10:12Z</time>
      </trkpt>
      <trkpt lat="43.5541" lon="6.19306">
        <ele>405.8</ele>
        <time>2013-12-15T12:10:21Z</time>
      </trkpt>
      <trkpt lat="43.55417" lon="6.19313">
        <ele>406.4</ele>
        <time>2013-12-15T12:10:30Z</time>
      </trkpt>
      <trkpt lat="43.55425" lon="6.19318">
        <ele>407</ele>
        <time>2013-12-15T12:10:39Z</time>
      </trkpt>
      <trkpt lat="43.55426" lon="6.19319">
        <ele>407.1</ele>
        <time>2013-12-15T12:10:40Z</time>
      </trkpt>
      <trkpt lat="43.55435" lon="6.19333">
        <ele>408.4</ele>
        <time>2013-12-15T12:10:55Z</time>
      </trkpt>
      <trkpt lat="43.55441" lon="6.19341">
        <ele>408.4</ele>
        <time>2013-12-15T12:11:02Z</time>
      </trkpt>
      <trkpt lat="43.55446" lon="6.1935">
        <ele>409.2</ele>
        <time>2013-12-15T12:11:09Z</time>
      </trkpt>
      <trkpt lat="43.55454" lon="6.19353">
        <ele>409.7</ele>
        <time>2013-12-15T12:11:15Z</time>
      </trkpt>
      <trkpt lat="43.55462" lon="6.19355">
        <ele>410.8</ele>
        <time>2013-12-15T12:11:22Z</time>
      </trkpt>
      <trkpt lat="43.5547" lon="6.19353">
        <ele>411.6</ele>
        <time>2013-12-15T12:11:28Z</time>
      </trkpt>
      <trkpt lat="43.55479" lon="6.19355">
        <ele>411.6</ele>
        <time>2013-12-15T12:11:36Z</time>
      </trkpt>
      <trkpt lat="43.55487" lon="6.19354">
        <ele>411</ele>
        <time>2013-12-15T12:11:43Z</time>
      </trkpt>
      <trkpt lat="43.55488" lon="6.19354">
        <ele>411.1</ele>
        <time>2013-12-15T12:11:44Z</time>
      </trkpt>
      <trkpt lat="43.55502" lon="6.1935">
        <ele>411.7</ele>
        <time>2013-12-15T12:11:55Z</time>
      </trkpt>
      <trkpt lat="43.5551" lon="6.19347">
        <ele>412.4</ele>
        <time>2013-12-15T12:12:02Z</time>
      </trkpt>
      <trkpt lat="43.55517" lon="6.19342">
        <ele>412.6</ele>
        <time>2013-12-15T12:12:09Z</time>
      </trkpt>
      <trkpt lat="43.55524" lon="6.19335">
        <ele>413.3</ele>
        <time>2013-12-15T12:12:16Z</time>
      </trkpt>
      <trkpt lat="43.55532" lon="6.1933">
        <ele>413.9</ele>
        <time>2013-12-15T12:12:23Z</time>
      </trkpt>
      <trkpt lat="43.5554" lon="6.19333">
        <ele>413.9</ele>
        <time>2013-12-15T12:12:31Z</time>
      </trkpt>
      <trkpt lat="43.55547" lon="6.19338">
        <ele>413.5</ele>
        <time>2013-12-15T12:12:40Z</time>
      </trkpt>
      <trkpt lat="43.55556" lon="6.1934">
        <ele>413.4</ele>
        <time>2013-12-15T12:12:48Z</time>
      </trkpt>
      <trkpt lat="43.55557" lon="6.1934">
        <ele>413.4</ele>
        <time>2013-12-15T12:12:49Z</time>
      </trkpt>
      <trkpt lat="43.55572" lon="6.19335">
        <ele>414.1</ele>
        <time>2013-12-15T12:13:03Z</time>
      </trkpt>
      <trkpt lat="43.55579" lon="6.19328">
        <ele>414.3</ele>
        <time>2013-12-15T12:13:19Z</time>
      </trkpt>
      <trkpt lat="43.55587" lon="6.19324">
        <ele>414.6</ele>
        <time>2013-12-15T12:13:27Z</time>
      </trkpt>
      <trkpt lat="43.55594" lon="6.19317">
        <ele>416</ele>
        <time>2013-12-15T12:13:35Z</time>
      </trkpt>
      <trkpt lat="43.55602" lon="6.19312">
        <ele>416.4</ele>
        <time>2013-12-15T12:13:44Z</time>
      </trkpt>
      <trkpt lat="43.55609" lon="6.19307">
        <ele>416.6</ele>
        <time>2013-12-15T12:13:51Z</time>
      </trkpt>
      <trkpt lat="43.5561" lon="6.19306">
        <ele>416.7</ele>
        <time>2013-12-15T12:13:52Z</time>
      </trkpt>
      <trkpt lat="43.55624" lon="6.19302">
        <ele>417.1</ele>
        <time>2013-12-15T12:14:04Z</time>
      </trkpt>
      <trkpt lat="43.55631" lon="6.19298">
        <ele>416.2</ele>
        <time>2013-12-15T12:14:09Z</time>
      </trkpt>
      <trkpt lat="43.5564" lon="6.19297">
        <ele>417.6</ele>
        <time>2013-12-15T12:14:17Z</time>
      </trkpt>
      <trkpt lat="43.55648" lon="6.19295">
        <ele>418.6</ele>
        <time>2013-12-15T12:14:26Z</time>
      </trkpt>
      <trkpt lat="43.55657" lon="6.19296">
        <ele>419.2</ele>
        <time>2013-12-15T12:14:33Z</time>
      </trkpt>
      <trkpt lat="43.55665" lon="6.19297">
        <ele>419.3</ele>
        <time>2013-12-15T12:14:41Z</time>
      </trkpt>
      <trkpt lat="43.55673" lon="6.19298">
        <ele>419.1</ele>
        <time>2013-12-15T12:14:48Z</time>
      </trkpt>
      <trkpt lat="43.55681" lon="6.193">
        <ele>419.8</ele>
        <time>2013-12-15T12:14:55Z</time>
      </trkpt>
      <trkpt lat="43.55682" lon="6.193">
        <ele>419.9</ele>
        <time>2013-12-15T12:14:56Z</time>
      </trkpt>
      <trkpt lat="43.55697" lon="6.19308">
        <ele>420.3</ele>
        <time>2013-12-15T12:15:11Z</time>
      </trkpt>
      <trkpt lat="43.55705" lon="6.19312">
        <ele>420.3</ele>
        <time>2013-12-15T12:15:20Z</time>
      </trkpt>
      <trkpt lat="43.5571" lon="6.1932">
        <ele>420.2</ele>
        <time>2013-12-15T12:15:29Z</time>
      </trkpt>
      <trkpt lat="43.55714" lon="6.19331">
        <ele>420.8</ele>
        <time>2013-12-15T12:15:37Z</time>
      </trkpt>
      <trkpt lat="43.55718" lon="6.19342">
        <ele>419.2</ele>
        <time>2013-12-15T12:15:44Z</time>
      </trkpt>
      <trkpt lat="43.55721" lon="6.19352">
        <ele>418.7</ele>
        <time>2013-12-15T12:15:51Z</time>
      </trkpt>
      <trkpt lat="43.55727" lon="6.1936">
        <ele>417.6</ele>
        <time>2013-12-15T12:16:02Z</time>
      </trkpt>
      <trkpt lat="43.55728" lon="6.19361">
        <ele>417.1</ele>
        <time>2013-12-15T12:16:03Z</time>
      </trkpt>
      <trkpt lat="43.55735" lon="6.19381">
        <ele>414.7</ele>
        <time>2013-12-15T12:16:22Z</time>
      </trkpt>
      <trkpt lat="43.55736" lon="6.19393">
        <ele>412.7</ele>
        <time>2013-12-15T12:16:33Z</time>
      </trkpt>
      <trkpt lat="43.55739" lon="6.19404">
        <ele>412.8</ele>
        <time>2013-12-15T12:16:40Z</time>
      </trkpt>
      <trkpt lat="43.55739" lon="6.19415">
        <ele>411.7</ele>
        <time>2013-12-15T12:16:46Z</time>
      </trkpt>
      <trkpt lat="43.55741" lon="6.19425">
        <ele>411.2</ele>
        <time>2013-12-15T12:16:52Z</time>
      </trkpt>
      <trkpt lat="43.55743" lon="6.19437">
        <ele>410.3</ele>
        <time>2013-12-15T12:16:58Z</time>
      </trkpt>
      <trkpt lat="43.55746" lon="6.19448">
        <ele>409.8</ele>
        <time>2013-12-15T12:17:09Z</time>
      </trkpt>
      <trkpt lat="43.55746" lon="6.19449">
        <ele>409.5</ele>
        <time>2013-12-15T12:17:10Z</time>
      </trkpt>
      <trkpt lat="43.55745" lon="6.19471">
        <ele>407.5</ele>
        <time>2013-12-15T12:17:27Z</time>
      </trkpt>
      <trkpt lat="43.55744" lon="6.19483">
        <ele>406.6</ele>
        <time>2013-12-15T12:17:34Z</time>
      </trkpt>
      <trkpt lat="43.55745" lon="6.19495">
        <ele>406.1</ele>
        <time>2013-12-15T12:17:39Z</time>
      </trkpt>
      <trkpt lat="43.55746" lon="6.19507">
        <ele>404.6</ele>
        <time>2013-12-15T12:17:50Z</time>
      </trkpt>
      <trkpt lat="43.5575" lon="6.19517">
        <ele>404.6</ele>
        <time>2013-12-15T12:17:57Z</time>
      </trkpt>
      <trkpt lat="43.55753" lon="6.19527">
        <ele>404.1</ele>
        <time>2013-12-15T12:18:07Z</time>
      </trkpt>
      <trkpt lat="43.55759" lon="6.19536">
        <ele>404</ele>
        <time>2013-12-15T12:18:13Z</time>
      </trkpt>
      <trkpt lat="43.5576" lon="6.19537">
        <ele>403.9</ele>
        <time>2013-12-15T12:18:14Z</time>
      </trkpt>
      <trkpt lat="43.55769" lon="6.19553">
        <ele>403.4</ele>
        <time>2013-12-15T12:18:32Z</time>
      </trkpt>
      <trkpt lat="43.55774" lon="6.19562">
        <ele>403.5</ele>
        <time>2013-12-15T12:18:39Z</time>
      </trkpt>
      <trkpt lat="43.55778" lon="6.19571">
        <ele>403.3</ele>
        <time>2013-12-15T12:18:46Z</time>
      </trkpt>
      <trkpt lat="43.55783" lon="6.1958">
        <ele>403.8</ele>
        <time>2013-12-15T12:18:53Z</time>
      </trkpt>
      <trkpt lat="43.5579" lon="6.19585">
        <ele>402.7</ele>
        <time>2013-12-15T12:19:03Z</time>
      </trkpt>
      <trkpt lat="43.55797" lon="6.19592">
        <ele>401.3</ele>
        <time>2013-12-15T12:19:12Z</time>
      </trkpt>
      <trkpt lat="43.55804" lon="6.19597">
        <ele>400.5</ele>
        <time>2013-12-15T12:19:19Z</time>
      </trkpt>
      <trkpt lat="43.55805" lon="6.19598">
        <ele>400.2</ele>
        <time>2013-12-15T12:19:20Z</time>
      </trkpt>
      <trkpt lat="43.55819" lon="6.19606">
        <ele>397.5</ele>
        <time>2013-12-15T12:19:34Z</time>
      </trkpt>
      <trkpt lat="43.55826" lon="6.19611">
        <ele>396.6</ele>
        <time>2013-12-15T12:19:41Z</time>
      </trkpt>
      <trkpt lat="43.55834" lon="6.19617">
        <ele>395.9</ele>
        <time>2013-12-15T12:19:49Z</time>
      </trkpt>
      <trkpt lat="43.55841" lon="6.19624">
        <ele>394.5</ele>
        <time>2013-12-15T12:19:57Z</time>
      </trkpt>
      <trkpt lat="43.55846" lon="6.19633">
        <ele>393.3</ele>
        <time>2013-12-15T12:20:07Z</time>
      </trkpt>
      <trkpt lat="43.55852" lon="6.19641">
        <ele>392.4</ele>
        <time>2013-12-15T12:20:15Z</time>
      </trkpt>
      <trkpt lat="43.5586" lon="6.19647">
        <ele>391.5</ele>
        <time>2013-12-15T12:20:29Z</time>
      </trkpt>
      <trkpt lat="43.5586" lon="6.19646">
        <ele>392</ele>
        <time>2013-12-15T12:20:30Z</time>
      </trkpt>
      <trkpt lat="43.55871" lon="6.19665">
        <ele>389.6</ele>
        <time>2013-12-15T12:21:15Z</time>
      </trkpt>
      <trkpt lat="43.55876" lon="6.19674">
        <ele>388.9</ele>
        <time>2013-12-15T12:21:23Z</time>
      </trkpt>
      <trkpt lat="43.55883" lon="6.19681">
        <ele>386.5</ele>
        <time>2013-12-15T12:21:32Z</time>
      </trkpt>
      <trkpt lat="43.55884" lon="6.19682">
        <ele>386.3</ele>
        <time>2013-12-15T12:21:33Z</time>
      </trkpt>
      <trkpt lat="43.55897" lon="6.19696">
        <ele>384.7</ele>
        <time>2013-12-15T12:21:50Z</time>
      </trkpt>
      <trkpt lat="43.55903" lon="6.19703">
        <ele>383.2</ele>
        <time>2013-12-15T12:21:58Z</time>
      </trkpt>
      <trkpt lat="43.55909" lon="6.19712">
        <ele>380.7</ele>
        <time>2013-12-15T12:22:07Z</time>
      </trkpt>
      <trkpt lat="43.55916" lon="6.19717">
        <ele>381</ele>
        <time>2013-12-15T12:22:14Z</time>
      </trkpt>
      <trkpt lat="43.55924" lon="6.19714">
        <ele>380.2</ele>
        <time>2013-12-15T12:22:25Z</time>
      </trkpt>
      <trkpt lat="43.55926" lon="6.19702">
        <ele>378.9</ele>
        <time>2013-12-15T12:22:44Z</time>
      </trkpt>
      <trkpt lat="43.55925" lon="6.19701">
        <ele>378.5</ele>
        <time>2013-12-15T12:22:45Z</time>
      </trkpt>
      <trkpt lat="43.55917" lon="6.19683">
        <ele>377.1</ele>
        <time>2013-12-15T12:23:00Z</time>
      </trkpt>
      <trkpt lat="43.55916" lon="6.19672">
        <ele>376.2</ele>
        <time>2013-12-15T12:23:08Z</time>
      </trkpt>
      <trkpt lat="43.55914" lon="6.1966">
        <ele>375</ele>
        <time>2013-12-15T12:23:17Z</time>
      </trkpt>
      <trkpt lat="43.55911" lon="6.19649">
        <ele>374.3</ele>
        <time>2013-12-15T12:23:27Z</time>
      </trkpt>
      <trkpt lat="43.55911" lon="6.19637">
        <ele>376.2</ele>
        <time>2013-12-15T12:23:35Z</time>
      </trkpt>
      <trkpt lat="43.55906" lon="6.19627">
        <ele>375.8</ele>
        <time>2013-12-15T12:23:47Z</time>
      </trkpt>
      <trkpt lat="43.55906" lon="6.19626">
        <ele>375.6</ele>
        <time>2013-12-15T12:23:48Z</time>
      </trkpt>
      <trkpt lat="43.55908" lon="6.19626">
        <ele>370.9</ele>
        <time>2013-12-15T12:24:24Z</time>
      </trkpt>
      <trkpt lat="43.55914" lon="6.19634">
        <ele>369.3</ele>
        <time>2013-12-15T12:24:35Z</time>
      </trkpt>
      <trkpt lat="43.55918" lon="6.19644">
        <ele>368.7</ele>
        <time>2013-12-15T12:24:42Z</time>
      </trkpt>
      <trkpt lat="43.55924" lon="6.19654">
        <ele>367</ele>
        <time>2013-12-15T12:24:49Z</time>
      </trkpt>
      <trkpt lat="43.55925" lon="6.19654">
        <ele>367.2</ele>
        <time>2013-12-15T12:24:50Z</time>
      </trkpt>
      <trkpt lat="43.55937" lon="6.19667">
        <ele>363.5</ele>
        <time>2013-12-15T12:25:07Z</time>
      </trkpt>
      <trkpt lat="43.55945" lon="6.19673">
        <ele>361.4</ele>
        <time>2013-12-15T12:25:16Z</time>
      </trkpt>
      <trkpt lat="43.55952" lon="6.19678">
        <ele>360.5</ele>
        <time>2013-12-15T12:25:26Z</time>
      </trkpt>
      <trkpt lat="43.55958" lon="6.19687">
        <ele>358.7</ele>
        <time>2013-12-15T12:25:34Z</time>
      </trkpt>
      <trkpt lat="43.55964" lon="6.19696">
        <ele>357.2</ele>
        <time>2013-12-15T12:25:44Z</time>
      </trkpt>
      <trkpt lat="43.55971" lon="6.19703">
        <ele>357.9</ele>
        <time>2013-12-15T12:25:51Z</time>
      </trkpt>
      <trkpt lat="43.55972" lon="6.19703">
        <ele>357.4</ele>
        <time>2013-12-15T12:25:52Z</time>
      </trkpt>
      <trkpt lat="43.55986" lon="6.19713">
        <ele>356.3</ele>
        <time>2013-12-15T12:26:05Z</time>
      </trkpt>
      <trkpt lat="43.5599" lon="6.19724">
        <ele>356.4</ele>
        <time>2013-12-15T12:26:11Z</time>
      </trkpt>
      <trkpt lat="43.55995" lon="6.19734">
        <ele>354.5</ele>
        <time>2013-12-15T12:26:16Z</time>
      </trkpt>
      <trkpt lat="43.56003" lon="6.19738">
        <ele>354.1</ele>
        <time>2013-12-15T12:26:26Z</time>
      </trkpt>
      <trkpt lat="43.56012" lon="6.19738">
        <ele>353.7</ele>
        <time>2013-12-15T12:26:33Z</time>
      </trkpt>
      <trkpt lat="43.5602" lon="6.19736">
        <ele>353.3</ele>
        <time>2013-12-15T12:26:39Z</time>
      </trkpt>
      <trkpt lat="43.56027" lon="6.19737">
        <ele>352.9</ele>
        <time>2013-12-15T12:26:46Z</time>
      </trkpt>
      <trkpt lat="43.56035" lon="6.19741">
        <ele>352.2</ele>
        <time>2013-12-15T12:26:53Z</time>
      </trkpt>
      <trkpt lat="43.56037" lon="6.1974">
        <ele>351.9</ele>
        <time>2013-12-15T12:26:54Z</time>
      </trkpt>
      <trkpt lat="43.56052" lon="6.19742">
        <ele>350</ele>
        <time>2013-12-15T12:27:09Z</time>
      </trkpt>
      <trkpt lat="43.5606" lon="6.19747">
        <ele>349.2</ele>
        <time>2013-12-15T12:27:18Z</time>
      </trkpt>
      <trkpt lat="43.56068" lon="6.19751">
        <ele>348.3</ele>
        <time>2013-12-15T12:27:25Z</time>
      </trkpt>
      <trkpt lat="43.56074" lon="6.19758">
        <ele>347.8</ele>
        <time>2013-12-15T12:27:32Z</time>
      </trkpt>
      <trkpt lat="43.56081" lon="6.19765">
        <ele>346.4</ele>
        <time>2013-12-15T12:27:42Z</time>
      </trkpt>
      <trkpt lat="43.5609" lon="6.19768">
        <ele>345.8</ele>
        <time>2013-12-15T12:27:49Z</time>
      </trkpt>
      <trkpt lat="43.56098" lon="6.1977">
        <ele>345.1</ele>
        <time>2013-12-15T12:27:59Z</time>
      </trkpt>
      <trkpt lat="43.56099" lon="6.1977">
        <ele>345.1</ele>
        <time>2013-12-15T12:28:00Z</time>
      </trkpt>
      <trkpt lat="43.56115" lon="6.19773">
        <ele>344.7</ele>
        <time>2013-12-15T12:28:12Z</time>
      </trkpt>
      <trkpt lat="43.56122" lon="6.19775">
        <ele>343.5</ele>
        <time>2013-12-15T12:28:18Z</time>
      </trkpt>
      <trkpt lat="43.5613" lon="6.19781">
        <ele>344.2</ele>
        <time>2013-12-15T12:28:25Z</time>
      </trkpt>
      <trkpt lat="43.56137" lon="6.19786">
        <ele>342.6</ele>
        <time>2013-12-15T12:28:31Z</time>
      </trkpt>
      <trkpt lat="43.56145" lon="6.1979">
        <ele>341.7</ele>
        <time>2013-12-15T12:28:40Z</time>
      </trkpt>
      <trkpt lat="43.56152" lon="6.19797">
        <ele>342</ele>
        <time>2013-12-15T12:28:47Z</time>
      </trkpt>
      <trkpt lat="43.56156" lon="6.19807">
        <ele>339.9</ele>
        <time>2013-12-15T12:28:54Z</time>
      </trkpt>
      <trkpt lat="43.56159" lon="6.19819">
        <ele>338.6</ele>
        <time>2013-12-15T12:29:05Z</time>
      </trkpt>
      <trkpt lat="43.5616" lon="6.19819">
        <ele>338</ele>
        <time>2013-12-15T12:29:06Z</time>
      </trkpt>
      <trkpt lat="43.56172" lon="6.19814">
        <ele>336.1</ele>
        <time>2013-12-15T12:29:24Z</time>
      </trkpt>
      <trkpt lat="43.56173" lon="6.19803">
        <ele>334.7</ele>
        <time>2013-12-15T12:29:32Z</time>
      </trkpt>
      <trkpt lat="43.56172" lon="6.19791">
        <ele>333.2</ele>
        <time>2013-12-15T12:29:41Z</time>
      </trkpt>
      <trkpt lat="43.56172" lon="6.19782">
        <ele>332.8</ele>
        <time>2013-12-15T12:29:48Z</time>
      </trkpt>
      <trkpt lat="43.56172" lon="6.19769">
        <ele>330.9</ele>
        <time>2013-12-15T12:29:56Z</time>
      </trkpt>
      <trkpt lat="43.56176" lon="6.19761">
        <ele>330.1</ele>
        <time>2013-12-15T12:30:05Z</time>
      </trkpt>
      <trkpt lat="43.56181" lon="6.19752">
        <ele>329.7</ele>
        <time>2013-12-15T12:30:10Z</time>
      </trkpt>
      <trkpt lat="43.56182" lon="6.1975">
        <ele>329.9</ele>
        <time>2013-12-15T12:30:11Z</time>
      </trkpt>
      <trkpt lat="43.56192" lon="6.19735">
        <ele>330.5</ele>
        <time>2013-12-15T12:30:27Z</time>
      </trkpt>
      <trkpt lat="43.56196" lon="6.19725">
        <ele>332.3</ele>
        <time>2013-12-15T12:30:34Z</time>
      </trkpt>
      <trkpt lat="43.56198" lon="6.19714">
        <ele>333.4</ele>
        <time>2013-12-15T12:30:44Z</time>
      </trkpt>
      <trkpt lat="43.56197" lon="6.19703">
        <ele>334.8</ele>
        <time>2013-12-15T12:30:51Z</time>
      </trkpt>
      <trkpt lat="43.56197" lon="6.19692">
        <ele>335.6</ele>
        <time>2013-12-15T12:31:00Z</time>
      </trkpt>
      <trkpt lat="43.56195" lon="6.19681">
        <ele>335.7</ele>
        <time>2013-12-15T12:31:06Z</time>
      </trkpt>
      <trkpt lat="43.56193" lon="6.1967">
        <ele>336</ele>
        <time>2013-12-15T12:31:14Z</time>
      </trkpt>
      <trkpt lat="43.56193" lon="6.19669">
        <ele>336</ele>
        <time>2013-12-15T12:31:15Z</time>
      </trkpt>
      <trkpt lat="43.56193" lon="6.19646">
        <ele>338.4</ele>
        <time>2013-12-15T12:31:36Z</time>
      </trkpt>
      <trkpt lat="43.56192" lon="6.19634">
        <ele>339.3</ele>
        <time>2013-12-15T12:31:45Z</time>
      </trkpt>
      <trkpt lat="43.56188" lon="6.19623">
        <ele>340.8</ele>
        <time>2013-12-15T12:31:59Z</time>
      </trkpt>
      <trkpt lat="43.56186" lon="6.19611">
        <ele>340.5</ele>
        <time>2013-12-15T12:32:11Z</time>
      </trkpt>
      <trkpt lat="43.56184" lon="6.19599">
        <ele>342.6</ele>
        <time>2013-12-15T12:32:37Z</time>
      </trkpt>
      <trkpt lat="43.56185" lon="6.19598">
        <ele>343</ele>
        <time>2013-12-15T12:32:38Z</time>
      </trkpt>
      <trkpt lat="43.56195" lon="6.19581">
        <ele>347.8</ele>
        <time>2013-12-15T12:33:18Z</time>
      </trkpt>
      <trkpt lat="43.56196" lon="6.19569">
        <ele>346</ele>
        <time>2013-12-15T12:33:30Z</time>
      </trkpt>
      <trkpt lat="43.56192" lon="6.19559">
        <ele>343.8</ele>
        <time>2013-12-15T12:33:42Z</time>
      </trkpt>
      <trkpt lat="43.56191" lon="6.19557">
        <ele>343.6</ele>
        <time>2013-12-15T12:33:43Z</time>
      </trkpt>
      <trkpt lat="43.56181" lon="6.1954">
        <ele>341.8</ele>
        <time>2013-12-15T12:33:58Z</time>
      </trkpt>
      <trkpt lat="43.56176" lon="6.19531">
        <ele>341</ele>
        <time>2013-12-15T12:34:11Z</time>
      </trkpt>
      <trkpt lat="43.56169" lon="6.19524">
        <ele>339.2</ele>
        <time>2013-12-15T12:34:19Z</time>
      </trkpt>
      <trkpt lat="43.56161" lon="6.19518">
        <ele>338.5</ele>
        <time>2013-12-15T12:34:26Z</time>
      </trkpt>
      <trkpt lat="43.56155" lon="6.19511">
        <ele>337.7</ele>
        <time>2013-12-15T12:34:44Z</time>
      </trkpt>
      <trkpt lat="43.56154" lon="6.1951">
        <ele>337.8</ele>
        <time>2013-12-15T12:34:45Z</time>
      </trkpt>
      <trkpt lat="43.5617" lon="6.19503">
        <ele>332.9</ele>
        <time>2013-12-15T12:35:27Z</time>
      </trkpt>
      <trkpt lat="43.56178" lon="6.19506">
        <ele>330.9</ele>
        <time>2013-12-15T12:35:46Z</time>
      </trkpt>
      <trkpt lat="43.56179" lon="6.19506">
        <ele>330.9</ele>
        <time>2013-12-15T12:35:47Z</time>
      </trkpt>
      <trkpt lat="43.56191" lon="6.19508">
        <ele>329</ele>
        <time>2013-12-15T12:36:21Z</time>
      </trkpt>
      <trkpt lat="43.562" lon="6.19509">
        <ele>328</ele>
        <time>2013-12-15T12:36:40Z</time>
      </trkpt>
      <trkpt lat="43.56205" lon="6.19518">
        <ele>327.3</ele>
        <time>2013-12-15T12:36:49Z</time>
      </trkpt>
      <trkpt lat="43.56206" lon="6.19519">
        <ele>327.4</ele>
        <time>2013-12-15T12:36:50Z</time>
      </trkpt>
      <trkpt lat="43.56216" lon="6.19535">
        <ele>324.7</ele>
        <time>2013-12-15T12:37:12Z</time>
      </trkpt>
      <trkpt lat="43.56224" lon="6.1954">
        <ele>324.2</ele>
        <time>2013-12-15T12:37:20Z</time>
      </trkpt>
      <trkpt lat="43.5623" lon="6.19548">
        <ele>321.9</ele>
        <time>2013-12-15T12:37:29Z</time>
      </trkpt>
      <trkpt lat="43.56238" lon="6.19552">
        <ele>322</ele>
        <time>2013-12-15T12:37:37Z</time>
      </trkpt>
      <trkpt lat="43.56246" lon="6.19555">
        <ele>319.5</ele>
        <time>2013-12-15T12:37:46Z</time>
      </trkpt>
      <trkpt lat="43.56254" lon="6.19558">
        <ele>317.5</ele>
        <time>2013-12-15T12:37:56Z</time>
      </trkpt>
      <trkpt lat="43.56256" lon="6.19557">
        <ele>317.3</ele>
        <time>2013-12-15T12:37:57Z</time>
      </trkpt>
      <trkpt lat="43.56272" lon="6.19561">
        <ele>315.1</ele>
        <time>2013-12-15T12:38:17Z</time>
      </trkpt>
      <trkpt lat="43.5628" lon="6.19563">
        <ele>314.7</ele>
        <time>2013-12-15T12:38:29Z</time>
      </trkpt>
      <trkpt lat="43.56285" lon="6.19574">
        <ele>312.7</ele>
        <time>2013-12-15T12:38:38Z</time>
      </trkpt>
      <trkpt lat="43.56291" lon="6.19583">
        <ele>312</ele>
        <time>2013-12-15T12:38:46Z</time>
      </trkpt>
      <trkpt lat="43.56297" lon="6.19591">
        <ele>311</ele>
        <time>2013-12-15T12:38:54Z</time>
      </trkpt>
      <trkpt lat="43.56305" lon="6.19595">
        <ele>310.4</ele>
        <time>2013-12-15T12:39:04Z</time>
      </trkpt>
      <trkpt lat="43.56306" lon="6.19596">
        <ele>310.3</ele>
        <time>2013-12-15T12:39:05Z</time>
      </trkpt>
      <trkpt lat="43.56319" lon="6.19606">
        <ele>308.6</ele>
        <time>2013-12-15T12:39:21Z</time>
      </trkpt>
      <trkpt lat="43.56327" lon="6.19612">
        <ele>307.9</ele>
        <time>2013-12-15T12:39:31Z</time>
      </trkpt>
      <trkpt lat="43.56333" lon="6.1962">
        <ele>305.7</ele>
        <time>2013-12-15T12:39:43Z</time>
      </trkpt>
      <trkpt lat="43.5634" lon="6.19627">
        <ele>303.5</ele>
        <time>2013-12-15T12:39:51Z</time>
      </trkpt>
      <trkpt lat="43.56346" lon="6.19635">
        <ele>301.8</ele>
        <time>2013-12-15T12:39:58Z</time>
      </trkpt>
      <trkpt lat="43.56349" lon="6.19646">
        <ele>299.9</ele>
        <time>2013-12-15T12:40:08Z</time>
      </trkpt>
      <trkpt lat="43.5635" lon="6.19647">
        <ele>299.9</ele>
        <time>2013-12-15T12:40:09Z</time>
      </trkpt>
      <trkpt lat="43.56361" lon="6.19663">
        <ele>296.7</ele>
        <time>2013-12-15T12:40:27Z</time>
      </trkpt>
      <trkpt lat="43.56368" lon="6.1967">
        <ele>294.9</ele>
        <time>2013-12-15T12:40:39Z</time>
      </trkpt>
      <trkpt lat="43.56376" lon="6.19667">
        <ele>294</ele>
        <time>2013-12-15T12:40:48Z</time>
      </trkpt>
      <trkpt lat="43.56382" lon="6.1966">
        <ele>292.8</ele>
        <time>2013-12-15T12:40:59Z</time>
      </trkpt>
      <trkpt lat="43.56384" lon="6.19649">
        <ele>291.2</ele>
        <time>2013-12-15T12:41:08Z</time>
      </trkpt>
      <trkpt lat="43.56386" lon="6.19637">
        <ele>290.1</ele>
        <time>2013-12-15T12:41:18Z</time>
      </trkpt>
      <trkpt lat="43.56386" lon="6.19636">
        <ele>290.1</ele>
        <time>2013-12-15T12:41:19Z</time>
      </trkpt>
      <trkpt lat="43.56398" lon="6.19621">
        <ele>287.3</ele>
        <time>2013-12-15T12:41:52Z</time>
      </trkpt>
      <trkpt lat="43.564" lon="6.19609">
        <ele>285.1</ele>
        <time>2013-12-15T12:42:07Z</time>
      </trkpt>
      <trkpt lat="43.56398" lon="6.19598">
        <ele>283.9</ele>
        <time>2013-12-15T12:42:24Z</time>
      </trkpt>
      <trkpt lat="43.56398" lon="6.19598">
        <ele>283.7</ele>
        <time>2013-12-15T12:42:25Z</time>
      </trkpt>
      <trkpt lat="43.564" lon="6.19574">
        <ele>283.2</ele>
        <time>2013-12-15T12:42:45Z</time>
      </trkpt>
      <trkpt lat="43.56405" lon="6.19565">
        <ele>283.6</ele>
        <time>2013-12-15T12:42:52Z</time>
      </trkpt>
      <trkpt lat="43.56411" lon="6.19558">
        <ele>284.5</ele>
        <time>2013-12-15T12:42:58Z</time>
      </trkpt>
      <trkpt lat="43.56414" lon="6.19547">
        <ele>284.8</ele>
        <time>2013-12-15T12:43:07Z</time>
      </trkpt>
      <trkpt lat="43.56415" lon="6.19536">
        <ele>284.2</ele>
        <time>2013-12-15T12:43:18Z</time>
      </trkpt>
      <trkpt lat="43.5641" lon="6.19526">
        <ele>283.9</ele>
        <time>2013-12-15T12:43:36Z</time>
      </trkpt>
      <trkpt lat="43.56409" lon="6.19525">
        <ele>283.9</ele>
        <time>2013-12-15T12:43:37Z</time>
      </trkpt>
      <trkpt lat="43.56395" lon="6.19517">
        <ele>283.4</ele>
        <time>2013-12-15T12:43:52Z</time>
      </trkpt>
      <trkpt lat="43.56388" lon="6.1951">
        <ele>282.8</ele>
        <time>2013-12-15T12:44:06Z</time>
      </trkpt>
      <trkpt lat="43.56382" lon="6.19503">
        <ele>281.8</ele>
        <time>2013-12-15T12:44:14Z</time>
      </trkpt>
      <trkpt lat="43.56376" lon="6.19494">
        <ele>280.3</ele>
        <time>2013-12-15T12:44:25Z</time>
      </trkpt>
      <trkpt lat="43.56376" lon="6.19482">
        <ele>278.7</ele>
        <time>2013-12-15T12:44:41Z</time>
      </trkpt>
      <trkpt lat="43.56375" lon="6.19481">
        <ele>278.4</ele>
        <time>2013-12-15T12:44:42Z</time>
      </trkpt>
      <trkpt lat="43.56377" lon="6.19458">
        <ele>276</ele>
        <time>2013-12-15T12:45:06Z</time>
      </trkpt>
      <trkpt lat="43.5638" lon="6.19447">
        <ele>276.3</ele>
        <time>2013-12-15T12:45:20Z</time>
      </trkpt>
      <trkpt lat="43.56382" lon="6.19436">
        <ele>276</ele>
        <time>2013-12-15T12:45:31Z</time>
      </trkpt>
      <trkpt lat="43.56382" lon="6.19424">
        <ele>275.7</ele>
        <time>2013-12-15T12:45:41Z</time>
      </trkpt>
      <trkpt lat="43.5638" lon="6.19413">
        <ele>275</ele>
        <time>2013-12-15T12:45:49Z</time>
      </trkpt>
      <trkpt lat="43.56379" lon="6.19412">
        <ele>274.8</ele>
        <time>2013-12-15T12:45:50Z</time>
      </trkpt>
      <trkpt lat="43.56375" lon="6.19389">
        <ele>273.9</ele>
        <time>2013-12-15T12:46:10Z</time>
      </trkpt>
      <trkpt lat="43.56371" lon="6.19379">
        <ele>273.2</ele>
        <time>2013-12-15T12:46:19Z</time>
      </trkpt>
      <trkpt lat="43.56367" lon="6.19369">
        <ele>272.6</ele>
        <time>2013-12-15T12:46:27Z</time>
      </trkpt>
      <trkpt lat="43.56362" lon="6.19359">
        <ele>270.9</ele>
        <time>2013-12-15T12:46:42Z</time>
      </trkpt>
      <trkpt lat="43.56361" lon="6.19348">
        <ele>269.9</ele>
        <time>2013-12-15T12:47:50Z</time>
      </trkpt>
      <trkpt lat="43.56361" lon="6.19347">
        <ele>270</ele>
        <time>2013-12-15T12:47:51Z</time>
      </trkpt>
      <trkpt lat="43.56354" lon="6.19326">
        <ele>272.1</ele>
        <time>2013-12-15T12:48:13Z</time>
      </trkpt>
      <trkpt lat="43.56352" lon="6.19314">
        <ele>272.8</ele>
        <time>2013-12-15T12:48:26Z</time>
      </trkpt>
      <trkpt lat="43.56347" lon="6.19306">
        <ele>274.1</ele>
        <time>2013-12-15T12:48:39Z</time>
      </trkpt>
      <trkpt lat="43.56343" lon="6.19297">
        <ele>274.4</ele>
        <time>2013-12-15T12:48:47Z</time>
      </trkpt>
      <trkpt lat="43.56341" lon="6.19287">
        <ele>274.6</ele>
        <time>2013-12-15T12:48:55Z</time>
      </trkpt>
      <trkpt lat="43.5634" lon="6.19285">
        <ele>274.7</ele>
        <time>2013-12-15T12:48:56Z</time>
      </trkpt>
      <trkpt lat="43.56339" lon="6.19263">
        <ele>275.2</ele>
        <time>2013-12-15T12:49:19Z</time>
      </trkpt>
      <trkpt lat="43.56333" lon="6.19256">
        <ele>275.6</ele>
        <time>2013-12-15T12:49:25Z</time>
      </trkpt>
      <trkpt lat="43.56327" lon="6.19247">
        <ele>275.6</ele>
        <time>2013-12-15T12:49:34Z</time>
      </trkpt>
      <trkpt lat="43.56321" lon="6.19238">
        <ele>276.6</ele>
        <time>2013-12-15T12:49:47Z</time>
      </trkpt>
      <trkpt lat="43.5632" lon="6.19227">
        <ele>276.8</ele>
        <time>2013-12-15T12:49:58Z</time>
      </trkpt>
      <trkpt lat="43.5632" lon="6.19225">
        <ele>276.9</ele>
        <time>2013-12-15T12:49:59Z</time>
      </trkpt>
      <trkpt lat="43.56314" lon="6.19204">
        <ele>278</ele>
        <time>2013-12-15T12:50:21Z</time>
      </trkpt>
      <trkpt lat="43.56308" lon="6.19195">
        <ele>279.5</ele>
        <time>2013-12-15T12:50:51Z</time>
      </trkpt>
      <trkpt lat="43.56302" lon="6.19187">
        <ele>283</ele>
        <time>2013-12-15T12:51:11Z</time>
      </trkpt>
      <trkpt lat="43.56302" lon="6.19186">
        <ele>283.1</ele>
        <time>2013-12-15T12:51:12Z</time>
      </trkpt>
      <trkpt lat="43.56287" lon="6.19176">
        <ele>285.1</ele>
        <time>2013-12-15T12:52:53Z</time>
      </trkpt>
      <trkpt lat="43.56286" lon="6.19175">
        <ele>285.1</ele>
        <time>2013-12-15T12:52:54Z</time>
      </trkpt>
      <trkpt lat="43.56274" lon="6.19163">
        <ele>285.8</ele>
        <time>2013-12-15T12:53:14Z</time>
      </trkpt>
      <trkpt lat="43.56267" lon="6.19156">
        <ele>284.2</ele>
        <time>2013-12-15T12:53:35Z</time>
      </trkpt>
      <trkpt lat="43.5627" lon="6.19144">
        <ele>282.2</ele>
        <time>2013-12-15T12:53:54Z</time>
      </trkpt>
      <trkpt lat="43.5627" lon="6.19144">
        <ele>282.2</ele>
        <time>2013-12-15T12:53:55Z</time>
      </trkpt>
      <trkpt lat="43.56254" lon="6.19135">
        <ele>288.6</ele>
        <time>2013-12-15T12:55:03Z</time>
      </trkpt>
      <trkpt lat="43.56254" lon="6.19135">
        <ele>288.8</ele>
        <time>2013-12-15T12:55:04Z</time>
      </trkpt>
      <trkpt lat="43.56242" lon="6.19119">
        <ele>288</ele>
        <time>2013-12-15T12:55:51Z</time>
      </trkpt>
      <trkpt lat="43.56242" lon="6.19108">
        <ele>287.8</ele>
        <time>2013-12-15T12:57:35Z</time>
      </trkpt>
      <trkpt lat="43.56242" lon="6.19107">
        <ele>287.9</ele>
        <time>2013-12-15T12:57:36Z</time>
      </trkpt>
      <trkpt lat="43.56241" lon="6.19095">
        <ele>292.3</ele>
        <time>2013-12-15T12:58:49Z</time>
      </trkpt>
      <trkpt lat="43.56229" lon="6.19078">
        <ele>293</ele>
        <time>2013-12-15T12:59:25Z</time>
      </trkpt>
      <trkpt lat="43.56228" lon="6.19067">
        <ele>295.1</ele>
        <time>2013-12-15T12:59:49Z</time>
      </trkpt>
      <trkpt lat="43.56229" lon="6.19066">
        <ele>294.9</ele>
        <time>2013-12-15T12:59:50Z</time>
      </trkpt>
      <trkpt lat="43.56227" lon="6.19043">
        <ele>293.2</ele>
        <time>2013-12-15T13:00:34Z</time>
      </trkpt>
      <trkpt lat="43.56233" lon="6.19034">
        <ele>294</ele>
        <time>2013-12-15T13:01:05Z</time>
      </trkpt>
      <trkpt lat="43.56234" lon="6.19033">
        <ele>293.9</ele>
        <time>2013-12-15T13:01:06Z</time>
      </trkpt>
      <trkpt lat="43.56238" lon="6.19012">
        <ele>296</ele>
        <time>2013-12-15T13:01:38Z</time>
      </trkpt>
      <trkpt lat="43.56237" lon="6.19">
        <ele>296.6</ele>
        <time>2013-12-15T13:01:51Z</time>
      </trkpt>
      <trkpt lat="43.56236" lon="6.18988">
        <ele>296.7</ele>
        <time>2013-12-15T13:02:07Z</time>
      </trkpt>
      <trkpt lat="43.56236" lon="6.18987">
        <ele>296.8</ele>
        <time>2013-12-15T13:02:08Z</time>
      </trkpt>
      <trkpt lat="43.56236" lon="6.18965">
        <ele>298.6</ele>
        <time>2013-12-15T13:02:25Z</time>
      </trkpt>
      <trkpt lat="43.56234" lon="6.18953">
        <ele>299.8</ele>
        <time>2013-12-15T13:02:33Z</time>
      </trkpt>
      <trkpt lat="43.56234" lon="6.18942">
        <ele>300.8</ele>
        <time>2013-12-15T13:02:40Z</time>
      </trkpt>
      <trkpt lat="43.56235" lon="6.1893">
        <ele>301.4</ele>
        <time>2013-12-15T13:02:56Z</time>
      </trkpt>
      <trkpt lat="43.56229" lon="6.18924">
        <ele>302</ele>
        <time>2013-12-15T13:03:14Z</time>
      </trkpt>
      <trkpt lat="43.56228" lon="6.18923">
        <ele>301.9</ele>
        <time>2013-12-15T13:03:15Z</time>
      </trkpt>
      <trkpt lat="43.56239" lon="6.18922">
        <ele>300.6</ele>
        <time>2013-12-15T13:04:27Z</time>
      </trkpt>
      <trkpt lat="43.56227" lon="6.18904">
        <ele>301.7</ele>
        <time>2013-12-15T13:06:20Z</time>
      </trkpt>
      <trkpt lat="43.56226" lon="6.18904">
        <ele>301.9</ele>
        <time>2013-12-15T13:06:21Z</time>
      </trkpt>
      <trkpt lat="43.56213" lon="6.18918">
        <ele>306.3</ele>
        <time>2013-12-15T13:06:39Z</time>
      </trkpt>
      <trkpt lat="43.56206" lon="6.18925">
        <ele>311</ele>
        <time>2013-12-15T13:07:09Z</time>
      </trkpt>
      <trkpt lat="43.562" lon="6.18916">
        <ele>315.5</ele>
        <time>2013-12-15T13:07:34Z</time>
      </trkpt>
      <trkpt lat="43.562" lon="6.18915">
        <ele>315.7</ele>
        <time>2013-12-15T13:07:35Z</time>
      </trkpt>
      <trkpt lat="43.5619" lon="6.18899">
        <ele>324</ele>
        <time>2013-12-15T13:08:13Z</time>
      </trkpt>
      <trkpt lat="43.56182" lon="6.18896">
        <ele>325.3</ele>
        <time>2013-12-15T13:08:25Z</time>
      </trkpt>
      <trkpt lat="43.56175" lon="6.18888">
        <ele>326</ele>
        <time>2013-12-15T13:08:37Z</time>
      </trkpt>
      <trkpt lat="43.56174" lon="6.18888">
        <ele>326.3</ele>
        <time>2013-12-15T13:08:38Z</time>
      </trkpt>
      <trkpt lat="43.56162" lon="6.18873">
        <ele>328.5</ele>
        <time>2013-12-15T13:08:59Z</time>
      </trkpt>
      <trkpt lat="43.56155" lon="6.18866">
        <ele>331.3</ele>
        <time>2013-12-15T13:09:10Z</time>
      </trkpt>
      <trkpt lat="43.56148" lon="6.18858">
        <ele>332.6</ele>
        <time>2013-12-15T13:09:22Z</time>
      </trkpt>
      <trkpt lat="43.56145" lon="6.18848">
        <ele>333.8</ele>
        <time>2013-12-15T13:09:33Z</time>
      </trkpt>
      <trkpt lat="43.56137" lon="6.18843">
        <ele>334.9</ele>
        <time>2013-12-15T13:10:09Z</time>
      </trkpt>
      <trkpt lat="43.56137" lon="6.18843">
        <ele>335</ele>
        <time>2013-12-15T13:10:10Z</time>
      </trkpt>
      <trkpt lat="43.5614" lon="6.1883">
        <ele>334.3</ele>
        <time>2013-12-15T13:12:55Z</time>
      </trkpt>
      <trkpt lat="43.56153" lon="6.18819">
        <ele>331.9</ele>
        <time>2013-12-15T13:13:16Z</time>
      </trkpt>
      <trkpt lat="43.56162" lon="6.18818">
        <ele>328.5</ele>
        <time>2013-12-15T13:13:36Z</time>
      </trkpt>
      <trkpt lat="43.5617" lon="6.1882">
        <ele>328.3</ele>
        <time>2013-12-15T13:13:46Z</time>
      </trkpt>
      <trkpt lat="43.56177" lon="6.18813">
        <ele>328.2</ele>
        <time>2013-12-15T13:13:56Z</time>
      </trkpt>
      <trkpt lat="43.56178" lon="6.18812">
        <ele>328.2</ele>
        <time>2013-12-15T13:13:57Z</time>
      </trkpt>
      <trkpt lat="43.56194" lon="6.18813">
        <ele>328</ele>
        <time>2013-12-15T13:14:34Z</time>
      </trkpt>
      <trkpt lat="43.56201" lon="6.1882">
        <ele>327.2</ele>
        <time>2013-12-15T13:15:14Z</time>
      </trkpt>
      <trkpt lat="43.56202" lon="6.18822">
        <ele>327.2</ele>
        <time>2013-12-15T13:15:15Z</time>
      </trkpt>
      <trkpt lat="43.56211" lon="6.18836">
        <ele>325</ele>
        <time>2013-12-15T13:15:33Z</time>
      </trkpt>
      <trkpt lat="43.56219" lon="6.1884">
        <ele>324.4</ele>
        <time>2013-12-15T13:15:42Z</time>
      </trkpt>
      <trkpt lat="43.56226" lon="6.18849">
        <ele>324</ele>
        <time>2013-12-15T13:15:51Z</time>
      </trkpt>
      <trkpt lat="43.56234" lon="6.18853">
        <ele>324.2</ele>
        <time>2013-12-15T13:16:07Z</time>
      </trkpt>
      <trkpt lat="43.56241" lon="6.1886">
        <ele>321.3</ele>
        <time>2013-12-15T13:16:45Z</time>
      </trkpt>
      <trkpt lat="43.56241" lon="6.18861">
        <ele>321</ele>
        <time>2013-12-15T13:16:46Z</time>
      </trkpt>
      <trkpt lat="43.56248" lon="6.18868">
        <ele>314.7</ele>
        <time>2013-12-15T13:22:53Z</time>
      </trkpt>
      <trkpt lat="43.5626" lon="6.18853">
        <ele>312.8</ele>
        <time>2013-12-15T13:23:56Z</time>
      </trkpt>
      <trkpt lat="43.5626" lon="6.18852">
        <ele>312.6</ele>
        <time>2013-12-15T13:23:57Z</time>
      </trkpt>
      <trkpt lat="43.56257" lon="6.18833">
        <ele>313.7</ele>
        <time>2013-12-15T13:24:33Z</time>
      </trkpt>
      <trkpt lat="43.56256" lon="6.18821">
        <ele>314.1</ele>
        <time>2013-12-15T13:24:54Z</time>
      </trkpt>
      <trkpt lat="43.56257" lon="6.18808">
        <ele>314.6</ele>
        <time>2013-12-15T13:25:10Z</time>
      </trkpt>
      <trkpt lat="43.56257" lon="6.18808">
        <ele>314.4</ele>
        <time>2013-12-15T13:25:11Z</time>
      </trkpt>
      <trkpt lat="43.56256" lon="6.18785">
        <ele>314.1</ele>
        <time>2013-12-15T13:25:48Z</time>
      </trkpt>
      <trkpt lat="43.56262" lon="6.18776">
        <ele>315.5</ele>
        <time>2013-12-15T13:26:19Z</time>
      </trkpt>
      <trkpt lat="43.56262" lon="6.18776">
        <ele>315.4</ele>
        <time>2013-12-15T13:26:20Z</time>
      </trkpt>
      <trkpt lat="43.56253" lon="6.18773">
        <ele>319.1</ele>
        <time>2013-12-15T13:27:18Z</time>
      </trkpt>
      <trkpt lat="43.56246" lon="6.18764">
        <ele>319.4</ele>
        <time>2013-12-15T13:27:31Z</time>
      </trkpt>
      <trkpt lat="43.56246" lon="6.18763">
        <ele>319.7</ele>
        <time>2013-12-15T13:27:32Z</time>
      </trkpt>
      <trkpt lat="43.56241" lon="6.18741">
        <ele>323.3</ele>
        <time>2013-12-15T13:28:27Z</time>
      </trkpt>
      <trkpt lat="43.56239" lon="6.18729">
        <ele>323.7</ele>
        <time>2013-12-15T13:28:39Z</time>
      </trkpt>
      <trkpt lat="43.56239" lon="6.18729">
        <ele>323.9</ele>
        <time>2013-12-15T13:28:40Z</time>
      </trkpt>
      <trkpt lat="43.56243" lon="6.18706">
        <ele>320.7</ele>
        <time>2013-12-15T13:29:39Z</time>
      </trkpt>
      <trkpt lat="43.56252" lon="6.18704">
        <ele>316.6</ele>
        <time>2013-12-15T13:35:03Z</time>
      </trkpt>
      <trkpt lat="43.56253" lon="6.18705">
        <ele>316.8</ele>
        <time>2013-12-15T13:35:04Z</time>
      </trkpt>
      <trkpt lat="43.56261" lon="6.18684">
        <ele>316.9</ele>
        <time>2013-12-15T13:35:59Z</time>
      </trkpt>
      <trkpt lat="43.56259" lon="6.18672">
        <ele>319.6</ele>
        <time>2013-12-15T13:36:14Z</time>
      </trkpt>
      <trkpt lat="43.56258" lon="6.18672">
        <ele>319.2</ele>
        <time>2013-12-15T13:36:15Z</time>
      </trkpt>
      <trkpt lat="43.56247" lon="6.18656">
        <ele>321.4</ele>
        <time>2013-12-15T13:36:47Z</time>
      </trkpt>
      <trkpt lat="43.56249" lon="6.18645">
        <ele>320.8</ele>
        <time>2013-12-15T13:37:13Z</time>
      </trkpt>
      <trkpt lat="43.56257" lon="6.1864">
        <ele>319.2</ele>
        <time>2013-12-15T13:38:40Z</time>
      </trkpt>
      <trkpt lat="43.56257" lon="6.1864">
        <ele>319</ele>
        <time>2013-12-15T13:38:41Z</time>
      </trkpt>
      <trkpt lat="43.56267" lon="6.18623">
        <ele>318.4</ele>
        <time>2013-12-15T13:39:17Z</time>
      </trkpt>
      <trkpt lat="43.56271" lon="6.18612">
        <ele>320</ele>
        <time>2013-12-15T13:40:27Z</time>
      </trkpt>
      <trkpt lat="43.56271" lon="6.18611">
        <ele>320</ele>
        <time>2013-12-15T13:40:28Z</time>
      </trkpt>
      <trkpt lat="43.56277" lon="6.18593">
        <ele>319.9</ele>
        <time>2013-12-15T13:41:36Z</time>
      </trkpt>
      <trkpt lat="43.56278" lon="6.18592">
        <ele>319.9</ele>
        <time>2013-12-15T13:41:37Z</time>
      </trkpt>
      <trkpt lat="43.5628" lon="6.1857">
        <ele>320.2</ele>
        <time>2013-12-15T13:42:03Z</time>
      </trkpt>
      <trkpt lat="43.56285" lon="6.18561">
        <ele>320.1</ele>
        <time>2013-12-15T13:42:18Z</time>
      </trkpt>
      <trkpt lat="43.56287" lon="6.18549">
        <ele>320.5</ele>
        <time>2013-12-15T13:42:29Z</time>
      </trkpt>
      <trkpt lat="43.56289" lon="6.18537">
        <ele>321.6</ele>
        <time>2013-12-15T13:42:42Z</time>
      </trkpt>
      <trkpt lat="43.56289" lon="6.18537">
        <ele>322.1</ele>
        <time>2013-12-15T13:42:43Z</time>
      </trkpt>
      <trkpt lat="43.56297" lon="6.18516">
        <ele>322</ele>
        <time>2013-12-15T13:43:12Z</time>
      </trkpt>
      <trkpt lat="43.563" lon="6.18506">
        <ele>322.5</ele>
        <time>2013-12-15T13:43:25Z</time>
      </trkpt>
      <trkpt lat="43.56304" lon="6.18495">
        <ele>321.8</ele>
        <time>2013-12-15T13:43:33Z</time>
      </trkpt>
      <trkpt lat="43.56306" lon="6.18483">
        <ele>322.2</ele>
        <time>2013-12-15T13:43:47Z</time>
      </trkpt>
      <trkpt lat="43.56306" lon="6.18482">
        <ele>322.3</ele>
        <time>2013-12-15T13:43:48Z</time>
      </trkpt>
      <trkpt lat="43.56312" lon="6.18462">
        <ele>324.6</ele>
        <time>2013-12-15T13:44:13Z</time>
      </trkpt>
      <trkpt lat="43.56306" lon="6.18453">
        <ele>327.3</ele>
        <time>2013-12-15T13:44:36Z</time>
      </trkpt>
      <trkpt lat="43.56304" lon="6.18441">
        <ele>328.9</ele>
        <time>2013-12-15T13:44:49Z</time>
      </trkpt>
      <trkpt lat="43.56304" lon="6.1844">
        <ele>329.1</ele>
        <time>2013-12-15T13:44:50Z</time>
      </trkpt>
      <trkpt lat="43.563" lon="6.18417">
        <ele>332</ele>
        <time>2013-12-15T13:45:22Z</time>
      </trkpt>
      <trkpt lat="43.56293" lon="6.18425">
        <ele>337.9</ele>
        <time>2013-12-15T13:45:54Z</time>
      </trkpt>
      <trkpt lat="43.56292" lon="6.18426">
        <ele>337.8</ele>
        <time>2013-12-15T13:45:55Z</time>
      </trkpt>
      <trkpt lat="43.56276" lon="6.18432">
        <ele>343.1</ele>
        <time>2013-12-15T13:46:19Z</time>
      </trkpt>
      <trkpt lat="43.56271" lon="6.18442">
        <ele>343.2</ele>
        <time>2013-12-15T13:46:31Z</time>
      </trkpt>
      <trkpt lat="43.56275" lon="6.18453">
        <ele>343.9</ele>
        <time>2013-12-15T13:47:27Z</time>
      </trkpt>
      <trkpt lat="43.56275" lon="6.18453">
        <ele>343.7</ele>
        <time>2013-12-15T13:47:28Z</time>
      </trkpt>
      <trkpt lat="43.56268" lon="6.18445">
        <ele>343.8</ele>
        <time>2013-12-15T13:48:52Z</time>
      </trkpt>
      <trkpt lat="43.56263" lon="6.18434">
        <ele>346.2</ele>
        <time>2013-12-15T13:50:07Z</time>
      </trkpt>
      <trkpt lat="43.56251" lon="6.18419">
        <ele>347.6</ele>
        <time>2013-12-15T13:50:32Z</time>
      </trkpt>
      <trkpt lat="43.56245" lon="6.18427">
        <ele>350</ele>
        <time>2013-12-15T13:51:32Z</time>
      </trkpt>
      <trkpt lat="43.56245" lon="6.18428">
        <ele>350.3</ele>
        <time>2013-12-15T13:51:33Z</time>
      </trkpt>
      <trkpt lat="43.56233" lon="6.18443">
        <ele>355.9</ele>
        <time>2013-12-15T13:52:08Z</time>
      </trkpt>
      <trkpt lat="43.56225" lon="6.18448">
        <ele>357.4</ele>
        <time>2013-12-15T13:52:18Z</time>
      </trkpt>
      <trkpt lat="43.56219" lon="6.18457">
        <ele>358.1</ele>
        <time>2013-12-15T13:52:27Z</time>
      </trkpt>
      <trkpt lat="43.56218" lon="6.18469">
        <ele>357.8</ele>
        <time>2013-12-15T13:52:34Z</time>
      </trkpt>
      <trkpt lat="43.56218" lon="6.1847">
        <ele>357.7</ele>
        <time>2013-12-15T13:52:35Z</time>
      </trkpt>
      <trkpt lat="43.56225" lon="6.18474">
        <ele>357.3</ele>
        <time>2013-12-15T13:54:26Z</time>
      </trkpt>
      <trkpt lat="43.56225" lon="6.18474">
        <ele>357.3</ele>
        <time>2013-12-15T13:54:27Z</time>
      </trkpt>
      <trkpt lat="43.56213" lon="6.18488">
        <ele>357.5</ele>
        <time>2013-12-15T13:55:34Z</time>
      </trkpt>
      <trkpt lat="43.56212" lon="6.1849">
        <ele>357.4</ele>
        <time>2013-12-15T13:55:35Z</time>
      </trkpt>
      <trkpt lat="43.56224" lon="6.18474">
        <ele>358.3</ele>
        <time>2013-12-15T13:56:33Z</time>
      </trkpt>
      <trkpt lat="43.56222" lon="6.18462">
        <ele>357.7</ele>
        <time>2013-12-15T13:56:43Z</time>
      </trkpt>
      <trkpt lat="43.56222" lon="6.18461">
        <ele>357.6</ele>
        <time>2013-12-15T13:56:44Z</time>
      </trkpt>
      <trkpt lat="43.56237" lon="6.18451">
        <ele>353.3</ele>
        <time>2013-12-15T13:57:08Z</time>
      </trkpt>
      <trkpt lat="43.56242" lon="6.18441">
        <ele>350.7</ele>
        <time>2013-12-15T13:57:21Z</time>
      </trkpt>
      <trkpt lat="43.56245" lon="6.18429">
        <ele>349.3</ele>
        <time>2013-12-15T13:57:35Z</time>
      </trkpt>
      <trkpt lat="43.56248" lon="6.18418">
        <ele>348.4</ele>
        <time>2013-12-15T13:57:49Z</time>
      </trkpt>
      <trkpt lat="43.56248" lon="6.18417">
        <ele>348.1</ele>
        <time>2013-12-15T13:57:50Z</time>
      </trkpt>
      <trkpt lat="43.56249" lon="6.18396">
        <ele>347.5</ele>
        <time>2013-12-15T13:58:05Z</time>
      </trkpt>
      <trkpt lat="43.56249" lon="6.18384">
        <ele>346.8</ele>
        <time>2013-12-15T13:58:15Z</time>
      </trkpt>
      <trkpt lat="43.56256" lon="6.18376">
        <ele>346.1</ele>
        <time>2013-12-15T13:58:24Z</time>
      </trkpt>
      <trkpt lat="43.56264" lon="6.18373">
        <ele>345.8</ele>
        <time>2013-12-15T13:58:33Z</time>
      </trkpt>
      <trkpt lat="43.56272" lon="6.18372">
        <ele>345.7</ele>
        <time>2013-12-15T13:58:49Z</time>
      </trkpt>
      <trkpt lat="43.56281" lon="6.18375">
        <ele>345.5</ele>
        <time>2013-12-15T13:59:02Z</time>
      </trkpt>
      <trkpt lat="43.56281" lon="6.18375">
        <ele>345.4</ele>
        <time>2013-12-15T13:59:03Z</time>
      </trkpt>
      <trkpt lat="43.56295" lon="6.18363">
        <ele>348.5</ele>
        <time>2013-12-15T13:59:44Z</time>
      </trkpt>
      <trkpt lat="43.56297" lon="6.18351">
        <ele>350.1</ele>
        <time>2013-12-15T13:59:57Z</time>
      </trkpt>
      <trkpt lat="43.56302" lon="6.18341">
        <ele>351.7</ele>
        <time>2013-12-15T14:00:09Z</time>
      </trkpt>
      <trkpt lat="43.56302" lon="6.1834">
        <ele>351.9</ele>
        <time>2013-12-15T14:00:10Z</time>
      </trkpt>
      <trkpt lat="43.56311" lon="6.1832">
        <ele>355.2</ele>
        <time>2013-12-15T14:00:36Z</time>
      </trkpt>
      <trkpt lat="43.56316" lon="6.1831">
        <ele>356.9</ele>
        <time>2013-12-15T14:00:47Z</time>
      </trkpt>
      <trkpt lat="43.56317" lon="6.18298">
        <ele>358.3</ele>
        <time>2013-12-15T14:01:10Z</time>
      </trkpt>
      <trkpt lat="43.56316" lon="6.18298">
        <ele>358.6</ele>
        <time>2013-12-15T14:01:11Z</time>
      </trkpt>
      <trkpt lat="43.56326" lon="6.18281">
        <ele>360.7</ele>
        <time>2013-12-15T14:01:33Z</time>
      </trkpt>
      <trkpt lat="43.56332" lon="6.18273">
        <ele>362.5</ele>
        <time>2013-12-15T14:01:44Z</time>
      </trkpt>
      <trkpt lat="43.56339" lon="6.18265">
        <ele>365.2</ele>
        <time>2013-12-15T14:01:58Z</time>
      </trkpt>
      <trkpt lat="43.56342" lon="6.18254">
        <ele>366.2</ele>
        <time>2013-12-15T14:02:09Z</time>
      </trkpt>
      <trkpt lat="43.56346" lon="6.18244">
        <ele>366.8</ele>
        <time>2013-12-15T14:02:19Z</time>
      </trkpt>
      <trkpt lat="43.56347" lon="6.18243">
        <ele>366.9</ele>
        <time>2013-12-15T14:02:20Z</time>
      </trkpt>
      <trkpt lat="43.5636" lon="6.18229">
        <ele>368.2</ele>
        <time>2013-12-15T14:02:38Z</time>
      </trkpt>
      <trkpt lat="43.56368" lon="6.18226">
        <ele>370.1</ele>
        <time>2013-12-15T14:02:51Z</time>
      </trkpt>
      <trkpt lat="43.56376" lon="6.18225">
        <ele>371</ele>
        <time>2013-12-15T14:03:00Z</time>
      </trkpt>
      <trkpt lat="43.56384" lon="6.1823">
        <ele>371.1</ele>
        <time>2013-12-15T14:03:38Z</time>
      </trkpt>
      <trkpt lat="43.56385" lon="6.1823">
        <ele>371.2</ele>
        <time>2013-12-15T14:03:39Z</time>
      </trkpt>
      <trkpt lat="43.564" lon="6.18225">
        <ele>370.8</ele>
        <time>2013-12-15T14:03:52Z</time>
      </trkpt>
      <trkpt lat="43.56406" lon="6.18218">
        <ele>371.5</ele>
        <time>2013-12-15T14:03:59Z</time>
      </trkpt>
      <trkpt lat="43.56411" lon="6.18209">
        <ele>371.9</ele>
        <time>2013-12-15T14:04:05Z</time>
      </trkpt>
      <trkpt lat="43.56415" lon="6.18198">
        <ele>372</ele>
        <time>2013-12-15T14:04:12Z</time>
      </trkpt>
      <trkpt lat="43.56419" lon="6.18188">
        <ele>372.1</ele>
        <time>2013-12-15T14:04:20Z</time>
      </trkpt>
      <trkpt lat="43.56428" lon="6.18186">
        <ele>372.1</ele>
        <time>2013-12-15T14:04:40Z</time>
      </trkpt>
      <trkpt lat="43.56429" lon="6.18185">
        <ele>372</ele>
        <time>2013-12-15T14:04:41Z</time>
      </trkpt>
      <trkpt lat="43.56444" lon="6.18177">
        <ele>375.1</ele>
        <time>2013-12-15T14:05:06Z</time>
      </trkpt>
      <trkpt lat="43.56452" lon="6.18174">
        <ele>376.7</ele>
        <time>2013-12-15T14:05:14Z</time>
      </trkpt>
      <trkpt lat="43.56458" lon="6.18165">
        <ele>377.3</ele>
        <time>2013-12-15T14:05:23Z</time>
      </trkpt>
      <trkpt lat="43.56466" lon="6.1816">
        <ele>377.8</ele>
        <time>2013-12-15T14:05:32Z</time>
      </trkpt>
      <trkpt lat="43.56474" lon="6.18156">
        <ele>378</ele>
        <time>2013-12-15T14:05:44Z</time>
      </trkpt>
      <trkpt lat="43.56475" lon="6.18156">
        <ele>378</ele>
        <time>2013-12-15T14:05:45Z</time>
      </trkpt>
      <trkpt lat="43.5649" lon="6.18146">
        <ele>377.9</ele>
        <time>2013-12-15T14:06:00Z</time>
      </trkpt>
      <trkpt lat="43.56497" lon="6.18139">
        <ele>378</ele>
        <time>2013-12-15T14:06:08Z</time>
      </trkpt>
      <trkpt lat="43.56504" lon="6.18133">
        <ele>378.1</ele>
        <time>2013-12-15T14:06:15Z</time>
      </trkpt>
      <trkpt lat="43.56511" lon="6.18127">
        <ele>378.8</ele>
        <time>2013-12-15T14:06:22Z</time>
      </trkpt>
      <trkpt lat="43.56518" lon="6.18121">
        <ele>377.7</ele>
        <time>2013-12-15T14:06:29Z</time>
      </trkpt>
      <trkpt lat="43.56525" lon="6.18116">
        <ele>378.3</ele>
        <time>2013-12-15T14:06:37Z</time>
      </trkpt>
      <trkpt lat="43.56532" lon="6.18108">
        <ele>377.8</ele>
        <time>2013-12-15T14:06:44Z</time>
      </trkpt>
      <trkpt lat="43.56537" lon="6.181">
        <ele>377.6</ele>
        <time>2013-12-15T14:06:51Z</time>
      </trkpt>
      <trkpt lat="43.56538" lon="6.18098">
        <ele>377.5</ele>
        <time>2013-12-15T14:06:52Z</time>
      </trkpt>
      <trkpt lat="43.56549" lon="6.18084">
        <ele>377.7</ele>
        <time>2013-12-15T14:07:06Z</time>
      </trkpt>
      <trkpt lat="43.56555" lon="6.18075">
        <ele>378</ele>
        <time>2013-12-15T14:07:14Z</time>
      </trkpt>
      <trkpt lat="43.56561" lon="6.18066">
        <ele>379</ele>
        <time>2013-12-15T14:07:22Z</time>
      </trkpt>
      <trkpt lat="43.56567" lon="6.18059">
        <ele>379.2</ele>
        <time>2013-12-15T14:07:30Z</time>
      </trkpt>
      <trkpt lat="43.56572" lon="6.1805">
        <ele>379.1</ele>
        <time>2013-12-15T14:07:38Z</time>
      </trkpt>
      <trkpt lat="43.56579" lon="6.18042">
        <ele>378.7</ele>
        <time>2013-12-15T14:07:46Z</time>
      </trkpt>
      <trkpt lat="43.56585" lon="6.18035">
        <ele>379.2</ele>
        <time>2013-12-15T14:07:54Z</time>
      </trkpt>
      <trkpt lat="43.56586" lon="6.18034">
        <ele>379.3</ele>
        <time>2013-12-15T14:07:55Z</time>
      </trkpt>
      <trkpt lat="43.56598" lon="6.18021">
        <ele>379.5</ele>
        <time>2013-12-15T14:08:10Z</time>
      </trkpt>
      <trkpt lat="43.56604" lon="6.18012">
        <ele>378.8</ele>
        <time>2013-12-15T14:08:17Z</time>
      </trkpt>
      <trkpt lat="43.56611" lon="6.18007">
        <ele>378.5</ele>
        <time>2013-12-15T14:08:25Z</time>
      </trkpt>
      <trkpt lat="43.56617" lon="6.18001">
        <ele>378.6</ele>
        <time>2013-12-15T14:08:31Z</time>
      </trkpt>
      <trkpt lat="43.56625" lon="6.18">
        <ele>378.6</ele>
        <time>2013-12-15T14:08:39Z</time>
      </trkpt>
      <trkpt lat="43.56634" lon="6.18">
        <ele>378.8</ele>
        <time>2013-12-15T14:08:48Z</time>
      </trkpt>
      <trkpt lat="43.56643" lon="6.17999">
        <ele>379.1</ele>
        <time>2013-12-15T14:09:12Z</time>
      </trkpt>
      <trkpt lat="43.56643" lon="6.17999">
        <ele>378.9</ele>
        <time>2013-12-15T14:09:13Z</time>
      </trkpt>
      <trkpt lat="43.5666" lon="6.17997">
        <ele>380.7</ele>
        <time>2013-12-15T14:09:36Z</time>
      </trkpt>
      <trkpt lat="43.56668" lon="6.17993">
        <ele>380.5</ele>
        <time>2013-12-15T14:10:01Z</time>
      </trkpt>
      <trkpt lat="43.56677" lon="6.17995">
        <ele>382.3</ele>
        <time>2013-12-15T14:11:40Z</time>
      </trkpt>
      <trkpt lat="43.56678" lon="6.17995">
        <ele>382.3</ele>
        <time>2013-12-15T14:11:41Z</time>
      </trkpt>
      <trkpt lat="43.56668" lon="6.1799">
        <ele>382.3</ele>
        <time>2013-12-15T14:12:48Z</time>
      </trkpt>
    </trkseg>
  </trk>
</gpx>